<?xml version="1.0" encoding="UTF-8" standalone="no" ?>
<gpx xmlns="http://www.topografix.com/GPX/1/1" xmlns:xsi="http://www.w3.org/2001/XMLSchema-instance" xsi:schemaLocation="http://www.topografix.com/GPX/1/1 http://www.topografix.com/GPX/1/1/gpx.xsd" version="1.1" creator="VisuGPX - https://www.visugpx.com">
  <metadata>
    <name>24-069-0370- LA-ROQUE-GAGEAC-par-SOUILLAC</name>
    <desc><![CDATA[En boucle depuis Le Colombier La Ferme Fleurie
PossibilitÃ© d'Ã©viter le retour par Sarlat ( -12km et -100mD+ )
PossibilitÃ© de dÃ©part depuis CARSAC-AILLAT
parking de la place du 19 Mars 1962 ( - 20km et -150mD+ )]]></desc>
  </metadata>
  <trk>
    <name><![CDATA[a(Fr24)_LA_ROQUE_GAGEAC_Colombier 69km_550mD+ par SOUILLAC]]></name>
    <extensions>
      <line xmlns="http://www.topografix.com/GPX/gpx_style/0/2">
        <color>0000FF</color>
        <opacity>1</opacity>
        <width>4</width>
      </line>
    </extensions>
    <trkseg>
      <trkpt lat="44.82626" lon="1.2129">
        <ele>93.707702</ele>
        <time>2022-03-18T07:30:36.955Z</time>
      </trkpt>
      <trkpt lat="44.82627" lon="1.21292">
        <ele>93.707702</ele>
        <time>2022-03-18T07:30:37.324Z</time>
      </trkpt>
      <trkpt lat="44.82626" lon="1.21301">
        <ele>93.707702</ele>
        <time>2022-03-18T07:30:38.732Z</time>
      </trkpt>
      <trkpt lat="44.82627" lon="1.21344">
        <ele>93.707702</ele>
        <time>2022-03-18T07:30:46.370Z</time>
      </trkpt>
      <trkpt lat="44.82636" lon="1.21371">
        <ele>93.707702</ele>
        <time>2022-03-18T07:30:51.195Z</time>
      </trkpt>
      <trkpt lat="44.82639" lon="1.21373">
        <ele>93.707702</ele>
        <time>2022-03-18T07:30:52.265Z</time>
      </trkpt>
      <trkpt lat="44.82635" lon="1.21391">
        <ele>93.707702</ele>
        <time>2022-03-18T07:30:55.158Z</time>
      </trkpt>
      <trkpt lat="44.82634" lon="1.21396">
        <ele>93.707702</ele>
        <time>2022-03-18T07:30:55.968Z</time>
      </trkpt>
      <trkpt lat="44.82624" lon="1.21418">
        <ele>93.566542</ele>
        <time>2022-03-18T07:31:00.197Z</time>
      </trkpt>
      <trkpt lat="44.82609" lon="1.21435">
        <ele>93.265794</ele>
        <time>2022-03-18T07:31:04.173Z</time>
      </trkpt>
      <trkpt lat="44.82547" lon="1.21488">
        <ele>92.14537</ele>
        <time>2022-03-18T07:31:19.729Z</time>
      </trkpt>
      <trkpt lat="44.82516" lon="1.21515">
        <ele>91.580406</ele>
        <time>2022-03-18T07:31:27.604Z</time>
      </trkpt>
      <trkpt lat="44.82499" lon="1.2153">
        <ele>91.260315</ele>
        <time>2022-03-18T07:31:32.277Z</time>
      </trkpt>
      <trkpt lat="44.82492" lon="1.21536">
        <ele>91.135812</ele>
        <time>2022-03-18T07:31:34.140Z</time>
      </trkpt>
      <trkpt lat="44.82489" lon="1.21538">
        <ele>91.089258</ele>
        <time>2022-03-18T07:31:34.803Z</time>
      </trkpt>
      <trkpt lat="44.82496" lon="1.21551">
        <ele>90.90051</ele>
        <time>2022-03-18T07:31:37.554Z</time>
      </trkpt>
      <trkpt lat="44.82542" lon="1.21624">
        <ele>89.248598</ele>
        <time>2022-03-18T07:31:53.267Z</time>
      </trkpt>
      <trkpt lat="44.82581" lon="1.21685">
        <ele>87.843762</ele>
        <time>2022-03-18T07:32:05.119Z</time>
      </trkpt>
      <trkpt lat="44.82592" lon="1.21711">
        <ele>87.331627</ele>
        <time>2022-03-18T07:32:09.271Z</time>
      </trkpt>
      <trkpt lat="44.826" lon="1.21736">
        <ele>86.86609</ele>
        <time>2022-03-18T07:32:13.085Z</time>
      </trkpt>
      <trkpt lat="44.82607" lon="1.21779">
        <ele>85.772846</ele>
        <time>2022-03-18T07:32:18.945Z</time>
      </trkpt>
      <trkpt lat="44.82612" lon="1.21819">
        <ele>84.595247</ele>
        <time>2022-03-18T07:32:24.354Z</time>
      </trkpt>
      <trkpt lat="44.82617" lon="1.21866">
        <ele>83.214153</ele>
        <time>2022-03-18T07:32:30.549Z</time>
      </trkpt>
      <trkpt lat="44.8262" lon="1.2189">
        <ele>82.503313</ele>
        <time>2022-03-18T07:32:33.599Z</time>
      </trkpt>
      <trkpt lat="44.82629" lon="1.21969">
        <ele>80.150915</ele>
        <time>2022-03-18T07:32:44.456Z</time>
      </trkpt>
      <trkpt lat="44.82632" lon="1.21989">
        <ele>79.567387</ele>
        <time>2022-03-18T07:32:46.910Z</time>
      </trkpt>
      <trkpt lat="44.82634" lon="1.21999">
        <ele>79.253897</ele>
        <time>2022-03-18T07:32:48.537Z</time>
      </trkpt>
      <trkpt lat="44.82644" lon="1.22042">
        <ele>78.758328</ele>
        <time>2022-03-18T07:32:54.524Z</time>
      </trkpt>
      <trkpt lat="44.827" lon="1.22199">
        <ele>76.904854</ele>
        <time>2022-03-18T07:33:22.805Z</time>
      </trkpt>
      <trkpt lat="44.82702" lon="1.22208">
        <ele>76.811123</ele>
        <time>2022-03-18T07:33:25.025Z</time>
      </trkpt>
      <trkpt lat="44.82698" lon="1.22226">
        <ele>76.615154</ele>
        <time>2022-03-18T07:33:28.784Z</time>
      </trkpt>
      <trkpt lat="44.82697" lon="1.22228">
        <ele>76.585529</ele>
        <time>2022-03-18T07:33:29.334Z</time>
      </trkpt>
      <trkpt lat="44.82696" lon="1.22234">
        <ele>76.564213</ele>
        <time>2022-03-18T07:33:30.933Z</time>
      </trkpt>
      <trkpt lat="44.82696" lon="1.22235">
        <ele>76.56933</ele>
        <time>2022-03-18T07:33:31.109Z</time>
      </trkpt>
      <trkpt lat="44.82697" lon="1.22237">
        <ele>76.576136</ele>
        <time>2022-03-18T07:33:31.445Z</time>
      </trkpt>
      <trkpt lat="44.82699" lon="1.22239">
        <ele>76.594934</ele>
        <time>2022-03-18T07:33:32.392Z</time>
      </trkpt>
      <trkpt lat="44.82701" lon="1.2224">
        <ele>76.60437</ele>
        <time>2022-03-18T07:33:32.845Z</time>
      </trkpt>
      <trkpt lat="44.82708" lon="1.22247">
        <ele>76.660936</ele>
        <time>2022-03-18T07:33:35.979Z</time>
      </trkpt>
      <trkpt lat="44.82717" lon="1.22258">
        <ele>76.728752</ele>
        <time>2022-03-18T07:33:39.112Z</time>
      </trkpt>
      <trkpt lat="44.82722" lon="1.22272">
        <ele>76.79766</ele>
        <time>2022-03-18T07:33:42.517Z</time>
      </trkpt>
      <trkpt lat="44.82737" lon="1.22296">
        <ele>76.940134</ele>
        <time>2022-03-18T07:33:49.652Z</time>
      </trkpt>
      <trkpt lat="44.82744" lon="1.22305">
        <ele>76.997348</ele>
        <time>2022-03-18T07:33:52.533Z</time>
      </trkpt>
      <trkpt lat="44.82743" lon="1.22308">
        <ele>77.014368</ele>
        <time>2022-03-18T07:33:53.297Z</time>
      </trkpt>
      <trkpt lat="44.82733" lon="1.22338">
        <ele>77.157298</ele>
        <time>2022-03-18T07:34:00.399Z</time>
      </trkpt>
      <trkpt lat="44.82703" lon="1.22421">
        <ele>77.563683</ele>
        <time>2022-03-18T07:34:20.152Z</time>
      </trkpt>
      <trkpt lat="44.82719" lon="1.22513">
        <ele>77.854169</ele>
        <time>2022-03-18T07:34:40.708Z</time>
      </trkpt>
      <trkpt lat="44.82761" lon="1.22591">
        <ele>78.124549</ele>
        <time>2022-03-18T07:35:00.384Z</time>
      </trkpt>
      <trkpt lat="44.82804" lon="1.22647">
        <ele>78.351542</ele>
        <time>2022-03-18T07:35:16.020Z</time>
      </trkpt>
      <trkpt lat="44.82845" lon="1.22687">
        <ele>78.596575</ele>
        <time>2022-03-18T07:35:29.499Z</time>
      </trkpt>
      <trkpt lat="44.82893" lon="1.22747">
        <ele>78.916734</ele>
        <time>2022-03-18T07:35:48.235Z</time>
      </trkpt>
      <trkpt lat="44.82935" lon="1.22835">
        <ele>79.309908</ele>
        <time>2022-03-18T07:36:10.927Z</time>
      </trkpt>
      <trkpt lat="44.82981" lon="1.22966">
        <ele>80.070273</ele>
        <time>2022-03-18T07:36:42.966Z</time>
      </trkpt>
      <trkpt lat="44.82991" lon="1.23007">
        <ele>80.293307</ele>
        <time>2022-03-18T07:36:52.305Z</time>
      </trkpt>
      <trkpt lat="44.83009" lon="1.23101">
        <ele>80.672511</ele>
        <time>2022-03-18T07:37:12.579Z</time>
      </trkpt>
      <trkpt lat="44.83029" lon="1.23252">
        <ele>81.058722</ele>
        <time>2022-03-18T07:37:42.054Z</time>
      </trkpt>
      <trkpt lat="44.83052" lon="1.23312">
        <ele>81.386946</ele>
        <time>2022-03-18T07:37:56.016Z</time>
      </trkpt>
      <trkpt lat="44.83069" lon="1.23337">
        <ele>81.83741</ele>
        <time>2022-03-18T07:38:03.787Z</time>
      </trkpt>
      <trkpt lat="44.83088" lon="1.23354">
        <ele>82.243224</ele>
        <time>2022-03-18T07:38:10.895Z</time>
      </trkpt>
      <trkpt lat="44.83102" lon="1.23367">
        <ele>82.538348</ele>
        <time>2022-03-18T07:38:16.588Z</time>
      </trkpt>
      <trkpt lat="44.8312" lon="1.23386">
        <ele>82.955164</ele>
        <time>2022-03-18T07:38:24.454Z</time>
      </trkpt>
      <trkpt lat="44.83141" lon="1.23427">
        <ele>83.603706</ele>
        <time>2022-03-18T07:38:37.714Z</time>
      </trkpt>
      <trkpt lat="44.83146" lon="1.23445">
        <ele>83.843834</ele>
        <time>2022-03-18T07:38:43.055Z</time>
      </trkpt>
      <trkpt lat="44.83144" lon="1.23549">
        <ele>85.833125</ele>
        <time>2022-03-18T07:39:13.959Z</time>
      </trkpt>
      <trkpt lat="44.83155" lon="1.23584">
        <ele>86.732017</ele>
        <time>2022-03-18T07:39:25.416Z</time>
      </trkpt>
      <trkpt lat="44.83175" lon="1.23609">
        <ele>87.633785</ele>
        <time>2022-03-18T07:39:37.182Z</time>
      </trkpt>
      <trkpt lat="44.83201" lon="1.23614">
        <ele>88.515586</ele>
        <time>2022-03-18T07:39:48.862Z</time>
      </trkpt>
      <trkpt lat="44.83344" lon="1.23572">
        <ele>93.084941</ele>
        <time>2022-03-18T07:40:51.998Z</time>
      </trkpt>
      <trkpt lat="44.83359" lon="1.2357">
        <ele>93.525007</ele>
        <time>2022-03-18T07:40:58.178Z</time>
      </trkpt>
      <trkpt lat="44.83371" lon="1.23567">
        <ele>93.902883</ele>
        <time>2022-03-18T07:41:02.858Z</time>
      </trkpt>
      <trkpt lat="44.83442" lon="1.2358">
        <ele>96.073391</ele>
        <time>2022-03-18T07:41:29.428Z</time>
      </trkpt>
      <trkpt lat="44.83456" lon="1.23592">
        <ele>96.656552</ele>
        <time>2022-03-18T07:41:35.149Z</time>
      </trkpt>
      <trkpt lat="44.83471" lon="1.23617">
        <ele>97.525975</ele>
        <time>2022-03-18T07:41:45.388Z</time>
      </trkpt>
      <trkpt lat="44.83517" lon="1.23696">
        <ele>100.221587</ele>
        <time>2022-03-18T07:42:16.663Z</time>
      </trkpt>
      <trkpt lat="44.83545" lon="1.23755">
        <ele>102.085247</ele>
        <time>2022-03-18T07:42:40.989Z</time>
      </trkpt>
      <trkpt lat="44.83559" lon="1.23784">
        <ele>103.135244</ele>
        <time>2022-03-18T07:42:54.257Z</time>
      </trkpt>
      <trkpt lat="44.83587" lon="1.23848">
        <ele>105.696818</ele>
        <time>2022-03-18T07:43:22.008Z</time>
      </trkpt>
      <trkpt lat="44.83602" lon="1.23897">
        <ele>107.522495</ele>
        <time>2022-03-18T07:43:42.767Z</time>
      </trkpt>
      <trkpt lat="44.83633" lon="1.24067">
        <ele>111.228498</ele>
        <time>2022-03-18T07:44:41.337Z</time>
      </trkpt>
      <trkpt lat="44.83635" lon="1.2412">
        <ele>111.2984</ele>
        <time>2022-03-18T07:44:52.651Z</time>
      </trkpt>
      <trkpt lat="44.83621" lon="1.24187">
        <ele>111.390269</ele>
        <time>2022-03-18T07:45:03.365Z</time>
      </trkpt>
      <trkpt lat="44.83611" lon="1.24219">
        <ele>111.436287</ele>
        <time>2022-03-18T07:45:08.314Z</time>
      </trkpt>
      <trkpt lat="44.8359" lon="1.24282">
        <ele>110.492093</ele>
        <time>2022-03-18T07:45:18.193Z</time>
      </trkpt>
      <trkpt lat="44.8358" lon="1.24334">
        <ele>109.245994</ele>
        <time>2022-03-18T07:45:25.561Z</time>
      </trkpt>
      <trkpt lat="44.83578" lon="1.24354">
        <ele>108.769585</ele>
        <time>2022-03-18T07:45:28.239Z</time>
      </trkpt>
      <trkpt lat="44.83576" lon="1.24365">
        <ele>108.524291</ele>
        <time>2022-03-18T07:45:29.685Z</time>
      </trkpt>
      <trkpt lat="44.8357" lon="1.24462">
        <ele>106.283721</ele>
        <time>2022-03-18T07:45:42.681Z</time>
      </trkpt>
      <trkpt lat="44.83576" lon="1.24503">
        <ele>105.545304</ele>
        <time>2022-03-18T07:45:48.619Z</time>
      </trkpt>
      <trkpt lat="44.83578" lon="1.2451">
        <ele>105.500511</ele>
        <time>2022-03-18T07:45:49.691Z</time>
      </trkpt>
      <trkpt lat="44.83581" lon="1.2452">
        <ele>105.434972</ele>
        <time>2022-03-18T07:45:51.520Z</time>
      </trkpt>
      <trkpt lat="44.8359" lon="1.24535">
        <ele>105.321597</ele>
        <time>2022-03-18T07:45:54.358Z</time>
      </trkpt>
      <trkpt lat="44.83712" lon="1.24745">
        <ele>103.792066</ele>
        <time>2022-03-18T07:46:44.868Z</time>
      </trkpt>
      <trkpt lat="44.83741" lon="1.24778">
        <ele>103.514653</ele>
        <time>2022-03-18T07:46:54.767Z</time>
      </trkpt>
      <trkpt lat="44.83761" lon="1.24791">
        <ele>103.352743</ele>
        <time>2022-03-18T07:46:59.692Z</time>
      </trkpt>
      <trkpt lat="44.83771" lon="1.24797">
        <ele>103.273469</ele>
        <time>2022-03-18T07:47:02.217Z</time>
      </trkpt>
      <trkpt lat="44.83775" lon="1.248">
        <ele>103.239079</ele>
        <time>2022-03-18T07:47:03.350Z</time>
      </trkpt>
      <trkpt lat="44.83786" lon="1.24809">
        <ele>103.146621</ele>
        <time>2022-03-18T07:47:06.090Z</time>
      </trkpt>
      <trkpt lat="44.8382" lon="1.24854">
        <ele>102.720795</ele>
        <time>2022-03-18T07:47:16.562Z</time>
      </trkpt>
      <trkpt lat="44.83825" lon="1.2486">
        <ele>102.556336</ele>
        <time>2022-03-18T07:47:17.794Z</time>
      </trkpt>
      <trkpt lat="44.8383" lon="1.24865">
        <ele>102.386634</ele>
        <time>2022-03-18T07:47:19.292Z</time>
      </trkpt>
      <trkpt lat="44.83853" lon="1.24882">
        <ele>101.668518</ele>
        <time>2022-03-18T07:47:25.067Z</time>
      </trkpt>
      <trkpt lat="44.83855" lon="1.24884">
        <ele>101.603385</ele>
        <time>2022-03-18T07:47:25.481Z</time>
      </trkpt>
      <trkpt lat="44.839" lon="1.24911">
        <ele>100.279827</ele>
        <time>2022-03-18T07:47:35.856Z</time>
      </trkpt>
      <trkpt lat="44.83938" lon="1.2493">
        <ele>99.17499</ele>
        <time>2022-03-18T07:47:43.667Z</time>
      </trkpt>
      <trkpt lat="44.84013" lon="1.24954">
        <ele>96.989559</ele>
        <time>2022-03-18T07:47:58.003Z</time>
      </trkpt>
      <trkpt lat="44.84054" lon="1.24966">
        <ele>95.744437</ele>
        <time>2022-03-18T07:48:06.287Z</time>
      </trkpt>
      <trkpt lat="44.84055" lon="1.24966">
        <ele>95.692485</ele>
        <time>2022-03-18T07:48:06.608Z</time>
      </trkpt>
      <trkpt lat="44.84073" lon="1.24971">
        <ele>95.14659</ele>
        <time>2022-03-18T07:48:10.342Z</time>
      </trkpt>
      <trkpt lat="44.84107" lon="1.24982">
        <ele>94.105802</ele>
        <time>2022-03-18T07:48:17.409Z</time>
      </trkpt>
      <trkpt lat="44.84175" lon="1.25024">
        <ele>92.143843</ele>
        <time>2022-03-18T07:48:32.429Z</time>
      </trkpt>
      <trkpt lat="44.84195" lon="1.25024">
        <ele>91.776738</ele>
        <time>2022-03-18T07:48:36.495Z</time>
      </trkpt>
      <trkpt lat="44.84225" lon="1.25039">
        <ele>91.198572</ele>
        <time>2022-03-18T07:48:42.949Z</time>
      </trkpt>
      <trkpt lat="44.84254" lon="1.2506">
        <ele>90.619084</ele>
        <time>2022-03-18T07:48:49.658Z</time>
      </trkpt>
      <trkpt lat="44.84271" lon="1.25065">
        <ele>90.309602</ele>
        <time>2022-03-18T07:48:53.449Z</time>
      </trkpt>
      <trkpt lat="44.84281" lon="1.25077">
        <ele>90.058344</ele>
        <time>2022-03-18T07:48:56.616Z</time>
      </trkpt>
      <trkpt lat="44.84289" lon="1.25082">
        <ele>89.909778</ele>
        <time>2022-03-18T07:48:58.456Z</time>
      </trkpt>
      <trkpt lat="44.843" lon="1.25093">
        <ele>89.667274</ele>
        <time>2022-03-18T07:49:01.566Z</time>
      </trkpt>
      <trkpt lat="44.84329" lon="1.25088">
        <ele>89.31287</ele>
        <time>2022-03-18T07:49:08.588Z</time>
      </trkpt>
      <trkpt lat="44.84346" lon="1.25099">
        <ele>89.394262</ele>
        <time>2022-03-18T07:49:13.328Z</time>
      </trkpt>
      <trkpt lat="44.84357" lon="1.25116">
        <ele>89.463481</ele>
        <time>2022-03-18T07:49:17.338Z</time>
      </trkpt>
      <trkpt lat="44.84368" lon="1.25153">
        <ele>89.586268</ele>
        <time>2022-03-18T07:49:25.067Z</time>
      </trkpt>
      <trkpt lat="44.84421" lon="1.25228">
        <ele>89.902685</ele>
        <time>2022-03-18T07:49:48.539Z</time>
      </trkpt>
      <trkpt lat="44.84439" lon="1.25274">
        <ele>90.085469</ele>
        <time>2022-03-18T07:50:01.059Z</time>
      </trkpt>
      <trkpt lat="44.84452" lon="1.2529">
        <ele>90.236566</ele>
        <time>2022-03-18T07:50:07.762Z</time>
      </trkpt>
      <trkpt lat="44.8451" lon="1.25326">
        <ele>90.823206</ele>
        <time>2022-03-18T07:50:25.380Z</time>
      </trkpt>
      <trkpt lat="44.84513" lon="1.25337">
        <ele>90.902653</ele>
        <time>2022-03-18T07:50:29.205Z</time>
      </trkpt>
      <trkpt lat="44.84514" lon="1.25353">
        <ele>91.00328</ele>
        <time>2022-03-18T07:50:31.590Z</time>
      </trkpt>
      <trkpt lat="44.84505" lon="1.25401">
        <ele>91.331689</ele>
        <time>2022-03-18T07:50:42.878Z</time>
      </trkpt>
      <trkpt lat="44.84501" lon="1.2545">
        <ele>91.647831</ele>
        <time>2022-03-18T07:50:53.806Z</time>
      </trkpt>
      <trkpt lat="44.84496" lon="1.25463">
        <ele>91.698389</ele>
        <time>2022-03-18T07:50:57.838Z</time>
      </trkpt>
      <trkpt lat="44.84479" lon="1.25486">
        <ele>91.706002</ele>
        <time>2022-03-18T07:51:04.810Z</time>
      </trkpt>
      <trkpt lat="44.84474" lon="1.255">
        <ele>91.709414</ele>
        <time>2022-03-18T07:51:08.568Z</time>
      </trkpt>
      <trkpt lat="44.84472" lon="1.2552">
        <ele>91.714094</ele>
        <time>2022-03-18T07:51:13.418Z</time>
      </trkpt>
      <trkpt lat="44.84479" lon="1.2558">
        <ele>91.727871</ele>
        <time>2022-03-18T07:51:24.375Z</time>
      </trkpt>
      <trkpt lat="44.84451" lon="1.2571">
        <ele>91.522059</ele>
        <time>2022-03-18T07:51:48.597Z</time>
      </trkpt>
      <trkpt lat="44.84426" lon="1.25777">
        <ele>90.639579</ele>
        <time>2022-03-18T07:52:00.495Z</time>
      </trkpt>
      <trkpt lat="44.84385" lon="1.25848">
        <ele>89.58432</ele>
        <time>2022-03-18T07:52:14.407Z</time>
      </trkpt>
      <trkpt lat="44.84371" lon="1.25863">
        <ele>89.283676</ele>
        <time>2022-03-18T07:52:17.853Z</time>
      </trkpt>
      <trkpt lat="44.84369" lon="1.25864">
        <ele>89.25958</ele>
        <time>2022-03-18T07:52:18.106Z</time>
      </trkpt>
      <trkpt lat="44.84353" lon="1.25882">
        <ele>88.920794</ele>
        <time>2022-03-18T07:52:23.218Z</time>
      </trkpt>
      <trkpt lat="44.84345" lon="1.25894">
        <ele>88.74434</ele>
        <time>2022-03-18T07:52:25.327Z</time>
      </trkpt>
      <trkpt lat="44.84342" lon="1.25903">
        <ele>88.641368</ele>
        <time>2022-03-18T07:52:26.778Z</time>
      </trkpt>
      <trkpt lat="44.84338" lon="1.25917">
        <ele>88.48383</ele>
        <time>2022-03-18T07:52:30.141Z</time>
      </trkpt>
      <trkpt lat="44.84337" lon="1.25945">
        <ele>88.200808</ele>
        <time>2022-03-18T07:52:33.889Z</time>
      </trkpt>
      <trkpt lat="44.84348" lon="1.25978">
        <ele>87.842331</ele>
        <time>2022-03-18T07:52:39.533Z</time>
      </trkpt>
      <trkpt lat="44.84368" lon="1.26024">
        <ele>87.295949</ele>
        <time>2022-03-18T07:52:47.481Z</time>
      </trkpt>
      <trkpt lat="44.8437" lon="1.26039">
        <ele>87.143227</ele>
        <time>2022-03-18T07:52:49.475Z</time>
      </trkpt>
      <trkpt lat="44.84379" lon="1.26113">
        <ele>86.389029</ele>
        <time>2022-03-18T07:53:04.491Z</time>
      </trkpt>
      <trkpt lat="44.8438" lon="1.26248">
        <ele>86.153157</ele>
        <time>2022-03-18T07:53:30.348Z</time>
      </trkpt>
      <trkpt lat="44.84369" lon="1.26307">
        <ele>86.106753</ele>
        <time>2022-03-18T07:53:41.242Z</time>
      </trkpt>
      <trkpt lat="44.84371" lon="1.26356">
        <ele>86.069054</ele>
        <time>2022-03-18T07:53:50.170Z</time>
      </trkpt>
      <trkpt lat="44.84361" lon="1.26409">
        <ele>86.084042</ele>
        <time>2022-03-18T07:54:00.425Z</time>
      </trkpt>
      <trkpt lat="44.8436" lon="1.26434">
        <ele>86.108681</ele>
        <time>2022-03-18T07:54:05.128Z</time>
      </trkpt>
      <trkpt lat="44.84347" lon="1.26491">
        <ele>86.168692</ele>
        <time>2022-03-18T07:54:16.780Z</time>
      </trkpt>
      <trkpt lat="44.84348" lon="1.26526">
        <ele>86.202756</ele>
        <time>2022-03-18T07:54:23.528Z</time>
      </trkpt>
      <trkpt lat="44.84318" lon="1.26613">
        <ele>86.299469</ele>
        <time>2022-03-18T07:54:42.835Z</time>
      </trkpt>
      <trkpt lat="44.84299" lon="1.26648">
        <ele>86.29511</ele>
        <time>2022-03-18T07:54:51.370Z</time>
      </trkpt>
      <trkpt lat="44.84255" lon="1.26768">
        <ele>86.266189</ele>
        <time>2022-03-18T07:55:18.116Z</time>
      </trkpt>
      <trkpt lat="44.84234" lon="1.26809">
        <ele>86.255192</ele>
        <time>2022-03-18T07:55:27.539Z</time>
      </trkpt>
      <trkpt lat="44.84164" lon="1.26908">
        <ele>84.800539</ele>
        <time>2022-03-18T07:55:50.661Z</time>
      </trkpt>
      <trkpt lat="44.84067" lon="1.26988">
        <ele>82.759115</ele>
        <time>2022-03-18T07:56:13.322Z</time>
      </trkpt>
      <trkpt lat="44.84038" lon="1.27022">
        <ele>82.069852</ele>
        <time>2022-03-18T07:56:20.917Z</time>
      </trkpt>
      <trkpt lat="44.84031" lon="1.27041">
        <ele>81.788997</ele>
        <time>2022-03-18T07:56:23.842Z</time>
      </trkpt>
      <trkpt lat="44.84026" lon="1.27059">
        <ele>81.550822</ele>
        <time>2022-03-18T07:56:26.782Z</time>
      </trkpt>
      <trkpt lat="44.84027" lon="1.27093">
        <ele>81.107217</ele>
        <time>2022-03-18T07:56:31.680Z</time>
      </trkpt>
      <trkpt lat="44.84031" lon="1.27109">
        <ele>80.887243</ele>
        <time>2022-03-18T07:56:34.538Z</time>
      </trkpt>
      <trkpt lat="44.84026" lon="1.27111">
        <ele>80.788903</ele>
        <time>2022-03-18T07:56:35.793Z</time>
      </trkpt>
      <trkpt lat="44.84021" lon="1.27113">
        <ele>80.700999</ele>
        <time>2022-03-18T07:56:36.837Z</time>
      </trkpt>
      <trkpt lat="44.84014" lon="1.27114">
        <ele>80.582479</ele>
        <time>2022-03-18T07:56:38.214Z</time>
      </trkpt>
      <trkpt lat="44.8399" lon="1.27116">
        <ele>80.132348</ele>
        <time>2022-03-18T07:56:44.214Z</time>
      </trkpt>
      <trkpt lat="44.83981" lon="1.27115">
        <ele>79.977274</ele>
        <time>2022-03-18T07:56:46.105Z</time>
      </trkpt>
      <trkpt lat="44.83958" lon="1.27113">
        <ele>79.849891</ele>
        <time>2022-03-18T07:56:51.980Z</time>
      </trkpt>
      <trkpt lat="44.83954" lon="1.27109">
        <ele>79.954721</ele>
        <time>2022-03-18T07:56:53.248Z</time>
      </trkpt>
      <trkpt lat="44.83928" lon="1.27213">
        <ele>81.624931</ele>
        <time>2022-03-18T07:57:18.619Z</time>
      </trkpt>
      <trkpt lat="44.83873" lon="1.27366">
        <ele>84.982511</ele>
        <time>2022-03-18T07:58:14.985Z</time>
      </trkpt>
      <trkpt lat="44.83871" lon="1.27378">
        <ele>85.405979</ele>
        <time>2022-03-18T07:58:20.386Z</time>
      </trkpt>
      <trkpt lat="44.83867" lon="1.27403">
        <ele>86.207522</ele>
        <time>2022-03-18T07:58:28.882Z</time>
      </trkpt>
      <trkpt lat="44.83862" lon="1.27458">
        <ele>87.995487</ele>
        <time>2022-03-18T07:58:47.757Z</time>
      </trkpt>
      <trkpt lat="44.83868" lon="1.27507">
        <ele>89.567151</ele>
        <time>2022-03-18T07:59:06.176Z</time>
      </trkpt>
      <trkpt lat="44.83875" lon="1.27533">
        <ele>90.46861</ele>
        <time>2022-03-18T07:59:17.393Z</time>
      </trkpt>
      <trkpt lat="44.83947" lon="1.27565">
        <ele>93.066061</ele>
        <time>2022-03-18T07:59:55.360Z</time>
      </trkpt>
      <trkpt lat="44.83944" lon="1.27573">
        <ele>93.243721</ele>
        <time>2022-03-18T07:59:57.909Z</time>
      </trkpt>
      <trkpt lat="44.83942" lon="1.27582">
        <ele>93.430538</ele>
        <time>2022-03-18T08:00:00.132Z</time>
      </trkpt>
      <trkpt lat="44.8394" lon="1.27593">
        <ele>93.669015</ele>
        <time>2022-03-18T08:00:03.818Z</time>
      </trkpt>
      <trkpt lat="44.83938" lon="1.27605">
        <ele>93.917947</ele>
        <time>2022-03-18T08:00:07.819Z</time>
      </trkpt>
      <trkpt lat="44.83936" lon="1.27617">
        <ele>94.163725</ele>
        <time>2022-03-18T08:00:09.856Z</time>
      </trkpt>
      <trkpt lat="44.83933" lon="1.27626">
        <ele>94.355616</ele>
        <time>2022-03-18T08:00:12.073Z</time>
      </trkpt>
      <trkpt lat="44.83929" lon="1.27634">
        <ele>94.553302</ele>
        <time>2022-03-18T08:00:14.463Z</time>
      </trkpt>
      <trkpt lat="44.83933" lon="1.27637">
        <ele>94.685613</ele>
        <time>2022-03-18T08:00:16.283Z</time>
      </trkpt>
      <trkpt lat="44.83938" lon="1.27639">
        <ele>94.847591</ele>
        <time>2022-03-18T08:00:18.725Z</time>
      </trkpt>
      <trkpt lat="44.8395" lon="1.27636">
        <ele>95.192797</ele>
        <time>2022-03-18T08:00:21.975Z</time>
      </trkpt>
      <trkpt lat="44.83953" lon="1.27635">
        <ele>95.267535</ele>
        <time>2022-03-18T08:00:23.172Z</time>
      </trkpt>
      <trkpt lat="44.84003" lon="1.27617">
        <ele>96.719105</ele>
        <time>2022-03-18T08:00:42.170Z</time>
      </trkpt>
      <trkpt lat="44.84013" lon="1.27614">
        <ele>97.004341</ele>
        <time>2022-03-18T08:00:46.628Z</time>
      </trkpt>
      <trkpt lat="44.84014" lon="1.27607">
        <ele>97.138276</ele>
        <time>2022-03-18T08:00:48.310Z</time>
      </trkpt>
      <trkpt lat="44.84014" lon="1.27601">
        <ele>97.261076</ele>
        <time>2022-03-18T08:00:50.597Z</time>
      </trkpt>
      <trkpt lat="44.83981" lon="1.27599">
        <ele>98.168695</ele>
        <time>2022-03-18T08:01:04.373Z</time>
      </trkpt>
      <trkpt lat="44.83971" lon="1.27597">
        <ele>98.446914</ele>
        <time>2022-03-18T08:01:08.343Z</time>
      </trkpt>
      <trkpt lat="44.83948" lon="1.2759">
        <ele>99.073683</ele>
        <time>2022-03-18T08:01:17.624Z</time>
      </trkpt>
      <trkpt lat="44.83936" lon="1.27587">
        <ele>99.413229</ele>
        <time>2022-03-18T08:01:21.717Z</time>
      </trkpt>
      <trkpt lat="44.83916" lon="1.27579">
        <ele>99.991783</ele>
        <time>2022-03-18T08:01:30.615Z</time>
      </trkpt>
      <trkpt lat="44.83889" lon="1.27569">
        <ele>100.744236</ele>
        <time>2022-03-18T08:01:40.766Z</time>
      </trkpt>
      <trkpt lat="44.8373" lon="1.27504">
        <ele>105.12431</ele>
        <time>2022-03-18T08:02:53.279Z</time>
      </trkpt>
      <trkpt lat="44.83654" lon="1.27474">
        <ele>106.128375</ele>
        <time>2022-03-18T08:03:18.454Z</time>
      </trkpt>
      <trkpt lat="44.83464" lon="1.27393">
        <ele>103.928594</ele>
        <time>2022-03-18T08:04:02.193Z</time>
      </trkpt>
      <trkpt lat="44.83287" lon="1.27325">
        <ele>100.75289</ele>
        <time>2022-03-18T08:04:40.321Z</time>
      </trkpt>
      <trkpt lat="44.83276" lon="1.27323">
        <ele>100.619149</ele>
        <time>2022-03-18T08:04:42.762Z</time>
      </trkpt>
      <trkpt lat="44.83269" lon="1.27322">
        <ele>100.539771</ele>
        <time>2022-03-18T08:04:44.344Z</time>
      </trkpt>
      <trkpt lat="44.83214" lon="1.27324">
        <ele>99.903262</ele>
        <time>2022-03-18T08:04:57.203Z</time>
      </trkpt>
      <trkpt lat="44.83168" lon="1.27337">
        <ele>99.348062</ele>
        <time>2022-03-18T08:05:08.790Z</time>
      </trkpt>
      <trkpt lat="44.83123" lon="1.27363">
        <ele>99.400396</ele>
        <time>2022-03-18T08:05:21.794Z</time>
      </trkpt>
      <trkpt lat="44.83077" lon="1.27403">
        <ele>99.573644</ele>
        <time>2022-03-18T08:05:37.612Z</time>
      </trkpt>
      <trkpt lat="44.83044" lon="1.27448">
        <ele>99.72176</ele>
        <time>2022-03-18T08:05:51.156Z</time>
      </trkpt>
      <trkpt lat="44.82987" lon="1.27563">
        <ele>99.539415</ele>
        <time>2022-03-18T08:06:20.158Z</time>
      </trkpt>
      <trkpt lat="44.82879" lon="1.27798">
        <ele>97.05046</ele>
        <time>2022-03-18T08:07:05.922Z</time>
      </trkpt>
      <trkpt lat="44.82876" lon="1.27805">
        <ele>96.900561</ele>
        <time>2022-03-18T08:07:07.175Z</time>
      </trkpt>
      <trkpt lat="44.82861" lon="1.27837">
        <ele>96.263548</ele>
        <time>2022-03-18T08:07:12.407Z</time>
      </trkpt>
      <trkpt lat="44.82844" lon="1.27872">
        <ele>95.549289</ele>
        <time>2022-03-18T08:07:17.957Z</time>
      </trkpt>
      <trkpt lat="44.82808" lon="1.27953">
        <ele>93.774079</ele>
        <time>2022-03-18T08:07:31.441Z</time>
      </trkpt>
      <trkpt lat="44.82776" lon="1.28019">
        <ele>92.131502</ele>
        <time>2022-03-18T08:07:42.419Z</time>
      </trkpt>
      <trkpt lat="44.82763" lon="1.28047">
        <ele>91.460421</ele>
        <time>2022-03-18T08:07:46.796Z</time>
      </trkpt>
      <trkpt lat="44.82783" lon="1.28068">
        <ele>90.725685</ele>
        <time>2022-03-18T08:07:52.257Z</time>
      </trkpt>
      <trkpt lat="44.82797" lon="1.28082">
        <ele>90.232733</ele>
        <time>2022-03-18T08:07:55.673Z</time>
      </trkpt>
      <trkpt lat="44.82805" lon="1.28091">
        <ele>89.926083</ele>
        <time>2022-03-18T08:07:58.039Z</time>
      </trkpt>
      <trkpt lat="44.82808" lon="1.28094">
        <ele>89.824059</ele>
        <time>2022-03-18T08:07:58.760Z</time>
      </trkpt>
      <trkpt lat="44.82807" lon="1.28103">
        <ele>89.634684</ele>
        <time>2022-03-18T08:08:00.133Z</time>
      </trkpt>
      <trkpt lat="44.82805" lon="1.28114">
        <ele>89.43969</ele>
        <time>2022-03-18T08:08:01.728Z</time>
      </trkpt>
      <trkpt lat="44.82805" lon="1.28143">
        <ele>89.192883</ele>
        <time>2022-03-18T08:08:06.198Z</time>
      </trkpt>
      <trkpt lat="44.8281" lon="1.28277">
        <ele>88.018062</ele>
        <time>2022-03-18T08:08:28.221Z</time>
      </trkpt>
      <trkpt lat="44.82816" lon="1.28307">
        <ele>87.74334</ele>
        <time>2022-03-18T08:08:33.432Z</time>
      </trkpt>
      <trkpt lat="44.82824" lon="1.28351">
        <ele>87.342883</ele>
        <time>2022-03-18T08:08:40.428Z</time>
      </trkpt>
      <trkpt lat="44.82836" lon="1.28418">
        <ele>87.299766</ele>
        <time>2022-03-18T08:08:52.349Z</time>
      </trkpt>
      <trkpt lat="44.82862" lon="1.28499">
        <ele>87.3671</ele>
        <time>2022-03-18T08:09:08.798Z</time>
      </trkpt>
      <trkpt lat="44.82894" lon="1.2856">
        <ele>87.424008</ele>
        <time>2022-03-18T08:09:25.112Z</time>
      </trkpt>
      <trkpt lat="44.82925" lon="1.28617">
        <ele>87.907817</ele>
        <time>2022-03-18T08:09:41.358Z</time>
      </trkpt>
      <trkpt lat="44.82929" lon="1.28626">
        <ele>88.027453</ele>
        <time>2022-03-18T08:09:43.992Z</time>
      </trkpt>
      <trkpt lat="44.83011" lon="1.28762">
        <ele>89.986193</ele>
        <time>2022-03-18T08:10:27.275Z</time>
      </trkpt>
      <trkpt lat="44.83222" lon="1.29082">
        <ele>96.700167</ele>
        <time>2022-03-18T08:12:22.074Z</time>
      </trkpt>
      <trkpt lat="44.83226" lon="1.29088">
        <ele>96.845953</ele>
        <time>2022-03-18T08:12:24.604Z</time>
      </trkpt>
      <trkpt lat="44.8323" lon="1.29094">
        <ele>96.992115</ele>
        <time>2022-03-18T08:12:27.012Z</time>
      </trkpt>
      <trkpt lat="44.83236" lon="1.29105">
        <ele>97.211221</ele>
        <time>2022-03-18T08:12:30.554Z</time>
      </trkpt>
      <trkpt lat="44.83248" lon="1.29131">
        <ele>97.72109</ele>
        <time>2022-03-18T08:12:39.577Z</time>
      </trkpt>
      <trkpt lat="44.83361" lon="1.29303">
        <ele>101.210816</ele>
        <time>2022-03-18T08:13:44.289Z</time>
      </trkpt>
      <trkpt lat="44.83631" lon="1.29718">
        <ele>103.241299</ele>
        <time>2022-03-18T08:15:41.837Z</time>
      </trkpt>
      <trkpt lat="44.83683" lon="1.29798">
        <ele>100.406313</ele>
        <time>2022-03-18T08:15:56.832Z</time>
      </trkpt>
      <trkpt lat="44.83721" lon="1.29835">
        <ele>98.716473</ele>
        <time>2022-03-18T08:16:05.197Z</time>
      </trkpt>
      <trkpt lat="44.83829" lon="1.29941">
        <ele>93.478521</ele>
        <time>2022-03-18T08:16:29.027Z</time>
      </trkpt>
      <trkpt lat="44.83985" lon="1.30094">
        <ele>87.171798</ele>
        <time>2022-03-18T08:17:05.701Z</time>
      </trkpt>
      <trkpt lat="44.84069" lon="1.30182">
        <ele>84.954757</ele>
        <time>2022-03-18T08:17:28.573Z</time>
      </trkpt>
      <trkpt lat="44.84072" lon="1.30185">
        <ele>84.948861</ele>
        <time>2022-03-18T08:17:29.270Z</time>
      </trkpt>
      <trkpt lat="44.84073" lon="1.30186">
        <ele>84.945604</ele>
        <time>2022-03-18T08:17:29.634Z</time>
      </trkpt>
      <trkpt lat="44.84075" lon="1.30189">
        <ele>84.940938</ele>
        <time>2022-03-18T08:17:30.198Z</time>
      </trkpt>
      <trkpt lat="44.84126" lon="1.30247">
        <ele>84.816637</ele>
        <time>2022-03-18T08:17:46.553Z</time>
      </trkpt>
      <trkpt lat="44.84133" lon="1.30256">
        <ele>84.798697</ele>
        <time>2022-03-18T08:17:48.995Z</time>
      </trkpt>
      <trkpt lat="44.84139" lon="1.30264">
        <ele>84.782427</ele>
        <time>2022-03-18T08:17:51.301Z</time>
      </trkpt>
      <trkpt lat="44.84147" lon="1.30272">
        <ele>84.764166</ele>
        <time>2022-03-18T08:17:54.478Z</time>
      </trkpt>
      <trkpt lat="44.8426" lon="1.30422">
        <ele>84.247016</ele>
        <time>2022-03-18T08:18:39.121Z</time>
      </trkpt>
      <trkpt lat="44.84309" lon="1.3056">
        <ele>83.586049</ele>
        <time>2022-03-18T08:19:03.895Z</time>
      </trkpt>
      <trkpt lat="44.84317" lon="1.30585">
        <ele>83.302524</ele>
        <time>2022-03-18T08:19:08.076Z</time>
      </trkpt>
      <trkpt lat="44.84322" lon="1.306">
        <ele>83.136556</ele>
        <time>2022-03-18T08:19:10.677Z</time>
      </trkpt>
      <trkpt lat="44.84341" lon="1.30658">
        <ele>82.491548</ele>
        <time>2022-03-18T08:19:20.433Z</time>
      </trkpt>
      <trkpt lat="44.84357" lon="1.30699">
        <ele>82.016385</ele>
        <time>2022-03-18T08:19:27.714Z</time>
      </trkpt>
      <trkpt lat="44.84375" lon="1.30736">
        <ele>81.570387</ele>
        <time>2022-03-18T08:19:34.619Z</time>
      </trkpt>
      <trkpt lat="44.84376" lon="1.30761">
        <ele>81.31215</ele>
        <time>2022-03-18T08:19:38.710Z</time>
      </trkpt>
      <trkpt lat="44.84377" lon="1.30772">
        <ele>81.238447</ele>
        <time>2022-03-18T08:19:40.327Z</time>
      </trkpt>
      <trkpt lat="44.84377" lon="1.30777">
        <ele>81.206264</ele>
        <time>2022-03-18T08:19:41.178Z</time>
      </trkpt>
      <trkpt lat="44.84384" lon="1.30787">
        <ele>81.115564</ele>
        <time>2022-03-18T08:19:43.689Z</time>
      </trkpt>
      <trkpt lat="44.84388" lon="1.30793">
        <ele>81.064875</ele>
        <time>2022-03-18T08:19:45.099Z</time>
      </trkpt>
      <trkpt lat="44.84471" lon="1.30912">
        <ele>80.031769</ele>
        <time>2022-03-18T08:20:14.708Z</time>
      </trkpt>
      <trkpt lat="44.84537" lon="1.30976">
        <ele>79.35444</ele>
        <time>2022-03-18T08:20:34.250Z</time>
      </trkpt>
      <trkpt lat="44.84632" lon="1.31048">
        <ele>78.466676</ele>
        <time>2022-03-18T08:21:00.367Z</time>
      </trkpt>
      <trkpt lat="44.84646" lon="1.31067">
        <ele>78.302647</ele>
        <time>2022-03-18T08:21:05.378Z</time>
      </trkpt>
      <trkpt lat="44.84654" lon="1.31091">
        <ele>78.221037</ele>
        <time>2022-03-18T08:21:10.224Z</time>
      </trkpt>
      <trkpt lat="44.84668" lon="1.3117">
        <ele>78.158919</ele>
        <time>2022-03-18T08:21:25.709Z</time>
      </trkpt>
      <trkpt lat="44.84677" lon="1.31199">
        <ele>78.135765</ele>
        <time>2022-03-18T08:21:31.725Z</time>
      </trkpt>
      <trkpt lat="44.84712" lon="1.31259">
        <ele>78.076485</ele>
        <time>2022-03-18T08:21:47.351Z</time>
      </trkpt>
      <trkpt lat="44.84762" lon="1.31337">
        <ele>78.073967</ele>
        <time>2022-03-18T08:22:08.804Z</time>
      </trkpt>
      <trkpt lat="44.84831" lon="1.31442">
        <ele>78.160892</ele>
        <time>2022-03-18T08:22:37.518Z</time>
      </trkpt>
      <trkpt lat="44.8486" lon="1.31508">
        <ele>78.20206</ele>
        <time>2022-03-18T08:22:52.655Z</time>
      </trkpt>
      <trkpt lat="44.84884" lon="1.31579">
        <ele>78.231248</ele>
        <time>2022-03-18T08:23:08.110Z</time>
      </trkpt>
      <trkpt lat="44.8492" lon="1.3177">
        <ele>78.367431</ele>
        <time>2022-03-18T08:23:47.819Z</time>
      </trkpt>
      <trkpt lat="44.84948" lon="1.31911">
        <ele>78.619194</ele>
        <time>2022-03-18T08:24:17.816Z</time>
      </trkpt>
      <trkpt lat="44.8497" lon="1.32029">
        <ele>78.983479</ele>
        <time>2022-03-18T08:24:43.648Z</time>
      </trkpt>
      <trkpt lat="44.84974" lon="1.32077">
        <ele>79.18884</ele>
        <time>2022-03-18T08:24:53.983Z</time>
      </trkpt>
      <trkpt lat="44.85021" lon="1.32065">
        <ele>79.474001</ele>
        <time>2022-03-18T08:25:08.618Z</time>
      </trkpt>
      <trkpt lat="44.8505" lon="1.32144">
        <ele>79.897931</ele>
        <time>2022-03-18T08:25:28.298Z</time>
      </trkpt>
      <trkpt lat="44.85055" lon="1.32156">
        <ele>80.007369</ele>
        <time>2022-03-18T08:25:31.431Z</time>
      </trkpt>
      <trkpt lat="44.85083" lon="1.32223">
        <ele>80.624671</ele>
        <time>2022-03-18T08:25:48.966Z</time>
      </trkpt>
      <trkpt lat="44.85153" lon="1.32357">
        <ele>82.001866</ele>
        <time>2022-03-18T08:26:28.654Z</time>
      </trkpt>
      <trkpt lat="44.85179" lon="1.32405">
        <ele>82.741613</ele>
        <time>2022-03-18T08:26:44.921Z</time>
      </trkpt>
      <trkpt lat="44.85201" lon="1.32449">
        <ele>83.388237</ele>
        <time>2022-03-18T08:26:58.779Z</time>
      </trkpt>
      <trkpt lat="44.85209" lon="1.32462">
        <ele>83.601611</ele>
        <time>2022-03-18T08:27:02.915Z</time>
      </trkpt>
      <trkpt lat="44.85219" lon="1.32473">
        <ele>83.815245</ele>
        <time>2022-03-18T08:27:07.886Z</time>
      </trkpt>
      <trkpt lat="44.85225" lon="1.32463">
        <ele>83.975081</ele>
        <time>2022-03-18T08:27:11.538Z</time>
      </trkpt>
      <trkpt lat="44.85249" lon="1.32421">
        <ele>84.630615</ele>
        <time>2022-03-18T08:27:25.518Z</time>
      </trkpt>
      <trkpt lat="44.85256" lon="1.32397">
        <ele>84.886117</ele>
        <time>2022-03-18T08:27:31.856Z</time>
      </trkpt>
      <trkpt lat="44.85263" lon="1.324">
        <ele>84.909378</ele>
        <time>2022-03-18T08:27:34.838Z</time>
      </trkpt>
      <trkpt lat="44.85271" lon="1.32407">
        <ele>84.939945</ele>
        <time>2022-03-18T08:27:38.419Z</time>
      </trkpt>
      <trkpt lat="44.85273" lon="1.32416">
        <ele>84.959566</ele>
        <time>2022-03-18T08:27:40.311Z</time>
      </trkpt>
      <trkpt lat="44.85267" lon="1.32425">
        <ele>84.987353</ele>
        <time>2022-03-18T08:27:43.580Z</time>
      </trkpt>
      <trkpt lat="44.85257" lon="1.3243">
        <ele>85.020435</ele>
        <time>2022-03-18T08:27:47.608Z</time>
      </trkpt>
      <trkpt lat="44.85248" lon="1.32447">
        <ele>85.065832</ele>
        <time>2022-03-18T08:27:52.409Z</time>
      </trkpt>
      <trkpt lat="44.85247" lon="1.32454">
        <ele>85.081673</ele>
        <time>2022-03-18T08:27:53.967Z</time>
      </trkpt>
      <trkpt lat="44.85248" lon="1.32466">
        <ele>85.109466</ele>
        <time>2022-03-18T08:27:57.133Z</time>
      </trkpt>
      <trkpt lat="44.8529" lon="1.3337">
        <ele>86.512418</ele>
        <time>2022-03-18T08:30:51.414Z</time>
      </trkpt>
      <trkpt lat="44.85299" lon="1.33431">
        <ele>86.224214</ele>
        <time>2022-03-18T08:31:01.975Z</time>
      </trkpt>
      <trkpt lat="44.85305" lon="1.33478">
        <ele>85.995733</ele>
        <time>2022-03-18T08:31:10.098Z</time>
      </trkpt>
      <trkpt lat="44.85296" lon="1.33495">
        <ele>85.896536</ele>
        <time>2022-03-18T08:31:13.729Z</time>
      </trkpt>
      <trkpt lat="44.85291" lon="1.33507">
        <ele>85.832297</ele>
        <time>2022-03-18T08:31:16.011Z</time>
      </trkpt>
      <trkpt lat="44.85292" lon="1.33515">
        <ele>85.794456</ele>
        <time>2022-03-18T08:31:17.361Z</time>
      </trkpt>
      <trkpt lat="44.85307" lon="1.33537">
        <ele>85.647754</ele>
        <time>2022-03-18T08:31:22.570Z</time>
      </trkpt>
      <trkpt lat="44.85314" lon="1.33553">
        <ele>85.55741</ele>
        <time>2022-03-18T08:31:25.767Z</time>
      </trkpt>
      <trkpt lat="44.85318" lon="1.3356">
        <ele>85.516062</ele>
        <time>2022-03-18T08:31:27.146Z</time>
      </trkpt>
      <trkpt lat="44.85329" lon="1.33578">
        <ele>85.404034</ele>
        <time>2022-03-18T08:31:31.223Z</time>
      </trkpt>
      <trkpt lat="44.8534" lon="1.33598">
        <ele>85.296495</ele>
        <time>2022-03-18T08:31:35.440Z</time>
      </trkpt>
      <trkpt lat="44.85365" lon="1.33652">
        <ele>85.132146</ele>
        <time>2022-03-18T08:31:46.274Z</time>
      </trkpt>
      <trkpt lat="44.8559" lon="1.34082">
        <ele>84.235961</ele>
        <time>2022-03-18T08:33:24.433Z</time>
      </trkpt>
      <trkpt lat="44.85597" lon="1.34093">
        <ele>84.221898</ele>
        <time>2022-03-18T08:33:27.241Z</time>
      </trkpt>
      <trkpt lat="44.85651" lon="1.34195">
        <ele>84.099724</ele>
        <time>2022-03-18T08:33:50.806Z</time>
      </trkpt>
      <trkpt lat="44.85694" lon="1.34294">
        <ele>84.083778</ele>
        <time>2022-03-18T08:34:11.894Z</time>
      </trkpt>
      <trkpt lat="44.8574" lon="1.34466">
        <ele>84.323357</ele>
        <time>2022-03-18T08:34:46.590Z</time>
      </trkpt>
      <trkpt lat="44.85764" lon="1.34527">
        <ele>84.851541</ele>
        <time>2022-03-18T08:35:02.404Z</time>
      </trkpt>
      <trkpt lat="44.85797" lon="1.34587">
        <ele>85.426195</ele>
        <time>2022-03-18T08:35:20.221Z</time>
      </trkpt>
      <trkpt lat="44.85828" lon="1.34632">
        <ele>85.89976</ele>
        <time>2022-03-18T08:35:35.093Z</time>
      </trkpt>
      <trkpt lat="44.85841" lon="1.34647">
        <ele>86.056785</ele>
        <time>2022-03-18T08:35:41.062Z</time>
      </trkpt>
      <trkpt lat="44.8585" lon="1.34657">
        <ele>86.129595</ele>
        <time>2022-03-18T08:35:44.882Z</time>
      </trkpt>
      <trkpt lat="44.85883" lon="1.34693">
        <ele>86.416414</ele>
        <time>2022-03-18T08:35:59.377Z</time>
      </trkpt>
      <trkpt lat="44.86205" lon="1.35007">
        <ele>88.354198</ele>
        <time>2022-03-18T08:37:53.157Z</time>
      </trkpt>
      <trkpt lat="44.86213" lon="1.35015">
        <ele>88.343992</ele>
        <time>2022-03-18T08:37:55.386Z</time>
      </trkpt>
      <trkpt lat="44.86219" lon="1.35022">
        <ele>88.336402</ele>
        <time>2022-03-18T08:37:57.435Z</time>
      </trkpt>
      <trkpt lat="44.86227" lon="1.35033">
        <ele>88.324396</ele>
        <time>2022-03-18T08:38:00.202Z</time>
      </trkpt>
      <trkpt lat="44.86234" lon="1.35042">
        <ele>88.314242</ele>
        <time>2022-03-18T08:38:02.391Z</time>
      </trkpt>
      <trkpt lat="44.86259" lon="1.35079">
        <ele>88.276767</ele>
        <time>2022-03-18T08:38:10.913Z</time>
      </trkpt>
      <trkpt lat="44.86367" lon="1.35292">
        <ele>87.313865</ele>
        <time>2022-03-18T08:38:56.205Z</time>
      </trkpt>
      <trkpt lat="44.86395" lon="1.35343">
        <ele>87.061901</ele>
        <time>2022-03-18T08:39:08.200Z</time>
      </trkpt>
      <trkpt lat="44.8642" lon="1.35388">
        <ele>86.839371</ele>
        <time>2022-03-18T08:39:18.218Z</time>
      </trkpt>
      <trkpt lat="44.86484" lon="1.35477">
        <ele>86.33705</ele>
        <time>2022-03-18T08:39:39.960Z</time>
      </trkpt>
      <trkpt lat="44.86499" lon="1.35493">
        <ele>86.216919</ele>
        <time>2022-03-18T08:39:44.466Z</time>
      </trkpt>
      <trkpt lat="44.86531" lon="1.35522">
        <ele>85.938892</ele>
        <time>2022-03-18T08:39:53.161Z</time>
      </trkpt>
      <trkpt lat="44.86646" lon="1.35628">
        <ele>84.948311</ele>
        <time>2022-03-18T08:40:25.689Z</time>
      </trkpt>
      <trkpt lat="44.86663" lon="1.35652">
        <ele>84.983409</ele>
        <time>2022-03-18T08:40:31.916Z</time>
      </trkpt>
      <trkpt lat="44.86666" lon="1.35657">
        <ele>84.990587</ele>
        <time>2022-03-18T08:40:33.123Z</time>
      </trkpt>
      <trkpt lat="44.86664" lon="1.35675">
        <ele>85.010086</ele>
        <time>2022-03-18T08:40:36.819Z</time>
      </trkpt>
      <trkpt lat="44.86666" lon="1.35682">
        <ele>85.018004</ele>
        <time>2022-03-18T08:40:38.028Z</time>
      </trkpt>
      <trkpt lat="44.86673" lon="1.35678">
        <ele>85.029974</ele>
        <time>2022-03-18T08:40:40.678Z</time>
      </trkpt>
      <trkpt lat="44.86675" lon="1.35685">
        <ele>85.038189</ele>
        <time>2022-03-18T08:40:42.326Z</time>
      </trkpt>
      <trkpt lat="44.8669" lon="1.35717">
        <ele>85.078457</ele>
        <time>2022-03-18T08:40:50.119Z</time>
      </trkpt>
      <trkpt lat="44.86704" lon="1.35754">
        <ele>85.122746</ele>
        <time>2022-03-18T08:40:58.539Z</time>
      </trkpt>
      <trkpt lat="44.86711" lon="1.35755">
        <ele>85.13327</ele>
        <time>2022-03-18T08:41:00.937Z</time>
      </trkpt>
      <trkpt lat="44.86721" lon="1.35761">
        <ele>85.149052</ele>
        <time>2022-03-18T08:41:03.842Z</time>
      </trkpt>
      <trkpt lat="44.86726" lon="1.35769">
        <ele>85.160647</ele>
        <time>2022-03-18T08:41:06.498Z</time>
      </trkpt>
      <trkpt lat="44.86735" lon="1.35792">
        <ele>85.187632</ele>
        <time>2022-03-18T08:41:11.368Z</time>
      </trkpt>
      <trkpt lat="44.86803" lon="1.36">
        <ele>85.515124</ele>
        <time>2022-03-18T08:41:57.393Z</time>
      </trkpt>
      <trkpt lat="44.86847" lon="1.36102">
        <ele>85.55654</ele>
        <time>2022-03-18T08:42:18.951Z</time>
      </trkpt>
      <trkpt lat="44.86978" lon="1.36281">
        <ele>85.40642</ele>
        <time>2022-03-18T08:43:08.054Z</time>
      </trkpt>
      <trkpt lat="44.87129" lon="1.365">
        <ele>84.899028</ele>
        <time>2022-03-18T08:44:03.240Z</time>
      </trkpt>
      <trkpt lat="44.87147" lon="1.36527">
        <ele>84.807827</ele>
        <time>2022-03-18T08:44:09.795Z</time>
      </trkpt>
      <trkpt lat="44.87214" lon="1.36632">
        <ele>84.438447</ele>
        <time>2022-03-18T08:44:34.575Z</time>
      </trkpt>
      <trkpt lat="44.87342" lon="1.36809">
        <ele>83.73928</ele>
        <time>2022-03-18T08:45:19.608Z</time>
      </trkpt>
      <trkpt lat="44.87422" lon="1.36907">
        <ele>83.413829</ele>
        <time>2022-03-18T08:45:46.453Z</time>
      </trkpt>
      <trkpt lat="44.87625" lon="1.37208">
        <ele>83.266134</ele>
        <time>2022-03-18T08:47:01.487Z</time>
      </trkpt>
      <trkpt lat="44.87935" lon="1.37647">
        <ele>86.136789</ele>
        <time>2022-03-18T08:49:16.075Z</time>
      </trkpt>
      <trkpt lat="44.88085" lon="1.37857">
        <ele>87.21062</ele>
        <time>2022-03-18T08:50:18.684Z</time>
      </trkpt>
      <trkpt lat="44.88135" lon="1.37921">
        <ele>86.864684</ele>
        <time>2022-03-18T08:50:35.450Z</time>
      </trkpt>
      <trkpt lat="44.88159" lon="1.37949">
        <ele>86.705394</ele>
        <time>2022-03-18T08:50:42.859Z</time>
      </trkpt>
      <trkpt lat="44.88255" lon="1.38028">
        <ele>86.130257</ele>
        <time>2022-03-18T08:51:08.931Z</time>
      </trkpt>
      <trkpt lat="44.88343" lon="1.38103">
        <ele>85.580569</ele>
        <time>2022-03-18T08:51:34.276Z</time>
      </trkpt>
      <trkpt lat="44.88583" lon="1.38311">
        <ele>84.7221</ele>
        <time>2022-03-18T08:52:45.389Z</time>
      </trkpt>
      <trkpt lat="44.88607" lon="1.38338">
        <ele>84.718507</ele>
        <time>2022-03-18T08:52:53.504Z</time>
      </trkpt>
      <trkpt lat="44.88684" lon="1.38448">
        <ele>84.838955</ele>
        <time>2022-03-18T08:53:23.841Z</time>
      </trkpt>
      <trkpt lat="44.88702" lon="1.38483">
        <ele>85.013662</ele>
        <time>2022-03-18T08:53:32.658Z</time>
      </trkpt>
      <trkpt lat="44.88714" lon="1.38512">
        <ele>85.152608</ele>
        <time>2022-03-18T08:53:39.789Z</time>
      </trkpt>
      <trkpt lat="44.8873" lon="1.38555">
        <ele>85.34542</ele>
        <time>2022-03-18T08:53:49.733Z</time>
      </trkpt>
      <trkpt lat="44.88748" lon="1.38606">
        <ele>85.577692</ele>
        <time>2022-03-18T08:54:01.941Z</time>
      </trkpt>
      <trkpt lat="44.88766" lon="1.38701">
        <ele>85.911569</ele>
        <time>2022-03-18T08:54:23.351Z</time>
      </trkpt>
      <trkpt lat="44.88774" lon="1.38775">
        <ele>86.138577</ele>
        <time>2022-03-18T08:54:39.107Z</time>
      </trkpt>
      <trkpt lat="44.88783" lon="1.38873">
        <ele>86.436056</ele>
        <time>2022-03-18T08:54:58.541Z</time>
      </trkpt>
      <trkpt lat="44.88797" lon="1.39024">
        <ele>86.078595</ele>
        <time>2022-03-18T08:55:26.528Z</time>
      </trkpt>
      <trkpt lat="44.88814" lon="1.39225">
        <ele>85.391946</ele>
        <time>2022-03-18T08:56:00.539Z</time>
      </trkpt>
      <trkpt lat="44.88819" lon="1.39289">
        <ele>85.157193</ele>
        <time>2022-03-18T08:56:11.664Z</time>
      </trkpt>
      <trkpt lat="44.88835" lon="1.3951">
        <ele>84.565571</ele>
        <time>2022-03-18T08:56:51.781Z</time>
      </trkpt>
      <trkpt lat="44.88835" lon="1.39514">
        <ele>84.558648</ele>
        <time>2022-03-18T08:56:52.492Z</time>
      </trkpt>
      <trkpt lat="44.8884" lon="1.39684">
        <ele>84.364501</ele>
        <time>2022-03-18T08:57:23.765Z</time>
      </trkpt>
      <trkpt lat="44.88836" lon="1.39717">
        <ele>84.401075</ele>
        <time>2022-03-18T08:57:29.799Z</time>
      </trkpt>
      <trkpt lat="44.88844" lon="1.39794">
        <ele>84.484246</ele>
        <time>2022-03-18T08:57:44.076Z</time>
      </trkpt>
      <trkpt lat="44.88848" lon="1.39889">
        <ele>84.585948</ele>
        <time>2022-03-18T08:58:03.139Z</time>
      </trkpt>
      <trkpt lat="44.88852" lon="1.39904">
        <ele>84.617228</ele>
        <time>2022-03-18T08:58:06.310Z</time>
      </trkpt>
      <trkpt lat="44.88856" lon="1.39936">
        <ele>84.849578</ele>
        <time>2022-03-18T08:58:13.652Z</time>
      </trkpt>
      <trkpt lat="44.88865" lon="1.40043">
        <ele>85.62417</ele>
        <time>2022-03-18T08:58:38.330Z</time>
      </trkpt>
      <trkpt lat="44.88864" lon="1.40077">
        <ele>85.865437</ele>
        <time>2022-03-18T08:58:45.257Z</time>
      </trkpt>
      <trkpt lat="44.88865" lon="1.40085">
        <ele>85.922305</ele>
        <time>2022-03-18T08:58:47.369Z</time>
      </trkpt>
      <trkpt lat="44.88868" lon="1.40087">
        <ele>85.962621</ele>
        <time>2022-03-18T08:58:49.370Z</time>
      </trkpt>
      <trkpt lat="44.88876" lon="1.40095">
        <ele>86.056575</ele>
        <time>2022-03-18T08:58:51.984Z</time>
      </trkpt>
      <trkpt lat="44.88874" lon="1.40197">
        <ele>86.56869</ele>
        <time>2022-03-18T08:59:16.006Z</time>
      </trkpt>
      <trkpt lat="44.88841" lon="1.4037">
        <ele>87.084301</ele>
        <time>2022-03-18T08:59:51.435Z</time>
      </trkpt>
      <trkpt lat="44.88827" lon="1.40393">
        <ele>87.131939</ele>
        <time>2022-03-18T08:59:57.278Z</time>
      </trkpt>
      <trkpt lat="44.88821" lon="1.40395">
        <ele>87.103033</ele>
        <time>2022-03-18T08:59:58.566Z</time>
      </trkpt>
      <trkpt lat="44.88816" lon="1.40396">
        <ele>87.077112</ele>
        <time>2022-03-18T08:59:59.730Z</time>
      </trkpt>
      <trkpt lat="44.888" lon="1.40436">
        <ele>86.917111</ele>
        <time>2022-03-18T09:00:07.795Z</time>
      </trkpt>
      <trkpt lat="44.88744" lon="1.40522">
        <ele>86.504627</ele>
        <time>2022-03-18T09:00:27.904Z</time>
      </trkpt>
      <trkpt lat="44.88697" lon="1.40585">
        <ele>86.152649</ele>
        <time>2022-03-18T09:00:43.890Z</time>
      </trkpt>
      <trkpt lat="44.88655" lon="1.40655">
        <ele>85.713852</ele>
        <time>2022-03-18T09:00:59.491Z</time>
      </trkpt>
      <trkpt lat="44.88621" lon="1.40692">
        <ele>85.421159</ele>
        <time>2022-03-18T09:01:09.726Z</time>
      </trkpt>
      <trkpt lat="44.88593" lon="1.40734">
        <ele>85.139245</ele>
        <time>2022-03-18T09:01:19.565Z</time>
      </trkpt>
      <trkpt lat="44.88577" lon="1.40717">
        <ele>85.006891</ele>
        <time>2022-03-18T09:01:24.390Z</time>
      </trkpt>
      <trkpt lat="44.88503" lon="1.40637">
        <ele>84.406299</ele>
        <time>2022-03-18T09:01:47.650Z</time>
      </trkpt>
      <trkpt lat="44.885" lon="1.40634">
        <ele>84.377708</ele>
        <time>2022-03-18T09:01:48.764Z</time>
      </trkpt>
      <trkpt lat="44.88467" lon="1.40567">
        <ele>84.005639</ele>
        <time>2022-03-18T09:02:03.049Z</time>
      </trkpt>
      <trkpt lat="44.88456" lon="1.40545">
        <ele>83.880991</ele>
        <time>2022-03-18T09:02:08.094Z</time>
      </trkpt>
      <trkpt lat="44.88448" lon="1.40539">
        <ele>83.873262</ele>
        <time>2022-03-18T09:02:10.519Z</time>
      </trkpt>
      <trkpt lat="44.8844" lon="1.40543">
        <ele>83.873773</ele>
        <time>2022-03-18T09:02:12.648Z</time>
      </trkpt>
      <trkpt lat="44.88389" lon="1.40587">
        <ele>83.877436</ele>
        <time>2022-03-18T09:02:29.307Z</time>
      </trkpt>
      <trkpt lat="44.88364" lon="1.40608">
        <ele>83.879207</ele>
        <time>2022-03-18T09:02:37.529Z</time>
      </trkpt>
      <trkpt lat="44.88276" lon="1.40671">
        <ele>83.901373</ele>
        <time>2022-03-18T09:03:05.716Z</time>
      </trkpt>
      <trkpt lat="44.88213" lon="1.40806">
        <ele>83.988227</ele>
        <time>2022-03-18T09:03:38.559Z</time>
      </trkpt>
      <trkpt lat="44.88157" lon="1.4084">
        <ele>84.000315</ele>
        <time>2022-03-18T09:03:54.899Z</time>
      </trkpt>
      <trkpt lat="44.88115" lon="1.40852">
        <ele>83.956119</ele>
        <time>2022-03-18T09:04:06.608Z</time>
      </trkpt>
      <trkpt lat="44.88102" lon="1.40857">
        <ele>83.942204</ele>
        <time>2022-03-18T09:04:10.103Z</time>
      </trkpt>
      <trkpt lat="44.88047" lon="1.40877">
        <ele>83.884662</ele>
        <time>2022-03-18T09:04:34.741Z</time>
      </trkpt>
      <trkpt lat="44.8785" lon="1.40855">
        <ele>84.03761</ele>
        <time>2022-03-18T09:06:03.431Z</time>
      </trkpt>
      <trkpt lat="44.87826" lon="1.40841">
        <ele>84.072105</ele>
        <time>2022-03-18T09:06:15.300Z</time>
      </trkpt>
      <trkpt lat="44.87771" lon="1.40763">
        <ele>84.388327</ele>
        <time>2022-03-18T09:06:51.582Z</time>
      </trkpt>
      <trkpt lat="44.87762" lon="1.40758">
        <ele>84.433188</ele>
        <time>2022-03-18T09:06:56.572Z</time>
      </trkpt>
      <trkpt lat="44.8758" lon="1.4093">
        <ele>85.262163</ele>
        <time>2022-03-18T09:08:38.264Z</time>
      </trkpt>
      <trkpt lat="44.87546" lon="1.40998">
        <ele>85.460957</ele>
        <time>2022-03-18T09:09:04.994Z</time>
      </trkpt>
      <trkpt lat="44.87564" lon="1.41018">
        <ele>85.485882</ele>
        <time>2022-03-18T09:09:15.194Z</time>
      </trkpt>
      <trkpt lat="44.87569" lon="1.41028">
        <ele>85.495362</ele>
        <time>2022-03-18T09:09:19.050Z</time>
      </trkpt>
      <trkpt lat="44.87567" lon="1.4104">
        <ele>85.505233</ele>
        <time>2022-03-18T09:09:23.075Z</time>
      </trkpt>
      <trkpt lat="44.87402" lon="1.41327">
        <ele>85.735625</ele>
        <time>2022-03-18T09:11:20.844Z</time>
      </trkpt>
      <trkpt lat="44.87328" lon="1.41265">
        <ele>85.699009</ele>
        <time>2022-03-18T09:11:44.603Z</time>
      </trkpt>
      <trkpt lat="44.87298" lon="1.41422">
        <ele>85.427223</ele>
        <time>2022-03-18T09:12:15.372Z</time>
      </trkpt>
      <trkpt lat="44.8724" lon="1.41531">
        <ele>85.142943</ele>
        <time>2022-03-18T09:12:40.793Z</time>
      </trkpt>
      <trkpt lat="44.87225" lon="1.41613">
        <ele>84.946634</ele>
        <time>2022-03-18T09:12:56.628Z</time>
      </trkpt>
      <trkpt lat="44.87207" lon="1.41709">
        <ele>84.740857</ele>
        <time>2022-03-18T09:13:15.214Z</time>
      </trkpt>
      <trkpt lat="44.87256" lon="1.41776">
        <ele>84.647694</ele>
        <time>2022-03-18T09:13:33.410Z</time>
      </trkpt>
      <trkpt lat="44.87263" lon="1.41784">
        <ele>84.634933</ele>
        <time>2022-03-18T09:13:35.997Z</time>
      </trkpt>
      <trkpt lat="44.87269" lon="1.41792">
        <ele>84.623508</ele>
        <time>2022-03-18T09:13:38.302Z</time>
      </trkpt>
      <trkpt lat="44.87303" lon="1.41829">
        <ele>84.565721</ele>
        <time>2022-03-18T09:13:49.424Z</time>
      </trkpt>
      <trkpt lat="44.87318" lon="1.41846">
        <ele>84.539456</ele>
        <time>2022-03-18T09:13:54.560Z</time>
      </trkpt>
      <trkpt lat="44.87338" lon="1.41868">
        <ele>84.52765</ele>
        <time>2022-03-18T09:14:01.405Z</time>
      </trkpt>
      <trkpt lat="44.87366" lon="1.41901">
        <ele>84.621899</ele>
        <time>2022-03-18T09:14:11.370Z</time>
      </trkpt>
      <trkpt lat="44.87446" lon="1.41984">
        <ele>84.874847</ele>
        <time>2022-03-18T09:14:38.410Z</time>
      </trkpt>
      <trkpt lat="44.87481" lon="1.42051">
        <ele>85.169284</ele>
        <time>2022-03-18T09:14:55.799Z</time>
      </trkpt>
      <trkpt lat="44.8752" lon="1.42103">
        <ele>85.671346</ele>
        <time>2022-03-18T09:15:12.588Z</time>
      </trkpt>
      <trkpt lat="44.87547" lon="1.42124">
        <ele>85.959502</ele>
        <time>2022-03-18T09:15:22.228Z</time>
      </trkpt>
      <trkpt lat="44.87584" lon="1.42159">
        <ele>86.379306</ele>
        <time>2022-03-18T09:15:36.643Z</time>
      </trkpt>
      <trkpt lat="44.87595" lon="1.4217">
        <ele>86.498984</ele>
        <time>2022-03-18T09:15:40.631Z</time>
      </trkpt>
      <trkpt lat="44.87599" lon="1.42186">
        <ele>86.615556</ele>
        <time>2022-03-18T09:15:44.873Z</time>
      </trkpt>
      <trkpt lat="44.87601" lon="1.42206">
        <ele>86.735869</ele>
        <time>2022-03-18T09:15:49.323Z</time>
      </trkpt>
      <trkpt lat="44.87591" lon="1.4227">
        <ele>87.121376</ele>
        <time>2022-03-18T09:16:04.150Z</time>
      </trkpt>
      <trkpt lat="44.87585" lon="1.42304">
        <ele>87.330369</ele>
        <time>2022-03-18T09:16:12.309Z</time>
      </trkpt>
      <trkpt lat="44.87581" lon="1.42334">
        <ele>87.507458</ele>
        <time>2022-03-18T09:16:19.121Z</time>
      </trkpt>
      <trkpt lat="44.87578" lon="1.42355">
        <ele>87.635828</ele>
        <time>2022-03-18T09:16:23.844Z</time>
      </trkpt>
      <trkpt lat="44.87575" lon="1.42372">
        <ele>87.740526</ele>
        <time>2022-03-18T09:16:27.646Z</time>
      </trkpt>
      <trkpt lat="44.87552" lon="1.42538">
        <ele>88.24759</ele>
        <time>2022-03-18T09:17:01.405Z</time>
      </trkpt>
      <trkpt lat="44.87545" lon="1.42645">
        <ele>88.353847</ele>
        <time>2022-03-18T09:17:21.656Z</time>
      </trkpt>
      <trkpt lat="44.87533" lon="1.4272">
        <ele>88.418965</ele>
        <time>2022-03-18T09:17:36.057Z</time>
      </trkpt>
      <trkpt lat="44.87511" lon="1.42833">
        <ele>88.492666</ele>
        <time>2022-03-18T09:17:58.177Z</time>
      </trkpt>
      <trkpt lat="44.87502" lon="1.43043">
        <ele>89.203851</ele>
        <time>2022-03-18T09:18:39.336Z</time>
      </trkpt>
      <trkpt lat="44.87503" lon="1.43161">
        <ele>89.938014</ele>
        <time>2022-03-18T09:19:06.375Z</time>
      </trkpt>
      <trkpt lat="44.87505" lon="1.43174">
        <ele>90.017733</ele>
        <time>2022-03-18T09:19:09.383Z</time>
      </trkpt>
      <trkpt lat="44.87526" lon="1.43174">
        <ele>90.329942</ele>
        <time>2022-03-18T09:19:16.858Z</time>
      </trkpt>
      <trkpt lat="44.8754" lon="1.43174">
        <ele>90.741375</ele>
        <time>2022-03-18T09:19:22.109Z</time>
      </trkpt>
      <trkpt lat="44.87586" lon="1.43177">
        <ele>92.023862</ele>
        <time>2022-03-18T09:19:39.517Z</time>
      </trkpt>
      <trkpt lat="44.87695" lon="1.43195">
        <ele>95.067059</ele>
        <time>2022-03-18T09:20:27.053Z</time>
      </trkpt>
      <trkpt lat="44.87736" lon="1.43212">
        <ele>96.637416</ele>
        <time>2022-03-18T09:20:46.913Z</time>
      </trkpt>
      <trkpt lat="44.87754" lon="1.43233">
        <ele>97.486188</ele>
        <time>2022-03-18T09:20:58.251Z</time>
      </trkpt>
      <trkpt lat="44.8776" lon="1.43237">
        <ele>97.747473</ele>
        <time>2022-03-18T09:21:01.233Z</time>
      </trkpt>
      <trkpt lat="44.87777" lon="1.43249">
        <ele>98.466192</ele>
        <time>2022-03-18T09:21:10.425Z</time>
      </trkpt>
      <trkpt lat="44.87807" lon="1.43274">
        <ele>99.7439</ele>
        <time>2022-03-18T09:21:25.989Z</time>
      </trkpt>
      <trkpt lat="44.87838" lon="1.43301">
        <ele>101.105203</ele>
        <time>2022-03-18T09:21:42.588Z</time>
      </trkpt>
      <trkpt lat="44.87859" lon="1.43318">
        <ele>101.984467</ele>
        <time>2022-03-18T09:21:53.275Z</time>
      </trkpt>
      <trkpt lat="44.87875" lon="1.43335">
        <ele>102.60463</ele>
        <time>2022-03-18T09:22:02.870Z</time>
      </trkpt>
      <trkpt lat="44.87882" lon="1.43346">
        <ele>102.922144</ele>
        <time>2022-03-18T09:22:07.089Z</time>
      </trkpt>
      <trkpt lat="44.87896" lon="1.43356">
        <ele>103.424913</ele>
        <time>2022-03-18T09:22:14.206Z</time>
      </trkpt>
      <trkpt lat="44.87903" lon="1.43357">
        <ele>103.650727</ele>
        <time>2022-03-18T09:22:17.537Z</time>
      </trkpt>
      <trkpt lat="44.87935" lon="1.43339">
        <ele>104.707049</ele>
        <time>2022-03-18T09:22:31.692Z</time>
      </trkpt>
      <trkpt lat="44.87996" lon="1.43363">
        <ele>106.718758</ele>
        <time>2022-03-18T09:22:58.552Z</time>
      </trkpt>
      <trkpt lat="44.88054" lon="1.4337">
        <ele>108.338864</ele>
        <time>2022-03-18T09:23:22.319Z</time>
      </trkpt>
      <trkpt lat="44.88077" lon="1.43374">
        <ele>108.928719</ele>
        <time>2022-03-18T09:23:32.294Z</time>
      </trkpt>
      <trkpt lat="44.88142" lon="1.43384">
        <ele>110.58012</ele>
        <time>2022-03-18T09:24:00.581Z</time>
      </trkpt>
      <trkpt lat="44.88193" lon="1.43387">
        <ele>111.894543</ele>
        <time>2022-03-18T09:24:18.994Z</time>
      </trkpt>
      <trkpt lat="44.88211" lon="1.43385">
        <ele>111.977392</ele>
        <time>2022-03-18T09:24:25.576Z</time>
      </trkpt>
      <trkpt lat="44.8824" lon="1.43383">
        <ele>111.803948</ele>
        <time>2022-03-18T09:24:34.757Z</time>
      </trkpt>
      <trkpt lat="44.88244" lon="1.43383">
        <ele>111.780648</ele>
        <time>2022-03-18T09:24:36.232Z</time>
      </trkpt>
      <trkpt lat="44.88247" lon="1.43442">
        <ele>111.52943</ele>
        <time>2022-03-18T09:24:48.098Z</time>
      </trkpt>
      <trkpt lat="44.88247" lon="1.43443">
        <ele>111.523507</ele>
        <time>2022-03-18T09:24:48.350Z</time>
      </trkpt>
      <trkpt lat="44.88247" lon="1.43446">
        <ele>111.511602</ele>
        <time>2022-03-18T09:24:48.733Z</time>
      </trkpt>
      <trkpt lat="44.88248" lon="1.43456">
        <ele>111.470972</ele>
        <time>2022-03-18T09:24:50.272Z</time>
      </trkpt>
      <trkpt lat="44.88255" lon="1.43525">
        <ele>111.174417</ele>
        <time>2022-03-18T09:25:01.508Z</time>
      </trkpt>
      <trkpt lat="44.88255" lon="1.43538">
        <ele>111.11814</ele>
        <time>2022-03-18T09:25:03.534Z</time>
      </trkpt>
      <trkpt lat="44.88262" lon="1.4359">
        <ele>110.496037</ele>
        <time>2022-03-18T09:25:10.912Z</time>
      </trkpt>
      <trkpt lat="44.88284" lon="1.43665">
        <ele>108.374456</ele>
        <time>2022-03-18T09:25:21.808Z</time>
      </trkpt>
      <trkpt lat="44.88289" lon="1.43674">
        <ele>108.054169</ele>
        <time>2022-03-18T09:25:23.381Z</time>
      </trkpt>
      <trkpt lat="44.88301" lon="1.4371">
        <ele>107.026161</ele>
        <time>2022-03-18T09:25:28.625Z</time>
      </trkpt>
      <trkpt lat="44.88343" lon="1.4381">
        <ele>104.131592</ele>
        <time>2022-03-18T09:25:43.978Z</time>
      </trkpt>
      <trkpt lat="44.88378" lon="1.43865">
        <ele>103.23005</ele>
        <time>2022-03-18T09:25:54.118Z</time>
      </trkpt>
      <trkpt lat="44.88391" lon="1.43883">
        <ele>102.914571</ele>
        <time>2022-03-18T09:25:57.832Z</time>
      </trkpt>
      <trkpt lat="44.884" lon="1.43897">
        <ele>102.681881</ele>
        <time>2022-03-18T09:26:00.756Z</time>
      </trkpt>
      <trkpt lat="44.88418" lon="1.43926">
        <ele>102.214692</ele>
        <time>2022-03-18T09:26:06.661Z</time>
      </trkpt>
      <trkpt lat="44.88426" lon="1.43937">
        <ele>102.021135</ele>
        <time>2022-03-18T09:26:09.366Z</time>
      </trkpt>
      <trkpt lat="44.88463" lon="1.4397">
        <ele>101.268934</ele>
        <time>2022-03-18T09:26:21.428Z</time>
      </trkpt>
      <trkpt lat="44.88496" lon="1.43981">
        <ele>101.55976</ele>
        <time>2022-03-18T09:26:32.373Z</time>
      </trkpt>
      <trkpt lat="44.8853" lon="1.43976">
        <ele>101.995569</ele>
        <time>2022-03-18T09:26:43.981Z</time>
      </trkpt>
      <trkpt lat="44.88565" lon="1.43958">
        <ele>102.473211</ele>
        <time>2022-03-18T09:26:57.561Z</time>
      </trkpt>
      <trkpt lat="44.88598" lon="1.43939">
        <ele>102.937108</ele>
        <time>2022-03-18T09:27:10.757Z</time>
      </trkpt>
      <trkpt lat="44.88625" lon="1.43924">
        <ele>103.311506</ele>
        <time>2022-03-18T09:27:20.697Z</time>
      </trkpt>
      <trkpt lat="44.88735" lon="1.43881">
        <ele>102.850594</ele>
        <time>2022-03-18T09:27:52.891Z</time>
      </trkpt>
      <trkpt lat="44.88861" lon="1.43893">
        <ele>101.263221</ele>
        <time>2022-03-18T09:28:19.232Z</time>
      </trkpt>
      <trkpt lat="44.88912" lon="1.43897">
        <ele>100.063993</ele>
        <time>2022-03-18T09:28:29.959Z</time>
      </trkpt>
      <trkpt lat="44.88958" lon="1.43897">
        <ele>98.988462</ele>
        <time>2022-03-18T09:28:39.724Z</time>
      </trkpt>
      <trkpt lat="44.89027" lon="1.43916">
        <ele>97.130361</ele>
        <time>2022-03-18T09:28:53.414Z</time>
      </trkpt>
      <trkpt lat="44.89103" lon="1.43946">
        <ele>94.821801</ele>
        <time>2022-03-18T09:29:08.951Z</time>
      </trkpt>
      <trkpt lat="44.89115" lon="1.43956">
        <ele>94.418999</ele>
        <time>2022-03-18T09:29:11.578Z</time>
      </trkpt>
      <trkpt lat="44.89124" lon="1.43965">
        <ele>94.092427</ele>
        <time>2022-03-18T09:29:13.669Z</time>
      </trkpt>
      <trkpt lat="44.89158" lon="1.44027">
        <ele>92.569058</ele>
        <time>2022-03-18T09:29:24.819Z</time>
      </trkpt>
      <trkpt lat="44.89261" lon="1.44305">
        <ele>88.981432</ele>
        <time>2022-03-18T09:30:12.372Z</time>
      </trkpt>
      <trkpt lat="44.89377" lon="1.44615">
        <ele>88.639842</ele>
        <time>2022-03-18T09:31:19.976Z</time>
      </trkpt>
      <trkpt lat="44.89389" lon="1.44649">
        <ele>88.702741</ele>
        <time>2022-03-18T09:31:27.916Z</time>
      </trkpt>
      <trkpt lat="44.89425" lon="1.44745">
        <ele>88.962678</ele>
        <time>2022-03-18T09:31:50.406Z</time>
      </trkpt>
      <trkpt lat="44.89436" lon="1.44772">
        <ele>89.049471</ele>
        <time>2022-03-18T09:31:56.646Z</time>
      </trkpt>
      <trkpt lat="44.8947" lon="1.44863">
        <ele>89.344164</ele>
        <time>2022-03-18T09:32:17.565Z</time>
      </trkpt>
      <trkpt lat="44.89498" lon="1.44937">
        <ele>89.510109</ele>
        <time>2022-03-18T09:32:34.301Z</time>
      </trkpt>
      <trkpt lat="44.89537" lon="1.45043">
        <ele>89.583885</ele>
        <time>2022-03-18T09:32:57.420Z</time>
      </trkpt>
      <trkpt lat="44.89541" lon="1.45053">
        <ele>89.591138</ele>
        <time>2022-03-18T09:32:59.618Z</time>
      </trkpt>
      <trkpt lat="44.89555" lon="1.45091">
        <ele>89.617222</ele>
        <time>2022-03-18T09:33:07.342Z</time>
      </trkpt>
      <trkpt lat="44.89562" lon="1.45114">
        <ele>89.632953</ele>
        <time>2022-03-18T09:33:12.042Z</time>
      </trkpt>
      <trkpt lat="44.8957" lon="1.45137">
        <ele>89.64959</ele>
        <time>2022-03-18T09:33:16.792Z</time>
      </trkpt>
      <trkpt lat="44.89601" lon="1.45247">
        <ele>89.756103</ele>
        <time>2022-03-18T09:33:39.664Z</time>
      </trkpt>
      <trkpt lat="44.89601" lon="1.45248">
        <ele>89.757251</ele>
        <time>2022-03-18T09:33:39.824Z</time>
      </trkpt>
      <trkpt lat="44.89616" lon="1.45302">
        <ele>89.809126</ele>
        <time>2022-03-18T09:33:51.221Z</time>
      </trkpt>
      <trkpt lat="44.89634" lon="1.45364">
        <ele>89.869467</ele>
        <time>2022-03-18T09:34:03.935Z</time>
      </trkpt>
      <trkpt lat="44.89637" lon="1.45377">
        <ele>89.888151</ele>
        <time>2022-03-18T09:34:06.772Z</time>
      </trkpt>
      <trkpt lat="44.89689" lon="1.45564">
        <ele>90.260697</ele>
        <time>2022-03-18T09:34:47.426Z</time>
      </trkpt>
      <trkpt lat="44.89706" lon="1.45625">
        <ele>90.292357</ele>
        <time>2022-03-18T09:35:00.436Z</time>
      </trkpt>
      <trkpt lat="44.89708" lon="1.45632">
        <ele>90.272207</ele>
        <time>2022-03-18T09:35:01.545Z</time>
      </trkpt>
      <trkpt lat="44.89745" lon="1.45762">
        <ele>89.860487</ele>
        <time>2022-03-18T09:35:27.022Z</time>
      </trkpt>
      <trkpt lat="44.89741" lon="1.45764">
        <ele>89.843537</ele>
        <time>2022-03-18T09:35:28.069Z</time>
      </trkpt>
      <trkpt lat="44.89729" lon="1.45769">
        <ele>89.794477</ele>
        <time>2022-03-18T09:35:30.939Z</time>
      </trkpt>
      <trkpt lat="44.89713" lon="1.45776">
        <ele>89.724441</ele>
        <time>2022-03-18T09:35:35.224Z</time>
      </trkpt>
      <trkpt lat="44.89706" lon="1.4578">
        <ele>89.694831</ele>
        <time>2022-03-18T09:35:36.980Z</time>
      </trkpt>
      <trkpt lat="44.89609" lon="1.45826">
        <ele>89.117712</ele>
        <time>2022-03-18T09:36:01.587Z</time>
      </trkpt>
      <trkpt lat="44.89529" lon="1.45863">
        <ele>88.60628</ele>
        <time>2022-03-18T09:36:23.658Z</time>
      </trkpt>
      <trkpt lat="44.89517" lon="1.4587">
        <ele>88.52686</ele>
        <time>2022-03-18T09:36:27.241Z</time>
      </trkpt>
      <trkpt lat="44.89511" lon="1.45878">
        <ele>88.53375</ele>
        <time>2022-03-18T09:36:29.509Z</time>
      </trkpt>
      <trkpt lat="44.8951" lon="1.45915">
        <ele>88.598353</ele>
        <time>2022-03-18T09:36:36.811Z</time>
      </trkpt>
      <trkpt lat="44.89509" lon="1.45923">
        <ele>88.612299</ele>
        <time>2022-03-18T09:36:38.659Z</time>
      </trkpt>
      <trkpt lat="44.89511" lon="1.46">
        <ele>88.745001</ele>
        <time>2022-03-18T09:36:54.334Z</time>
      </trkpt>
      <trkpt lat="44.89493" lon="1.46096">
        <ele>88.91519</ele>
        <time>2022-03-18T09:37:15.572Z</time>
      </trkpt>
      <trkpt lat="44.8947" lon="1.46189">
        <ele>89.008848</ele>
        <time>2022-03-18T09:37:36.189Z</time>
      </trkpt>
      <trkpt lat="44.89456" lon="1.46225">
        <ele>89.038319</ele>
        <time>2022-03-18T09:37:44.378Z</time>
      </trkpt>
      <trkpt lat="44.89434" lon="1.46266">
        <ele>89.076084</ele>
        <time>2022-03-18T09:37:54.675Z</time>
      </trkpt>
      <trkpt lat="44.89418" lon="1.46292">
        <ele>89.101278</ele>
        <time>2022-03-18T09:38:01.292Z</time>
      </trkpt>
      <trkpt lat="44.89402" lon="1.4631">
        <ele>89.121515</ele>
        <time>2022-03-18T09:38:06.778Z</time>
      </trkpt>
      <trkpt lat="44.89389" lon="1.46325">
        <ele>89.137779</ele>
        <time>2022-03-18T09:38:11.352Z</time>
      </trkpt>
      <trkpt lat="44.89352" lon="1.4637">
        <ele>89.108652</ele>
        <time>2022-03-18T09:38:24.705Z</time>
      </trkpt>
      <trkpt lat="44.89309" lon="1.4643">
        <ele>89.072412</ele>
        <time>2022-03-18T09:38:41.141Z</time>
      </trkpt>
      <trkpt lat="44.89281" lon="1.46471">
        <ele>89.048456</ele>
        <time>2022-03-18T09:38:52.627Z</time>
      </trkpt>
      <trkpt lat="44.89266" lon="1.46507">
        <ele>89.031207</ele>
        <time>2022-03-18T09:39:00.960Z</time>
      </trkpt>
      <trkpt lat="44.89245" lon="1.46615">
        <ele>88.807407</ele>
        <time>2022-03-18T09:39:22.728Z</time>
      </trkpt>
      <trkpt lat="44.89244" lon="1.46617">
        <ele>88.801748</ele>
        <time>2022-03-18T09:39:23.386Z</time>
      </trkpt>
      <trkpt lat="44.89214" lon="1.46714">
        <ele>88.590581</ele>
        <time>2022-03-18T09:39:42.569Z</time>
      </trkpt>
      <trkpt lat="44.89205" lon="1.46728">
        <ele>88.554028</ele>
        <time>2022-03-18T09:39:46.116Z</time>
      </trkpt>
      <trkpt lat="44.89197" lon="1.46736">
        <ele>88.525747</ele>
        <time>2022-03-18T09:39:48.471Z</time>
      </trkpt>
      <trkpt lat="44.89126" lon="1.46784">
        <ele>88.376336</ele>
        <time>2022-03-18T09:40:09.123Z</time>
      </trkpt>
      <trkpt lat="44.89116" lon="1.46795">
        <ele>88.35275</ele>
        <time>2022-03-18T09:40:12.252Z</time>
      </trkpt>
      <trkpt lat="44.89114" lon="1.46798">
        <ele>88.347275</ele>
        <time>2022-03-18T09:40:13.112Z</time>
      </trkpt>
      <trkpt lat="44.89104" lon="1.46821">
        <ele>88.310761</ele>
        <time>2022-03-18T09:40:18.241Z</time>
      </trkpt>
      <trkpt lat="44.89099" lon="1.46834">
        <ele>88.291309</ele>
        <time>2022-03-18T09:40:20.788Z</time>
      </trkpt>
      <trkpt lat="44.89107" lon="1.46846">
        <ele>88.269774</ele>
        <time>2022-03-18T09:40:24.037Z</time>
      </trkpt>
      <trkpt lat="44.89128" lon="1.46862">
        <ele>88.223986</ele>
        <time>2022-03-18T09:40:29.902Z</time>
      </trkpt>
      <trkpt lat="44.89173" lon="1.46894">
        <ele>88.524417</ele>
        <time>2022-03-18T09:40:44.547Z</time>
      </trkpt>
      <trkpt lat="44.89263" lon="1.46955">
        <ele>89.663676</ele>
        <time>2022-03-18T09:41:17.527Z</time>
      </trkpt>
      <trkpt lat="44.89333" lon="1.47004">
        <ele>90.537567</ele>
        <time>2022-03-18T09:41:44.224Z</time>
      </trkpt>
      <trkpt lat="44.89342" lon="1.4701">
        <ele>90.63945</ele>
        <time>2022-03-18T09:41:47.489Z</time>
      </trkpt>
      <trkpt lat="44.89344" lon="1.47012">
        <ele>90.662978</ele>
        <time>2022-03-18T09:41:48.243Z</time>
      </trkpt>
      <trkpt lat="44.89343" lon="1.47015">
        <ele>90.693146</ele>
        <time>2022-03-18T09:41:49.161Z</time>
      </trkpt>
      <trkpt lat="44.89339" lon="1.47023">
        <ele>90.763043</ele>
        <time>2022-03-18T09:41:51.317Z</time>
      </trkpt>
      <trkpt lat="44.89334" lon="1.47036">
        <ele>90.868921</ele>
        <time>2022-03-18T09:41:54.609Z</time>
      </trkpt>
      <trkpt lat="44.89358" lon="1.47055">
        <ele>91.154339</ele>
        <time>2022-03-18T09:42:03.597Z</time>
      </trkpt>
      <trkpt lat="44.89362" lon="1.47058">
        <ele>91.203548</ele>
        <time>2022-03-18T09:42:05.080Z</time>
      </trkpt>
      <trkpt lat="44.89367" lon="1.47062">
        <ele>91.264678</ele>
        <time>2022-03-18T09:42:07.005Z</time>
      </trkpt>
      <trkpt lat="44.8936" lon="1.47081">
        <ele>91.425417</ele>
        <time>2022-03-18T09:42:12.052Z</time>
      </trkpt>
      <trkpt lat="44.89349" lon="1.47117">
        <ele>91.716344</ele>
        <time>2022-03-18T09:42:20.787Z</time>
      </trkpt>
      <trkpt lat="44.89345" lon="1.47133">
        <ele>91.843726</ele>
        <time>2022-03-18T09:42:24.493Z</time>
      </trkpt>
      <trkpt lat="44.89324" lon="1.47245">
        <ele>92.176206</ele>
        <time>2022-03-18T09:42:47.763Z</time>
      </trkpt>
      <trkpt lat="44.89292" lon="1.47402">
        <ele>92.251168</ele>
        <time>2022-03-18T09:43:17.333Z</time>
      </trkpt>
      <trkpt lat="44.89291" lon="1.4741">
        <ele>92.254828</ele>
        <time>2022-03-18T09:43:18.697Z</time>
      </trkpt>
      <trkpt lat="44.89262" lon="1.47561">
        <ele>93.134829</ele>
        <time>2022-03-18T09:43:50.754Z</time>
      </trkpt>
      <trkpt lat="44.89255" lon="1.47589">
        <ele>93.310458</ele>
        <time>2022-03-18T09:43:57.497Z</time>
      </trkpt>
      <trkpt lat="44.89253" lon="1.47603">
        <ele>93.393835</ele>
        <time>2022-03-18T09:44:00.809Z</time>
      </trkpt>
      <trkpt lat="44.89252" lon="1.47606">
        <ele>93.411768</ele>
        <time>2022-03-18T09:44:01.468Z</time>
      </trkpt>
      <trkpt lat="44.89259" lon="1.4761">
        <ele>93.468478</ele>
        <time>2022-03-18T09:44:03.950Z</time>
      </trkpt>
      <trkpt lat="44.8929" lon="1.47636">
        <ele>93.817607</ele>
        <time>2022-03-18T09:44:16.994Z</time>
      </trkpt>
      <trkpt lat="44.89301" lon="1.47648">
        <ele>94.080343</ele>
        <time>2022-03-18T09:44:21.616Z</time>
      </trkpt>
      <trkpt lat="44.8931" lon="1.47631">
        <ele>94.38061</ele>
        <time>2022-03-18T09:44:27.216Z</time>
      </trkpt>
      <trkpt lat="44.8932" lon="1.47619">
        <ele>94.642501</ele>
        <time>2022-03-18T09:44:32.310Z</time>
      </trkpt>
      <trkpt lat="44.89347" lon="1.47604">
        <ele>95.213522</ele>
        <time>2022-03-18T09:44:43.378Z</time>
      </trkpt>
      <trkpt lat="44.89381" lon="1.47591">
        <ele>95.922531</ele>
        <time>2022-03-18T09:44:57.418Z</time>
      </trkpt>
      <trkpt lat="44.89389" lon="1.47643">
        <ele>96.681509</ele>
        <time>2022-03-18T09:45:12.289Z</time>
      </trkpt>
      <trkpt lat="44.89397" lon="1.47689">
        <ele>97.33109</ele>
        <time>2022-03-18T09:45:25.046Z</time>
      </trkpt>
      <trkpt lat="44.894" lon="1.47689">
        <ele>97.322729</ele>
        <time>2022-03-18T09:45:26.399Z</time>
      </trkpt>
      <trkpt lat="44.8943" lon="1.47688">
        <ele>97.243528</ele>
        <time>2022-03-18T09:45:36.471Z</time>
      </trkpt>
      <trkpt lat="44.89433" lon="1.47688">
        <ele>97.237192</ele>
        <time>2022-03-18T09:45:37.371Z</time>
      </trkpt>
      <trkpt lat="44.89432" lon="1.47695">
        <ele>97.223961</ele>
        <time>2022-03-18T09:45:38.902Z</time>
      </trkpt>
      <trkpt lat="44.8943" lon="1.47718">
        <ele>97.182032</ele>
        <time>2022-03-18T09:45:44.036Z</time>
      </trkpt>
      <trkpt lat="44.89429" lon="1.47724">
        <ele>97.171002</ele>
        <time>2022-03-18T09:45:45.265Z</time>
      </trkpt>
      <trkpt lat="44.89427" lon="1.47738">
        <ele>97.144341</ele>
        <time>2022-03-18T09:45:47.819Z</time>
      </trkpt>
      <trkpt lat="44.89423" lon="1.47767">
        <ele>97.088919</ele>
        <time>2022-03-18T09:45:53.693Z</time>
      </trkpt>
      <trkpt lat="44.89409" lon="1.47806">
        <ele>97.008063</ele>
        <time>2022-03-18T09:46:01.193Z</time>
      </trkpt>
      <trkpt lat="44.89399" lon="1.47816">
        <ele>96.976041</ele>
        <time>2022-03-18T09:46:04.059Z</time>
      </trkpt>
      <trkpt lat="44.89379" lon="1.47829">
        <ele>96.917811</ele>
        <time>2022-03-18T09:46:09.245Z</time>
      </trkpt>
      <trkpt lat="44.89363" lon="1.4784">
        <ele>96.873527</ele>
        <time>2022-03-18T09:46:13.060Z</time>
      </trkpt>
      <trkpt lat="44.89355" lon="1.47829">
        <ele>96.666601</ele>
        <time>2022-03-18T09:46:15.452Z</time>
      </trkpt>
      <trkpt lat="44.89342" lon="1.47813">
        <ele>96.244501</ele>
        <time>2022-03-18T09:46:19.338Z</time>
      </trkpt>
      <trkpt lat="44.89339" lon="1.47809">
        <ele>96.1421</ele>
        <time>2022-03-18T09:46:20.119Z</time>
      </trkpt>
      <trkpt lat="44.89335" lon="1.47801">
        <ele>95.957971</ele>
        <time>2022-03-18T09:46:21.556Z</time>
      </trkpt>
      <trkpt lat="44.89294" lon="1.47736">
        <ele>94.416218</ele>
        <time>2022-03-18T09:46:33.996Z</time>
      </trkpt>
      <trkpt lat="44.89291" lon="1.4773">
        <ele>94.274452</ele>
        <time>2022-03-18T09:46:35.032Z</time>
      </trkpt>
      <trkpt lat="44.89286" lon="1.47721">
        <ele>94.077295</ele>
        <time>2022-03-18T09:46:36.437Z</time>
      </trkpt>
      <trkpt lat="44.89263" lon="1.47683">
        <ele>93.189425</ele>
        <time>2022-03-18T09:46:43.342Z</time>
      </trkpt>
      <trkpt lat="44.8925" lon="1.47648">
        <ele>92.476437</ele>
        <time>2022-03-18T09:46:49.105Z</time>
      </trkpt>
      <trkpt lat="44.8925" lon="1.47618">
        <ele>92.184494</ele>
        <time>2022-03-18T09:46:53.593Z</time>
      </trkpt>
      <trkpt lat="44.89252" lon="1.47606">
        <ele>92.102813</ele>
        <time>2022-03-18T09:46:55.422Z</time>
      </trkpt>
      <trkpt lat="44.89239" lon="1.476">
        <ele>91.972781</ele>
        <time>2022-03-18T09:46:58.200Z</time>
      </trkpt>
      <trkpt lat="44.89214" lon="1.47584">
        <ele>91.706262</ele>
        <time>2022-03-18T09:47:04.801Z</time>
      </trkpt>
      <trkpt lat="44.89208" lon="1.47573">
        <ele>91.608674</ele>
        <time>2022-03-18T09:47:06.953Z</time>
      </trkpt>
      <trkpt lat="44.89203" lon="1.47563">
        <ele>91.525554</ele>
        <time>2022-03-18T09:47:09.379Z</time>
      </trkpt>
      <trkpt lat="44.89183" lon="1.47488">
        <ele>90.973076</ele>
        <time>2022-03-18T09:47:23.660Z</time>
      </trkpt>
      <trkpt lat="44.89177" lon="1.47456">
        <ele>90.743806</ele>
        <time>2022-03-18T09:47:29.627Z</time>
      </trkpt>
      <trkpt lat="44.89174" lon="1.47433">
        <ele>90.587833</ele>
        <time>2022-03-18T09:47:33.569Z</time>
      </trkpt>
      <trkpt lat="44.89168" lon="1.47402">
        <ele>90.479541</ele>
        <time>2022-03-18T09:47:39.156Z</time>
      </trkpt>
      <trkpt lat="44.89165" lon="1.47392">
        <ele>90.444279</ele>
        <time>2022-03-18T09:47:41.406Z</time>
      </trkpt>
      <trkpt lat="44.89159" lon="1.47369">
        <ele>90.362715</ele>
        <time>2022-03-18T09:47:45.771Z</time>
      </trkpt>
      <trkpt lat="44.89149" lon="1.47333">
        <ele>90.235185</ele>
        <time>2022-03-18T09:47:52.892Z</time>
      </trkpt>
      <trkpt lat="44.89147" lon="1.47326">
        <ele>90.210628</ele>
        <time>2022-03-18T09:47:54.292Z</time>
      </trkpt>
      <trkpt lat="44.89134" lon="1.47278">
        <ele>90.03586</ele>
        <time>2022-03-18T09:48:03.458Z</time>
      </trkpt>
      <trkpt lat="44.8913" lon="1.47261">
        <ele>89.977745</ele>
        <time>2022-03-18T09:48:06.264Z</time>
      </trkpt>
      <trkpt lat="44.89124" lon="1.47246">
        <ele>89.91942</ele>
        <time>2022-03-18T09:48:09.996Z</time>
      </trkpt>
      <trkpt lat="44.89116" lon="1.47231">
        <ele>89.855853</ele>
        <time>2022-03-18T09:48:13.133Z</time>
      </trkpt>
      <trkpt lat="44.89112" lon="1.47225">
        <ele>89.827847</ele>
        <time>2022-03-18T09:48:14.370Z</time>
      </trkpt>
      <trkpt lat="44.89092" lon="1.47188">
        <ele>89.601239</ele>
        <time>2022-03-18T09:48:22.402Z</time>
      </trkpt>
      <trkpt lat="44.89091" lon="1.47103">
        <ele>89.016886</ele>
        <time>2022-03-18T09:48:36.338Z</time>
      </trkpt>
      <trkpt lat="44.89091" lon="1.47099">
        <ele>88.989381</ele>
        <time>2022-03-18T09:48:36.859Z</time>
      </trkpt>
      <trkpt lat="44.89092" lon="1.4702">
        <ele>88.444949</ele>
        <time>2022-03-18T09:48:49.370Z</time>
      </trkpt>
      <trkpt lat="44.89091" lon="1.46961">
        <ele>88.040132</ele>
        <time>2022-03-18T09:48:59.159Z</time>
      </trkpt>
      <trkpt lat="44.8909" lon="1.46901">
        <ele>87.988411</ele>
        <time>2022-03-18T09:49:09.808Z</time>
      </trkpt>
      <trkpt lat="44.89092" lon="1.46866">
        <ele>87.981125</ele>
        <time>2022-03-18T09:49:16.630Z</time>
      </trkpt>
      <trkpt lat="44.89093" lon="1.4686">
        <ele>87.979884</ele>
        <time>2022-03-18T09:49:17.543Z</time>
      </trkpt>
      <trkpt lat="44.89096" lon="1.46843">
        <ele>87.976353</ele>
        <time>2022-03-18T09:49:21.093Z</time>
      </trkpt>
      <trkpt lat="44.89099" lon="1.46834">
        <ele>87.974338</ele>
        <time>2022-03-18T09:49:23.241Z</time>
      </trkpt>
      <trkpt lat="44.89096" lon="1.46822">
        <ele>87.971653</ele>
        <time>2022-03-18T09:49:25.903Z</time>
      </trkpt>
      <trkpt lat="44.89095" lon="1.46802">
        <ele>87.967625</ele>
        <time>2022-03-18T09:49:29.334Z</time>
      </trkpt>
      <trkpt lat="44.89102" lon="1.46715">
        <ele>87.949849</ele>
        <time>2022-03-18T09:49:46.450Z</time>
      </trkpt>
      <trkpt lat="44.8912" lon="1.46584">
        <ele>88.600287</ele>
        <time>2022-03-18T09:50:14.463Z</time>
      </trkpt>
      <trkpt lat="44.89153" lon="1.46458">
        <ele>89.336103</ele>
        <time>2022-03-18T09:50:44.233Z</time>
      </trkpt>
      <trkpt lat="44.89172" lon="1.4639">
        <ele>90.174458</ele>
        <time>2022-03-18T09:51:00.650Z</time>
      </trkpt>
      <trkpt lat="44.89186" lon="1.46329">
        <ele>90.903592</ele>
        <time>2022-03-18T09:51:15.938Z</time>
      </trkpt>
      <trkpt lat="44.89219" lon="1.46149">
        <ele>95.201205</ele>
        <time>2022-03-18T09:52:03.018Z</time>
      </trkpt>
      <trkpt lat="44.89221" lon="1.46125">
        <ele>96.208489</ele>
        <time>2022-03-18T09:52:12.062Z</time>
      </trkpt>
      <trkpt lat="44.8922" lon="1.46115">
        <ele>96.651723</ele>
        <time>2022-03-18T09:52:16.196Z</time>
      </trkpt>
      <trkpt lat="44.89202" lon="1.46064">
        <ele>99.045109</ele>
        <time>2022-03-18T09:52:42.039Z</time>
      </trkpt>
      <trkpt lat="44.89167" lon="1.46002">
        <ele>102.328937</ele>
        <time>2022-03-18T09:53:21.695Z</time>
      </trkpt>
      <trkpt lat="44.89091" lon="1.45863">
        <ele>109.127905</ele>
        <time>2022-03-18T09:54:37.202Z</time>
      </trkpt>
      <trkpt lat="44.8909" lon="1.45856">
        <ele>109.376348</ele>
        <time>2022-03-18T09:54:38.050Z</time>
      </trkpt>
      <trkpt lat="44.89107" lon="1.45801">
        <ele>111.691797</ele>
        <time>2022-03-18T09:54:59.245Z</time>
      </trkpt>
      <trkpt lat="44.89117" lon="1.45763">
        <ele>112.189301</ele>
        <time>2022-03-18T09:55:09.590Z</time>
      </trkpt>
      <trkpt lat="44.89119" lon="1.45755">
        <ele>112.020442</ele>
        <time>2022-03-18T09:55:11.147Z</time>
      </trkpt>
      <trkpt lat="44.89127" lon="1.45714">
        <ele>111.174383</ele>
        <time>2022-03-18T09:55:18.211Z</time>
      </trkpt>
      <trkpt lat="44.8915" lon="1.45547">
        <ele>107.782068</ele>
        <time>2022-03-18T09:55:40.353Z</time>
      </trkpt>
      <trkpt lat="44.89157" lon="1.45449">
        <ele>104.692122</ele>
        <time>2022-03-18T09:55:53.243Z</time>
      </trkpt>
      <trkpt lat="44.89159" lon="1.45411">
        <ele>103.409071</ele>
        <time>2022-03-18T09:55:58.109Z</time>
      </trkpt>
      <trkpt lat="44.8916" lon="1.45375">
        <ele>102.19497</ele>
        <time>2022-03-18T09:56:02.660Z</time>
      </trkpt>
      <trkpt lat="44.89154" lon="1.4534">
        <ele>100.972253</ele>
        <time>2022-03-18T09:56:07.373Z</time>
      </trkpt>
      <trkpt lat="44.89146" lon="1.45322">
        <ele>100.291267</ele>
        <time>2022-03-18T09:56:10.052Z</time>
      </trkpt>
      <trkpt lat="44.89143" lon="1.45315">
        <ele>100.014057</ele>
        <time>2022-03-18T09:56:11.278Z</time>
      </trkpt>
      <trkpt lat="44.89159" lon="1.45294">
        <ele>98.999461</ele>
        <time>2022-03-18T09:56:15.164Z</time>
      </trkpt>
      <trkpt lat="44.89187" lon="1.45259">
        <ele>97.724345</ele>
        <time>2022-03-18T09:56:22.047Z</time>
      </trkpt>
      <trkpt lat="44.89185" lon="1.45248">
        <ele>97.452958</ele>
        <time>2022-03-18T09:56:23.539Z</time>
      </trkpt>
      <trkpt lat="44.89143" lon="1.4513">
        <ele>94.225815</ele>
        <time>2022-03-18T09:56:41.302Z</time>
      </trkpt>
      <trkpt lat="44.89096" lon="1.45017">
        <ele>92.518138</ele>
        <time>2022-03-18T09:57:01.212Z</time>
      </trkpt>
      <trkpt lat="44.89013" lon="1.44857">
        <ele>91.768043</ele>
        <time>2022-03-18T09:57:38.994Z</time>
      </trkpt>
      <trkpt lat="44.8894" lon="1.44805">
        <ele>91.543593</ele>
        <time>2022-03-18T09:58:01.111Z</time>
      </trkpt>
      <trkpt lat="44.88907" lon="1.44763">
        <ele>91.421194</ele>
        <time>2022-03-18T09:58:12.284Z</time>
      </trkpt>
      <trkpt lat="44.88823" lon="1.44741">
        <ele>90.834416</ele>
        <time>2022-03-18T09:58:32.685Z</time>
      </trkpt>
      <trkpt lat="44.88801" lon="1.44731">
        <ele>90.592903</ele>
        <time>2022-03-18T09:58:37.817Z</time>
      </trkpt>
      <trkpt lat="44.8875" lon="1.44691">
        <ele>89.957267</ele>
        <time>2022-03-18T09:58:51.135Z</time>
      </trkpt>
      <trkpt lat="44.88632" lon="1.44653">
        <ele>88.834644</ele>
        <time>2022-03-18T09:59:18.567Z</time>
      </trkpt>
      <trkpt lat="44.88601" lon="1.44652">
        <ele>88.583873</ele>
        <time>2022-03-18T09:59:25.835Z</time>
      </trkpt>
      <trkpt lat="44.88591" lon="1.44652">
        <ele>88.504335</ele>
        <time>2022-03-18T09:59:28.155Z</time>
      </trkpt>
      <trkpt lat="44.88575" lon="1.44651">
        <ele>88.370431</ele>
        <time>2022-03-18T09:59:32.142Z</time>
      </trkpt>
      <trkpt lat="44.8857" lon="1.44654">
        <ele>88.32947</ele>
        <time>2022-03-18T09:59:33.360Z</time>
      </trkpt>
      <trkpt lat="44.8855" lon="1.44636">
        <ele>88.135464</ele>
        <time>2022-03-18T09:59:39.123Z</time>
      </trkpt>
      <trkpt lat="44.88451" lon="1.44546">
        <ele>87.857784</ele>
        <time>2022-03-18T10:00:09.507Z</time>
      </trkpt>
      <trkpt lat="44.88419" lon="1.44516">
        <ele>87.834389</ele>
        <time>2022-03-18T10:00:19.680Z</time>
      </trkpt>
      <trkpt lat="44.88382" lon="1.44481">
        <ele>87.806483</ele>
        <time>2022-03-18T10:00:32.092Z</time>
      </trkpt>
      <trkpt lat="44.88318" lon="1.44423">
        <ele>87.778411</ele>
        <time>2022-03-18T10:00:53.048Z</time>
      </trkpt>
      <trkpt lat="44.88291" lon="1.44406">
        <ele>87.76817</ele>
        <time>2022-03-18T10:01:01.202Z</time>
      </trkpt>
      <trkpt lat="44.88272" lon="1.44398">
        <ele>87.761589</ele>
        <time>2022-03-18T10:01:06.166Z</time>
      </trkpt>
      <trkpt lat="44.88226" lon="1.44394">
        <ele>87.745599</ele>
        <time>2022-03-18T10:01:18.115Z</time>
      </trkpt>
      <trkpt lat="44.88193" lon="1.44379">
        <ele>87.680369</ele>
        <time>2022-03-18T10:01:26.855Z</time>
      </trkpt>
      <trkpt lat="44.88153" lon="1.44329">
        <ele>87.517058</ele>
        <time>2022-03-18T10:01:40.338Z</time>
      </trkpt>
      <trkpt lat="44.88143" lon="1.44323">
        <ele>87.483422</ele>
        <time>2022-03-18T10:01:42.963Z</time>
      </trkpt>
      <trkpt lat="44.88131" lon="1.44322">
        <ele>87.445362</ele>
        <time>2022-03-18T10:01:46.089Z</time>
      </trkpt>
      <trkpt lat="44.8807" lon="1.44324">
        <ele>87.259658</ele>
        <time>2022-03-18T10:02:01.413Z</time>
      </trkpt>
      <trkpt lat="44.88003" lon="1.44318">
        <ele>87.15989</ele>
        <time>2022-03-18T10:02:18.586Z</time>
      </trkpt>
      <trkpt lat="44.87932" lon="1.44311">
        <ele>87.112006</ele>
        <time>2022-03-18T10:02:37.591Z</time>
      </trkpt>
      <trkpt lat="44.87852" lon="1.44287">
        <ele>87.091753</ele>
        <time>2022-03-18T10:02:59.722Z</time>
      </trkpt>
      <trkpt lat="44.8782" lon="1.44264">
        <ele>87.137426</ele>
        <time>2022-03-18T10:03:09.304Z</time>
      </trkpt>
      <trkpt lat="44.87721" lon="1.44213">
        <ele>87.271669</ele>
        <time>2022-03-18T10:03:38.029Z</time>
      </trkpt>
      <trkpt lat="44.8766" lon="1.44182">
        <ele>87.417259</ele>
        <time>2022-03-18T10:03:56.189Z</time>
      </trkpt>
      <trkpt lat="44.87639" lon="1.44169">
        <ele>87.476047</ele>
        <time>2022-03-18T10:04:02.504Z</time>
      </trkpt>
      <trkpt lat="44.87552" lon="1.44107">
        <ele>87.739173</ele>
        <time>2022-03-18T10:04:30.028Z</time>
      </trkpt>
      <trkpt lat="44.87486" lon="1.44042">
        <ele>87.583552</ele>
        <time>2022-03-18T10:04:52.070Z</time>
      </trkpt>
      <trkpt lat="44.87423" lon="1.43973">
        <ele>87.345196</ele>
        <time>2022-03-18T10:05:11.871Z</time>
      </trkpt>
      <trkpt lat="44.87352" lon="1.43873">
        <ele>86.878577</ele>
        <time>2022-03-18T10:05:35.860Z</time>
      </trkpt>
      <trkpt lat="44.87333" lon="1.43832">
        <ele>86.680868</ele>
        <time>2022-03-18T10:05:44.392Z</time>
      </trkpt>
      <trkpt lat="44.87327" lon="1.43819">
        <ele>86.620643</ele>
        <time>2022-03-18T10:05:46.994Z</time>
      </trkpt>
      <trkpt lat="44.87303" lon="1.43759">
        <ele>86.348793</ele>
        <time>2022-03-18T10:05:58.976Z</time>
      </trkpt>
      <trkpt lat="44.87296" lon="1.43746">
        <ele>86.285672</ele>
        <time>2022-03-18T10:06:01.761Z</time>
      </trkpt>
      <trkpt lat="44.87261" lon="1.43705">
        <ele>86.260713</ele>
        <time>2022-03-18T10:06:13.232Z</time>
      </trkpt>
      <trkpt lat="44.87121" lon="1.43568">
        <ele>86.452974</ele>
        <time>2022-03-18T10:07:00.389Z</time>
      </trkpt>
      <trkpt lat="44.87097" lon="1.43549">
        <ele>86.553985</ele>
        <time>2022-03-18T10:07:08.427Z</time>
      </trkpt>
      <trkpt lat="44.87005" lon="1.43476">
        <ele>86.939466</ele>
        <time>2022-03-18T10:07:38.714Z</time>
      </trkpt>
      <trkpt lat="44.86997" lon="1.43474">
        <ele>86.968888</ele>
        <time>2022-03-18T10:07:41.098Z</time>
      </trkpt>
      <trkpt lat="44.86993" lon="1.43461">
        <ele>87.004926</ele>
        <time>2022-03-18T10:07:43.929Z</time>
      </trkpt>
      <trkpt lat="44.86931" lon="1.43342">
        <ele>87.053144</ele>
        <time>2022-03-18T10:08:12.707Z</time>
      </trkpt>
      <trkpt lat="44.86867" lon="1.43173">
        <ele>86.977149</ele>
        <time>2022-03-18T10:08:47.792Z</time>
      </trkpt>
      <trkpt lat="44.8683" lon="1.43033">
        <ele>86.783092</ele>
        <time>2022-03-18T10:09:15.409Z</time>
      </trkpt>
      <trkpt lat="44.86806" lon="1.4286">
        <ele>86.394795</ele>
        <time>2022-03-18T10:09:47.157Z</time>
      </trkpt>
      <trkpt lat="44.86805" lon="1.4281">
        <ele>86.276672</ele>
        <time>2022-03-18T10:09:56.190Z</time>
      </trkpt>
      <trkpt lat="44.86804" lon="1.42794">
        <ele>86.240127</ele>
        <time>2022-03-18T10:09:58.909Z</time>
      </trkpt>
      <trkpt lat="44.86785" lon="1.42643">
        <ele>88.244198</ele>
        <time>2022-03-18T10:10:25.627Z</time>
      </trkpt>
      <trkpt lat="44.86743" lon="1.42507">
        <ele>91.717739</ele>
        <time>2022-03-18T10:11:12.349Z</time>
      </trkpt>
      <trkpt lat="44.86733" lon="1.42458">
        <ele>95.5366</ele>
        <time>2022-03-18T10:11:39.802Z</time>
      </trkpt>
      <trkpt lat="44.86734" lon="1.42399">
        <ele>99.964881</ele>
        <time>2022-03-18T10:12:20.240Z</time>
      </trkpt>
      <trkpt lat="44.86732" lon="1.42374">
        <ele>101.814676</ele>
        <time>2022-03-18T10:12:27.294Z</time>
      </trkpt>
      <trkpt lat="44.8673" lon="1.42372">
        <ele>102.065251</ele>
        <time>2022-03-18T10:12:28.569Z</time>
      </trkpt>
      <trkpt lat="44.86725" lon="1.42366">
        <ele>102.821481</ele>
        <time>2022-03-18T10:12:38.461Z</time>
      </trkpt>
      <trkpt lat="44.86663" lon="1.42319">
        <ele>110.000505</ele>
        <time>2022-03-18T10:13:38.481Z</time>
      </trkpt>
      <trkpt lat="44.86654" lon="1.42309">
        <ele>110.779694</ele>
        <time>2022-03-18T10:13:53.523Z</time>
      </trkpt>
      <trkpt lat="44.86753" lon="1.42042">
        <ele>122.198401</ele>
        <time>2022-03-18T10:15:47.817Z</time>
      </trkpt>
      <trkpt lat="44.87015" lon="1.41661">
        <ele>113.402738</ele>
        <time>2022-03-18T10:17:03.559Z</time>
      </trkpt>
      <trkpt lat="44.87065" lon="1.41559">
        <ele>108.633118</ele>
        <time>2022-03-18T10:17:18.650Z</time>
      </trkpt>
      <trkpt lat="44.87087" lon="1.41497">
        <ele>105.896363</ele>
        <time>2022-03-18T10:17:27.090Z</time>
      </trkpt>
      <trkpt lat="44.87097" lon="1.41457">
        <ele>104.216911</ele>
        <time>2022-03-18T10:17:32.078Z</time>
      </trkpt>
      <trkpt lat="44.87142" lon="1.41281">
        <ele>97.312154</ele>
        <time>2022-03-18T10:17:55.618Z</time>
      </trkpt>
      <trkpt lat="44.87159" lon="1.4122">
        <ele>98.252478</ele>
        <time>2022-03-18T10:18:07.277Z</time>
      </trkpt>
      <trkpt lat="44.87207" lon="1.41096">
        <ele>100.268616</ele>
        <time>2022-03-18T10:18:49.586Z</time>
      </trkpt>
      <trkpt lat="44.87213" lon="1.41084">
        <ele>100.491999</ele>
        <time>2022-03-18T10:18:55.842Z</time>
      </trkpt>
      <trkpt lat="44.87225" lon="1.41064">
        <ele>101.034605</ele>
        <time>2022-03-18T10:19:07.064Z</time>
      </trkpt>
      <trkpt lat="44.87293" lon="1.40989">
        <ele>106.481486</ele>
        <time>2022-03-18T10:19:58.501Z</time>
      </trkpt>
      <trkpt lat="44.87306" lon="1.40975">
        <ele>107.535454</ele>
        <time>2022-03-18T10:20:10.235Z</time>
      </trkpt>
      <trkpt lat="44.8743" lon="1.40748">
        <ele>118.03458</ele>
        <time>2022-03-18T10:21:59.452Z</time>
      </trkpt>
      <trkpt lat="44.87457" lon="1.40662">
        <ele>120.42481</ele>
        <time>2022-03-18T10:22:24.815Z</time>
      </trkpt>
      <trkpt lat="44.87618" lon="1.39722">
        <ele>125.558338</ele>
        <time>2022-03-18T10:25:48.407Z</time>
      </trkpt>
      <trkpt lat="44.87597" lon="1.39338">
        <ele>128.416358</ele>
        <time>2022-03-18T10:27:16.401Z</time>
      </trkpt>
      <trkpt lat="44.87575" lon="1.38947">
        <ele>130.297247</ele>
        <time>2022-03-18T10:28:40.968Z</time>
      </trkpt>
      <trkpt lat="44.87543" lon="1.3879">
        <ele>129.260933</ele>
        <time>2022-03-18T10:29:07.983Z</time>
      </trkpt>
      <trkpt lat="44.8743" lon="1.38555">
        <ele>127.010784</ele>
        <time>2022-03-18T10:29:51.903Z</time>
      </trkpt>
      <trkpt lat="44.87245" lon="1.38311">
        <ele>125.913535</ele>
        <time>2022-03-18T10:30:56.448Z</time>
      </trkpt>
      <trkpt lat="44.87086" lon="1.381">
        <ele>123.652305</ele>
        <time>2022-03-18T10:31:56.602Z</time>
      </trkpt>
      <trkpt lat="44.86926" lon="1.37888">
        <ele>114.415318</ele>
        <time>2022-03-18T10:32:35.493Z</time>
      </trkpt>
      <trkpt lat="44.86855" lon="1.37815">
        <ele>110.425302</ele>
        <time>2022-03-18T10:32:51.725Z</time>
      </trkpt>
      <trkpt lat="44.86814" lon="1.37784">
        <ele>109.822885</ele>
        <time>2022-03-18T10:33:01.137Z</time>
      </trkpt>
      <trkpt lat="44.86793" lon="1.37786">
        <ele>109.559605</ele>
        <time>2022-03-18T10:33:05.647Z</time>
      </trkpt>
      <trkpt lat="44.86729" lon="1.37829">
        <ele>108.642595</ele>
        <time>2022-03-18T10:33:23.462Z</time>
      </trkpt>
      <trkpt lat="44.86716" lon="1.37832">
        <ele>108.473729</ele>
        <time>2022-03-18T10:33:27.058Z</time>
      </trkpt>
      <trkpt lat="44.86702" lon="1.37822">
        <ele>108.274227</ele>
        <time>2022-03-18T10:33:31.766Z</time>
      </trkpt>
      <trkpt lat="44.86697" lon="1.37805">
        <ele>108.33733</ele>
        <time>2022-03-18T10:33:35.781Z</time>
      </trkpt>
      <trkpt lat="44.86698" lon="1.37796">
        <ele>108.395997</ele>
        <time>2022-03-18T10:33:37.704Z</time>
      </trkpt>
      <trkpt lat="44.86746" lon="1.37751">
        <ele>108.93159</ele>
        <time>2022-03-18T10:33:56.547Z</time>
      </trkpt>
      <trkpt lat="44.86757" lon="1.37734">
        <ele>109.081342</ele>
        <time>2022-03-18T10:34:01.770Z</time>
      </trkpt>
      <trkpt lat="44.86758" lon="1.37713">
        <ele>109.218453</ele>
        <time>2022-03-18T10:34:06.651Z</time>
      </trkpt>
      <trkpt lat="44.86711" lon="1.37608">
        <ele>109.828417</ele>
        <time>2022-03-18T10:34:35.138Z</time>
      </trkpt>
      <trkpt lat="44.86654" lon="1.37466">
        <ele>109.326903</ele>
        <time>2022-03-18T10:35:05.298Z</time>
      </trkpt>
      <trkpt lat="44.86648" lon="1.3745">
        <ele>109.268398</ele>
        <time>2022-03-18T10:35:08.365Z</time>
      </trkpt>
      <trkpt lat="44.86642" lon="1.37361">
        <ele>108.424664</ele>
        <time>2022-03-18T10:35:21.761Z</time>
      </trkpt>
      <trkpt lat="44.86621" lon="1.37241">
        <ele>106.160331</ele>
        <time>2022-03-18T10:35:39.540Z</time>
      </trkpt>
      <trkpt lat="44.86612" lon="1.37134">
        <ele>104.160792</ele>
        <time>2022-03-18T10:35:54.527Z</time>
      </trkpt>
      <trkpt lat="44.86588" lon="1.3708">
        <ele>102.827991</ele>
        <time>2022-03-18T10:36:03.525Z</time>
      </trkpt>
      <trkpt lat="44.86571" lon="1.37013">
        <ele>101.357587</ele>
        <time>2022-03-18T10:36:13.503Z</time>
      </trkpt>
      <trkpt lat="44.86544" lon="1.36911">
        <ele>99.102034</ele>
        <time>2022-03-18T10:36:28.920Z</time>
      </trkpt>
      <trkpt lat="44.86521" lon="1.36847">
        <ele>97.927937</ele>
        <time>2022-03-18T10:36:39.167Z</time>
      </trkpt>
      <trkpt lat="44.86484" lon="1.36743">
        <ele>96.029941</ele>
        <time>2022-03-18T10:36:56.138Z</time>
      </trkpt>
      <trkpt lat="44.86468" lon="1.36696">
        <ele>95.178247</ele>
        <time>2022-03-18T10:37:03.994Z</time>
      </trkpt>
      <trkpt lat="44.86442" lon="1.3662">
        <ele>94.421751</ele>
        <time>2022-03-18T10:37:16.885Z</time>
      </trkpt>
      <trkpt lat="44.86434" lon="1.36606">
        <ele>94.273688</ele>
        <time>2022-03-18T10:37:19.738Z</time>
      </trkpt>
      <trkpt lat="44.86426" lon="1.36598">
        <ele>94.162143</ele>
        <time>2022-03-18T10:37:21.967Z</time>
      </trkpt>
      <trkpt lat="44.8635" lon="1.36545">
        <ele>93.188683</ele>
        <time>2022-03-18T10:37:41.971Z</time>
      </trkpt>
      <trkpt lat="44.86326" lon="1.36525">
        <ele>92.939733</ele>
        <time>2022-03-18T10:37:48.981Z</time>
      </trkpt>
      <trkpt lat="44.86293" lon="1.36486">
        <ele>92.752912</ele>
        <time>2022-03-18T10:38:00.073Z</time>
      </trkpt>
      <trkpt lat="44.86248" lon="1.36425">
        <ele>92.484566</ele>
        <time>2022-03-18T10:38:15.726Z</time>
      </trkpt>
      <trkpt lat="44.86225" lon="1.36382">
        <ele>92.322055</ele>
        <time>2022-03-18T10:38:25.230Z</time>
      </trkpt>
      <trkpt lat="44.86194" lon="1.36362">
        <ele>92.098967</ele>
        <time>2022-03-18T10:38:33.983Z</time>
      </trkpt>
      <trkpt lat="44.86119" lon="1.36328">
        <ele>90.987</ele>
        <time>2022-03-18T10:38:52.380Z</time>
      </trkpt>
      <trkpt lat="44.86098" lon="1.36312">
        <ele>90.644971</ele>
        <time>2022-03-18T10:38:57.819Z</time>
      </trkpt>
      <trkpt lat="44.86071" lon="1.36279">
        <ele>90.147199</ele>
        <time>2022-03-18T10:39:05.283Z</time>
      </trkpt>
      <trkpt lat="44.86071" lon="1.36278">
        <ele>90.134446</ele>
        <time>2022-03-18T10:39:05.466Z</time>
      </trkpt>
      <trkpt lat="44.86062" lon="1.36267">
        <ele>89.96394</ele>
        <time>2022-03-18T10:39:07.940Z</time>
      </trkpt>
      <trkpt lat="44.86052" lon="1.36254">
        <ele>89.779341</ele>
        <time>2022-03-18T10:39:10.651Z</time>
      </trkpt>
      <trkpt lat="44.86051" lon="1.36253">
        <ele>89.758367</ele>
        <time>2022-03-18T10:39:10.950Z</time>
      </trkpt>
      <trkpt lat="44.86053" lon="1.36227">
        <ele>89.360188</ele>
        <time>2022-03-18T10:39:14.868Z</time>
      </trkpt>
      <trkpt lat="44.86055" lon="1.362">
        <ele>88.881745</ele>
        <time>2022-03-18T10:39:18.922Z</time>
      </trkpt>
      <trkpt lat="44.8605" lon="1.36168">
        <ele>88.275686</ele>
        <time>2022-03-18T10:39:23.907Z</time>
      </trkpt>
      <trkpt lat="44.86041" lon="1.36127">
        <ele>87.510274</ele>
        <time>2022-03-18T10:39:30.162Z</time>
      </trkpt>
      <trkpt lat="44.8604" lon="1.36122">
        <ele>87.399968</ele>
        <time>2022-03-18T10:39:31.097Z</time>
      </trkpt>
      <trkpt lat="44.86037" lon="1.36109">
        <ele>87.163983</ele>
        <time>2022-03-18T10:39:33.033Z</time>
      </trkpt>
      <trkpt lat="44.86033" lon="1.36084">
        <ele>86.687472</ele>
        <time>2022-03-18T10:39:36.927Z</time>
      </trkpt>
      <trkpt lat="44.86025" lon="1.36039">
        <ele>85.860268</ele>
        <time>2022-03-18T10:39:43.754Z</time>
      </trkpt>
      <trkpt lat="44.86015" lon="1.35987">
        <ele>84.957816</ele>
        <time>2022-03-18T10:39:51.899Z</time>
      </trkpt>
      <trkpt lat="44.86012" lon="1.3596">
        <ele>84.651848</ele>
        <time>2022-03-18T10:39:56.196Z</time>
      </trkpt>
      <trkpt lat="44.86006" lon="1.35853">
        <ele>83.493286</ele>
        <time>2022-03-18T10:40:13.296Z</time>
      </trkpt>
      <trkpt lat="44.86005" lon="1.35836">
        <ele>83.307177</ele>
        <time>2022-03-18T10:40:16.301Z</time>
      </trkpt>
      <trkpt lat="44.86005" lon="1.35822">
        <ele>83.154626</ele>
        <time>2022-03-18T10:40:18.555Z</time>
      </trkpt>
      <trkpt lat="44.86005" lon="1.35806">
        <ele>82.98986</ele>
        <time>2022-03-18T10:40:21.156Z</time>
      </trkpt>
      <trkpt lat="44.86002" lon="1.35777">
        <ele>82.666838</ele>
        <time>2022-03-18T10:40:26.364Z</time>
      </trkpt>
      <trkpt lat="44.85998" lon="1.35733">
        <ele>82.295712</ele>
        <time>2022-03-18T10:40:34.351Z</time>
      </trkpt>
      <trkpt lat="44.85997" lon="1.35729">
        <ele>82.28937</ele>
        <time>2022-03-18T10:40:34.971Z</time>
      </trkpt>
      <trkpt lat="44.85995" lon="1.35726">
        <ele>82.282605</ele>
        <time>2022-03-18T10:40:35.679Z</time>
      </trkpt>
      <trkpt lat="44.85969" lon="1.35693">
        <ele>82.205092</ele>
        <time>2022-03-18T10:40:44.591Z</time>
      </trkpt>
      <trkpt lat="44.8587" lon="1.35605">
        <ele>81.941639</ele>
        <time>2022-03-18T10:41:16.694Z</time>
      </trkpt>
      <trkpt lat="44.85789" lon="1.35543">
        <ele>81.949313</ele>
        <time>2022-03-18T10:41:43.343Z</time>
      </trkpt>
      <trkpt lat="44.85695" lon="1.35485">
        <ele>81.997289</ele>
        <time>2022-03-18T10:42:12.034Z</time>
      </trkpt>
      <trkpt lat="44.85579" lon="1.35392">
        <ele>81.424794</ele>
        <time>2022-03-18T10:42:46.649Z</time>
      </trkpt>
      <trkpt lat="44.85569" lon="1.35385">
        <ele>81.375587</ele>
        <time>2022-03-18T10:42:49.429Z</time>
      </trkpt>
      <trkpt lat="44.85565" lon="1.35382">
        <ele>81.356636</ele>
        <time>2022-03-18T10:42:50.498Z</time>
      </trkpt>
      <trkpt lat="44.85516" lon="1.35342">
        <ele>81.085635</ele>
        <time>2022-03-18T10:43:05.107Z</time>
      </trkpt>
      <trkpt lat="44.85423" lon="1.35229">
        <ele>80.446227</ele>
        <time>2022-03-18T10:43:36.060Z</time>
      </trkpt>
      <trkpt lat="44.85346" lon="1.35148">
        <ele>80.287208</ele>
        <time>2022-03-18T10:44:02.128Z</time>
      </trkpt>
      <trkpt lat="44.85282" lon="1.35067">
        <ele>80.289747</ele>
        <time>2022-03-18T10:44:26.313Z</time>
      </trkpt>
      <trkpt lat="44.85177" lon="1.34915">
        <ele>80.473904</ele>
        <time>2022-03-18T10:45:10.142Z</time>
      </trkpt>
      <trkpt lat="44.85152" lon="1.3487">
        <ele>80.534275</ele>
        <time>2022-03-18T10:45:21.585Z</time>
      </trkpt>
      <trkpt lat="44.85137" lon="1.34822">
        <ele>80.513542</ele>
        <time>2022-03-18T10:45:31.957Z</time>
      </trkpt>
      <trkpt lat="44.85137" lon="1.34819">
        <ele>80.508723</ele>
        <time>2022-03-18T10:45:32.516Z</time>
      </trkpt>
      <trkpt lat="44.85135" lon="1.34813">
        <ele>80.498346</ele>
        <time>2022-03-18T10:45:33.697Z</time>
      </trkpt>
      <trkpt lat="44.85111" lon="1.34479">
        <ele>79.949443</ele>
        <time>2022-03-18T10:46:36.853Z</time>
      </trkpt>
      <trkpt lat="44.85093" lon="1.34372">
        <ele>79.766138</ele>
        <time>2022-03-18T10:46:57.566Z</time>
      </trkpt>
      <trkpt lat="44.85076" lon="1.34337">
        <ele>79.720654</ele>
        <time>2022-03-18T10:47:05.827Z</time>
      </trkpt>
      <trkpt lat="44.85" lon="1.34186">
        <ele>79.673885</ele>
        <time>2022-03-18T10:47:41.989Z</time>
      </trkpt>
      <trkpt lat="44.84923" lon="1.33991">
        <ele>79.791992</ele>
        <time>2022-03-18T10:48:26.823Z</time>
      </trkpt>
      <trkpt lat="44.84909" lon="1.33968">
        <ele>79.814779</ele>
        <time>2022-03-18T10:48:32.892Z</time>
      </trkpt>
      <trkpt lat="44.84906" lon="1.33966">
        <ele>79.818556</ele>
        <time>2022-03-18T10:48:33.995Z</time>
      </trkpt>
      <trkpt lat="44.84903" lon="1.33963">
        <ele>79.822025</ele>
        <time>2022-03-18T10:48:34.920Z</time>
      </trkpt>
      <trkpt lat="44.849" lon="1.33959">
        <ele>79.826628</ele>
        <time>2022-03-18T10:48:36.106Z</time>
      </trkpt>
      <trkpt lat="44.84815" lon="1.33822">
        <ele>79.967239</ele>
        <time>2022-03-18T10:49:12.564Z</time>
      </trkpt>
      <trkpt lat="44.84764" lon="1.33715">
        <ele>80.023594</ele>
        <time>2022-03-18T10:49:38.639Z</time>
      </trkpt>
      <trkpt lat="44.84722" lon="1.33595">
        <ele>79.879559</ele>
        <time>2022-03-18T10:50:04.522Z</time>
      </trkpt>
      <trkpt lat="44.84715" lon="1.33582">
        <ele>79.862388</ele>
        <time>2022-03-18T10:50:07.409Z</time>
      </trkpt>
      <trkpt lat="44.84743" lon="1.33556">
        <ele>79.811918</ele>
        <time>2022-03-18T10:50:16.270Z</time>
      </trkpt>
      <trkpt lat="44.84798" lon="1.33509">
        <ele>79.796394</ele>
        <time>2022-03-18T10:50:33.665Z</time>
      </trkpt>
      <trkpt lat="44.84804" lon="1.33506">
        <ele>79.799469</ele>
        <time>2022-03-18T10:50:35.204Z</time>
      </trkpt>
      <trkpt lat="44.84803" lon="1.33501">
        <ele>79.80106</ele>
        <time>2022-03-18T10:50:36.015Z</time>
      </trkpt>
      <trkpt lat="44.84793" lon="1.33459">
        <ele>79.816998</ele>
        <time>2022-03-18T10:50:44.504Z</time>
      </trkpt>
      <trkpt lat="44.84765" lon="1.33381">
        <ele>79.848368</ele>
        <time>2022-03-18T10:51:01.476Z</time>
      </trkpt>
      <trkpt lat="44.84723" lon="1.33299">
        <ele>80.962632</ele>
        <time>2022-03-18T10:51:23.311Z</time>
      </trkpt>
      <trkpt lat="44.84693" lon="1.33254">
        <ele>82.294209</ele>
        <time>2022-03-18T10:51:39.558Z</time>
      </trkpt>
      <trkpt lat="44.84628" lon="1.33183">
        <ele>84.811185</ele>
        <time>2022-03-18T10:52:16.856Z</time>
      </trkpt>
      <trkpt lat="44.84555" lon="1.33115">
        <ele>89.300769</ele>
        <time>2022-03-18T10:53:09.511Z</time>
      </trkpt>
      <trkpt lat="44.8448" lon="1.33066">
        <ele>94.038196</ele>
        <time>2022-03-18T10:53:57.976Z</time>
      </trkpt>
      <trkpt lat="44.84464" lon="1.33061">
        <ele>94.955115</ele>
        <time>2022-03-18T10:54:09.038Z</time>
      </trkpt>
      <trkpt lat="44.84445" lon="1.33067">
        <ele>95.75527</ele>
        <time>2022-03-18T10:54:14.217Z</time>
      </trkpt>
      <trkpt lat="44.84429" lon="1.33069">
        <ele>96.072</ele>
        <time>2022-03-18T10:54:24.749Z</time>
      </trkpt>
      <trkpt lat="44.84427" lon="1.33065">
        <ele>96.138541</ele>
        <time>2022-03-18T10:54:25.318Z</time>
      </trkpt>
      <trkpt lat="44.844" lon="1.33018">
        <ele>96.993868</ele>
        <time>2022-03-18T10:54:39.312Z</time>
      </trkpt>
      <trkpt lat="44.84397" lon="1.33013">
        <ele>97.085642</ele>
        <time>2022-03-18T10:54:40.209Z</time>
      </trkpt>
      <trkpt lat="44.84361" lon="1.32943">
        <ele>98.30293</ele>
        <time>2022-03-18T10:55:03.517Z</time>
      </trkpt>
      <trkpt lat="44.84355" lon="1.32904">
        <ele>98.868165</ele>
        <time>2022-03-18T10:55:14.520Z</time>
      </trkpt>
      <trkpt lat="44.84367" lon="1.32855">
        <ele>99.552498</ele>
        <time>2022-03-18T10:55:23.089Z</time>
      </trkpt>
      <trkpt lat="44.84369" lon="1.32845">
        <ele>99.685878</ele>
        <time>2022-03-18T10:55:24.799Z</time>
      </trkpt>
      <trkpt lat="44.84372" lon="1.32815">
        <ele>100.064425</ele>
        <time>2022-03-18T10:55:29.457Z</time>
      </trkpt>
      <trkpt lat="44.84377" lon="1.32771">
        <ele>100.615404</ele>
        <time>2022-03-18T10:55:38.936Z</time>
      </trkpt>
      <trkpt lat="44.84377" lon="1.32765">
        <ele>100.701798</ele>
        <time>2022-03-18T10:55:40.496Z</time>
      </trkpt>
      <trkpt lat="44.84377" lon="1.32757">
        <ele>100.801142</ele>
        <time>2022-03-18T10:55:43.165Z</time>
      </trkpt>
      <trkpt lat="44.84376" lon="1.32747">
        <ele>100.930378</ele>
        <time>2022-03-18T10:55:46.197Z</time>
      </trkpt>
      <trkpt lat="44.84355" lon="1.32657">
        <ele>102.115475</ele>
        <time>2022-03-18T10:56:14.347Z</time>
      </trkpt>
      <trkpt lat="44.84348" lon="1.32572">
        <ele>103.09556</ele>
        <time>2022-03-18T10:56:41.033Z</time>
      </trkpt>
      <trkpt lat="44.84319" lon="1.32435">
        <ele>104.664716</ele>
        <time>2022-03-18T10:57:15.060Z</time>
      </trkpt>
      <trkpt lat="44.84317" lon="1.32365">
        <ele>104.942652</ele>
        <time>2022-03-18T10:57:27.648Z</time>
      </trkpt>
      <trkpt lat="44.84273" lon="1.32061">
        <ele>102.434279</ele>
        <time>2022-03-18T10:58:16.425Z</time>
      </trkpt>
      <trkpt lat="44.84263" lon="1.31901">
        <ele>101.076677</ele>
        <time>2022-03-18T10:58:42.221Z</time>
      </trkpt>
      <trkpt lat="44.84246" lon="1.31823">
        <ele>101.427532</ele>
        <time>2022-03-18T10:58:56.000Z</time>
      </trkpt>
      <trkpt lat="44.84209" lon="1.31715">
        <ele>102.159091</ele>
        <time>2022-03-18T10:59:19.742Z</time>
      </trkpt>
      <trkpt lat="44.84185" lon="1.31671">
        <ele>102.494886</ele>
        <time>2022-03-18T10:59:35.237Z</time>
      </trkpt>
      <trkpt lat="44.84155" lon="1.31636">
        <ele>104.613406</ele>
        <time>2022-03-18T10:59:53.176Z</time>
      </trkpt>
      <trkpt lat="44.84154" lon="1.31635">
        <ele>104.738257</ele>
        <time>2022-03-18T10:59:53.672Z</time>
      </trkpt>
      <trkpt lat="44.84149" lon="1.31632">
        <ele>105.049393</ele>
        <time>2022-03-18T10:59:55.833Z</time>
      </trkpt>
      <trkpt lat="44.84134" lon="1.31624">
        <ele>106.058334</ele>
        <time>2022-03-18T11:00:04.301Z</time>
      </trkpt>
      <trkpt lat="44.84127" lon="1.31622">
        <ele>106.458177</ele>
        <time>2022-03-18T11:00:09.150Z</time>
      </trkpt>
      <trkpt lat="44.84123" lon="1.31621">
        <ele>106.758403</ele>
        <time>2022-03-18T11:00:14.111Z</time>
      </trkpt>
      <trkpt lat="44.84087" lon="1.31605">
        <ele>109.04845</ele>
        <time>2022-03-18T11:00:36.603Z</time>
      </trkpt>
      <trkpt lat="44.84053" lon="1.3157">
        <ele>111.634376</ele>
        <time>2022-03-18T11:01:01.548Z</time>
      </trkpt>
      <trkpt lat="44.84044" lon="1.3156">
        <ele>112.384407</ele>
        <time>2022-03-18T11:01:08.744Z</time>
      </trkpt>
      <trkpt lat="44.84015" lon="1.31511">
        <ele>114.979147</ele>
        <time>2022-03-18T11:01:36.922Z</time>
      </trkpt>
      <trkpt lat="44.84013" lon="1.31507">
        <ele>115.178536</ele>
        <time>2022-03-18T11:01:41.534Z</time>
      </trkpt>
      <trkpt lat="44.83936" lon="1.31313">
        <ele>123.294941</ele>
        <time>2022-03-18T11:03:06.329Z</time>
      </trkpt>
      <trkpt lat="44.83904" lon="1.31246">
        <ele>121.965469</ele>
        <time>2022-03-18T11:03:19.804Z</time>
      </trkpt>
      <trkpt lat="44.83844" lon="1.31142">
        <ele>119.771706</ele>
        <time>2022-03-18T11:03:37.862Z</time>
      </trkpt>
      <trkpt lat="44.83803" lon="1.31092">
        <ele>117.198023</ele>
        <time>2022-03-18T11:03:47.309Z</time>
      </trkpt>
      <trkpt lat="44.83768" lon="1.31061">
        <ele>114.501269</ele>
        <time>2022-03-18T11:03:54.479Z</time>
      </trkpt>
      <trkpt lat="44.83741" lon="1.3105">
        <ele>112.704832</ele>
        <time>2022-03-18T11:03:59.259Z</time>
      </trkpt>
      <trkpt lat="44.83712" lon="1.31047">
        <ele>110.77487</ele>
        <time>2022-03-18T11:04:04.397Z</time>
      </trkpt>
      <trkpt lat="44.83641" lon="1.31058">
        <ele>106.997963</ele>
        <time>2022-03-18T11:04:16.664Z</time>
      </trkpt>
      <trkpt lat="44.83555" lon="1.3105">
        <ele>104.503855</ele>
        <time>2022-03-18T11:04:32.901Z</time>
      </trkpt>
      <trkpt lat="44.83549" lon="1.3105">
        <ele>104.308623</ele>
        <time>2022-03-18T11:04:34.226Z</time>
      </trkpt>
      <trkpt lat="44.83538" lon="1.31051">
        <ele>103.989691</ele>
        <time>2022-03-18T11:04:36.701Z</time>
      </trkpt>
      <trkpt lat="44.83485" lon="1.31056">
        <ele>102.441863</ele>
        <time>2022-03-18T11:04:50.309Z</time>
      </trkpt>
      <trkpt lat="44.83484" lon="1.31056">
        <ele>102.445943</ele>
        <time>2022-03-18T11:04:50.493Z</time>
      </trkpt>
      <trkpt lat="44.83474" lon="1.31053">
        <ele>102.729373</ele>
        <time>2022-03-18T11:04:53.331Z</time>
      </trkpt>
      <trkpt lat="44.83398" lon="1.31029">
        <ele>105.015108</ele>
        <time>2022-03-18T11:05:20.695Z</time>
      </trkpt>
      <trkpt lat="44.83348" lon="1.31029">
        <ele>106.497101</ele>
        <time>2022-03-18T11:05:44.454Z</time>
      </trkpt>
      <trkpt lat="44.83344" lon="1.31029">
        <ele>106.629438</ele>
        <time>2022-03-18T11:05:48.238Z</time>
      </trkpt>
      <trkpt lat="44.83312" lon="1.3103">
        <ele>107.567834</ele>
        <time>2022-03-18T11:06:03.657Z</time>
      </trkpt>
      <trkpt lat="44.83252" lon="1.31044">
        <ele>110.521957</ele>
        <time>2022-03-18T11:06:32.641Z</time>
      </trkpt>
      <trkpt lat="44.83248" lon="1.31045">
        <ele>110.709836</ele>
        <time>2022-03-18T11:06:35.238Z</time>
      </trkpt>
      <trkpt lat="44.83241" lon="1.3103">
        <ele>111.357131</ele>
        <time>2022-03-18T11:06:44.336Z</time>
      </trkpt>
      <trkpt lat="44.83234" lon="1.31023">
        <ele>111.779199</ele>
        <time>2022-03-18T11:06:47.485Z</time>
      </trkpt>
      <trkpt lat="44.83219" lon="1.31021">
        <ele>112.557493</ele>
        <time>2022-03-18T11:06:55.135Z</time>
      </trkpt>
      <trkpt lat="44.83216" lon="1.31019">
        <ele>112.692</ele>
        <time>2022-03-18T11:06:57.562Z</time>
      </trkpt>
      <trkpt lat="44.83216" lon="1.3102">
        <ele>112.746127</ele>
        <time>2022-03-18T11:06:58.187Z</time>
      </trkpt>
      <trkpt lat="44.83213" lon="1.31021">
        <ele>112.881033</ele>
        <time>2022-03-18T11:06:59.812Z</time>
      </trkpt>
      <trkpt lat="44.83211" lon="1.31022">
        <ele>112.967403</ele>
        <time>2022-03-18T11:07:01.377Z</time>
      </trkpt>
      <trkpt lat="44.8321" lon="1.31021">
        <ele>113.058819</ele>
        <time>2022-03-18T11:07:03.246Z</time>
      </trkpt>
      <trkpt lat="44.83204" lon="1.31016">
        <ele>113.405495</ele>
        <time>2022-03-18T11:07:06.384Z</time>
      </trkpt>
      <trkpt lat="44.83196" lon="1.3101">
        <ele>113.87224</ele>
        <time>2022-03-18T11:07:09.728Z</time>
      </trkpt>
      <trkpt lat="44.83194" lon="1.31001">
        <ele>114.222494</ele>
        <time>2022-03-18T11:07:13.134Z</time>
      </trkpt>
      <trkpt lat="44.83192" lon="1.31002">
        <ele>114.327899</ele>
        <time>2022-03-18T11:07:14.799Z</time>
      </trkpt>
      <trkpt lat="44.83185" lon="1.31004">
        <ele>114.656502</ele>
        <time>2022-03-18T11:07:19.870Z</time>
      </trkpt>
      <trkpt lat="44.83161" lon="1.31009">
        <ele>115.885874</ele>
        <time>2022-03-18T11:07:29.871Z</time>
      </trkpt>
      <trkpt lat="44.83155" lon="1.31011">
        <ele>116.208778</ele>
        <time>2022-03-18T11:07:34.018Z</time>
      </trkpt>
      <trkpt lat="44.8315" lon="1.30997">
        <ele>116.780996</ele>
        <time>2022-03-18T11:07:41.418Z</time>
      </trkpt>
      <trkpt lat="44.8314" lon="1.3097">
        <ele>117.391047</ele>
        <time>2022-03-18T11:07:48.499Z</time>
      </trkpt>
      <trkpt lat="44.8314" lon="1.30969">
        <ele>117.426357</ele>
        <time>2022-03-18T11:07:49.571Z</time>
      </trkpt>
      <trkpt lat="44.83137" lon="1.30961">
        <ele>117.604715</ele>
        <time>2022-03-18T11:07:54.256Z</time>
      </trkpt>
      <trkpt lat="44.83125" lon="1.30926">
        <ele>118.387435</ele>
        <time>2022-03-18T11:08:04.499Z</time>
      </trkpt>
      <trkpt lat="44.83123" lon="1.30919">
        <ele>118.55115</ele>
        <time>2022-03-18T11:08:07.916Z</time>
      </trkpt>
      <trkpt lat="44.83121" lon="1.30914">
        <ele>118.659667</ele>
        <time>2022-03-18T11:08:10.213Z</time>
      </trkpt>
      <trkpt lat="44.83121" lon="1.3091">
        <ele>118.744213</ele>
        <time>2022-03-18T11:08:11.644Z</time>
      </trkpt>
      <trkpt lat="44.83122" lon="1.30872">
        <ele>119.49815</ele>
        <time>2022-03-18T11:08:20.884Z</time>
      </trkpt>
      <trkpt lat="44.83121" lon="1.30866">
        <ele>119.62989</ele>
        <time>2022-03-18T11:08:23.360Z</time>
      </trkpt>
      <trkpt lat="44.83118" lon="1.3086">
        <ele>119.772989</ele>
        <time>2022-03-18T11:08:25.551Z</time>
      </trkpt>
      <trkpt lat="44.83112" lon="1.30849">
        <ele>120.069213</ele>
        <time>2022-03-18T11:08:28.448Z</time>
      </trkpt>
      <trkpt lat="44.83105" lon="1.30842">
        <ele>120.299693</ele>
        <time>2022-03-18T11:08:30.357Z</time>
      </trkpt>
      <trkpt lat="44.83091" lon="1.30828">
        <ele>120.784995</ele>
        <time>2022-03-18T11:08:37.689Z</time>
      </trkpt>
      <trkpt lat="44.83083" lon="1.3082">
        <ele>121.06318</ele>
        <time>2022-03-18T11:08:40.434Z</time>
      </trkpt>
      <trkpt lat="44.83069" lon="1.30807">
        <ele>121.559256</ele>
        <time>2022-03-18T11:08:45.624Z</time>
      </trkpt>
      <trkpt lat="44.83055" lon="1.30795">
        <ele>122.02112</ele>
        <time>2022-03-18T11:08:51.376Z</time>
      </trkpt>
      <trkpt lat="44.82991" lon="1.30732">
        <ele>124.531099</ele>
        <time>2022-03-18T11:09:21.940Z</time>
      </trkpt>
      <trkpt lat="44.82989" lon="1.30731">
        <ele>124.591744</ele>
        <time>2022-03-18T11:09:22.289Z</time>
      </trkpt>
      <trkpt lat="44.82985" lon="1.30727">
        <ele>124.748519</ele>
        <time>2022-03-18T11:09:25.046Z</time>
      </trkpt>
      <trkpt lat="44.82931" lon="1.30687">
        <ele>126.713771</ele>
        <time>2022-03-18T11:09:51.593Z</time>
      </trkpt>
      <trkpt lat="44.82924" lon="1.30681">
        <ele>126.973133</ele>
        <time>2022-03-18T11:09:54.716Z</time>
      </trkpt>
      <trkpt lat="44.82916" lon="1.30674">
        <ele>127.296068</ele>
        <time>2022-03-18T11:10:02.029Z</time>
      </trkpt>
      <trkpt lat="44.82783" lon="1.30545">
        <ele>132.618915</ele>
        <time>2022-03-18T11:11:16.598Z</time>
      </trkpt>
      <trkpt lat="44.82783" lon="1.30544">
        <ele>132.651973</ele>
        <time>2022-03-18T11:11:18.127Z</time>
      </trkpt>
      <trkpt lat="44.82776" lon="1.30535">
        <ele>132.947674</ele>
        <time>2022-03-18T11:11:20.406Z</time>
      </trkpt>
      <trkpt lat="44.82767" lon="1.30523">
        <ele>133.362065</ele>
        <time>2022-03-18T11:11:24.302Z</time>
      </trkpt>
      <trkpt lat="44.82767" lon="1.30521">
        <ele>133.402561</ele>
        <time>2022-03-18T11:11:24.507Z</time>
      </trkpt>
      <trkpt lat="44.8276" lon="1.30511">
        <ele>133.690576</ele>
        <time>2022-03-18T11:11:26.446Z</time>
      </trkpt>
      <trkpt lat="44.82729" lon="1.30468">
        <ele>132.893709</ele>
        <time>2022-03-18T11:11:39.358Z</time>
      </trkpt>
      <trkpt lat="44.82665" lon="1.30435">
        <ele>131.629339</ele>
        <time>2022-03-18T11:11:53.757Z</time>
      </trkpt>
      <trkpt lat="44.82587" lon="1.30357">
        <ele>129.505925</ele>
        <time>2022-03-18T11:12:11.790Z</time>
      </trkpt>
      <trkpt lat="44.8256" lon="1.3032">
        <ele>128.32643</ele>
        <time>2022-03-18T11:12:19.244Z</time>
      </trkpt>
      <trkpt lat="44.82518" lon="1.30241">
        <ele>126.141635</ele>
        <time>2022-03-18T11:12:33.218Z</time>
      </trkpt>
      <trkpt lat="44.82514" lon="1.30231">
        <ele>125.904564</ele>
        <time>2022-03-18T11:12:34.939Z</time>
      </trkpt>
      <trkpt lat="44.82513" lon="1.30223">
        <ele>125.726695</ele>
        <time>2022-03-18T11:12:35.934Z</time>
      </trkpt>
      <trkpt lat="44.82513" lon="1.30209">
        <ele>125.408537</ele>
        <time>2022-03-18T11:12:38.000Z</time>
      </trkpt>
      <trkpt lat="44.82513" lon="1.30124">
        <ele>123.790319</ele>
        <time>2022-03-18T11:12:50.078Z</time>
      </trkpt>
      <trkpt lat="44.82517" lon="1.30097">
        <ele>123.294902</ele>
        <time>2022-03-18T11:12:54.072Z</time>
      </trkpt>
      <trkpt lat="44.8257" lon="1.29981">
        <ele>120.856118</ele>
        <time>2022-03-18T11:13:13.737Z</time>
      </trkpt>
      <trkpt lat="44.82584" lon="1.29891">
        <ele>120.047195</ele>
        <time>2022-03-18T11:13:28.048Z</time>
      </trkpt>
      <trkpt lat="44.826" lon="1.29828">
        <ele>119.766645</ele>
        <time>2022-03-18T11:13:39.341Z</time>
      </trkpt>
      <trkpt lat="44.82602" lon="1.29819">
        <ele>119.731842</ele>
        <time>2022-03-18T11:13:40.415Z</time>
      </trkpt>
      <trkpt lat="44.82603" lon="1.29814">
        <ele>119.709631</ele>
        <time>2022-03-18T11:13:42.863Z</time>
      </trkpt>
      <trkpt lat="44.82602" lon="1.29794">
        <ele>119.625673</ele>
        <time>2022-03-18T11:13:46.591Z</time>
      </trkpt>
      <trkpt lat="44.82584" lon="1.29722">
        <ele>119.3056</ele>
        <time>2022-03-18T11:14:01.002Z</time>
      </trkpt>
      <trkpt lat="44.8263" lon="1.29615">
        <ele>119.349153</ele>
        <time>2022-03-18T11:14:28.502Z</time>
      </trkpt>
      <trkpt lat="44.82634" lon="1.29585">
        <ele>119.37788</ele>
        <time>2022-03-18T11:14:34.773Z</time>
      </trkpt>
      <trkpt lat="44.82617" lon="1.29564">
        <ele>119.408824</ele>
        <time>2022-03-18T11:14:41.316Z</time>
      </trkpt>
      <trkpt lat="44.82579" lon="1.29538">
        <ele>119.465188</ele>
        <time>2022-03-18T11:14:52.414Z</time>
      </trkpt>
      <trkpt lat="44.8257" lon="1.29487">
        <ele>118.864902</ele>
        <time>2022-03-18T11:15:01.430Z</time>
      </trkpt>
      <trkpt lat="44.82556" lon="1.29452">
        <ele>118.035397</ele>
        <time>2022-03-18T11:15:07.074Z</time>
      </trkpt>
      <trkpt lat="44.82524" lon="1.29415">
        <ele>116.83161</ele>
        <time>2022-03-18T11:15:15.294Z</time>
      </trkpt>
      <trkpt lat="44.82484" lon="1.29354">
        <ele>115.092598</ele>
        <time>2022-03-18T11:15:26.515Z</time>
      </trkpt>
      <trkpt lat="44.82482" lon="1.2935">
        <ele>115.014862</ele>
        <time>2022-03-18T11:15:27.023Z</time>
      </trkpt>
      <trkpt lat="44.82469" lon="1.29323">
        <ele>114.326927</ele>
        <time>2022-03-18T11:15:31.851Z</time>
      </trkpt>
      <trkpt lat="44.82467" lon="1.29317">
        <ele>114.148914</ele>
        <time>2022-03-18T11:15:32.637Z</time>
      </trkpt>
      <trkpt lat="44.82467" lon="1.29316">
        <ele>114.11246</ele>
        <time>2022-03-18T11:15:32.743Z</time>
      </trkpt>
      <trkpt lat="44.82461" lon="1.29256">
        <ele>111.787953</ele>
        <time>2022-03-18T11:15:40.796Z</time>
      </trkpt>
      <trkpt lat="44.82453" lon="1.2922">
        <ele>110.308848</ele>
        <time>2022-03-18T11:15:46.047Z</time>
      </trkpt>
      <trkpt lat="44.824" lon="1.29091">
        <ele>104.585732</ele>
        <time>2022-03-18T11:16:04.214Z</time>
      </trkpt>
      <trkpt lat="44.82373" lon="1.29049">
        <ele>102.282488</ele>
        <time>2022-03-18T11:16:11.323Z</time>
      </trkpt>
      <trkpt lat="44.82368" lon="1.29045">
        <ele>101.982484</ele>
        <time>2022-03-18T11:16:12.218Z</time>
      </trkpt>
      <trkpt lat="44.82367" lon="1.29044">
        <ele>101.905774</ele>
        <time>2022-03-18T11:16:12.443Z</time>
      </trkpt>
      <trkpt lat="44.82356" lon="1.29036">
        <ele>101.21369</ele>
        <time>2022-03-18T11:16:14.889Z</time>
      </trkpt>
      <trkpt lat="44.82351" lon="1.29033">
        <ele>100.887303</ele>
        <time>2022-03-18T11:16:15.928Z</time>
      </trkpt>
      <trkpt lat="44.82345" lon="1.29031">
        <ele>100.538011</ele>
        <time>2022-03-18T11:16:16.905Z</time>
      </trkpt>
      <trkpt lat="44.82281" lon="1.29019">
        <ele>96.84042</ele>
        <time>2022-03-18T11:16:28.603Z</time>
      </trkpt>
      <trkpt lat="44.82274" lon="1.29019">
        <ele>96.469897</ele>
        <time>2022-03-18T11:16:29.649Z</time>
      </trkpt>
      <trkpt lat="44.82271" lon="1.29019">
        <ele>96.264964</ele>
        <time>2022-03-18T11:16:30.247Z</time>
      </trkpt>
      <trkpt lat="44.82229" lon="1.29027">
        <ele>94.069528</ele>
        <time>2022-03-18T11:16:37.787Z</time>
      </trkpt>
      <trkpt lat="44.82217" lon="1.29033">
        <ele>93.784344</ele>
        <time>2022-03-18T11:16:40.210Z</time>
      </trkpt>
      <trkpt lat="44.8217" lon="1.29056">
        <ele>92.649068</ele>
        <time>2022-03-18T11:16:49.999Z</time>
      </trkpt>
      <trkpt lat="44.82086" lon="1.29117">
        <ele>90.471415</ele>
        <time>2022-03-18T11:17:11.408Z</time>
      </trkpt>
      <trkpt lat="44.82081" lon="1.29115">
        <ele>90.343106</ele>
        <time>2022-03-18T11:17:12.669Z</time>
      </trkpt>
      <trkpt lat="44.82072" lon="1.29131">
        <ele>90.035405</ele>
        <time>2022-03-18T11:17:17.760Z</time>
      </trkpt>
      <trkpt lat="44.82005" lon="1.29176">
        <ele>88.964897</ele>
        <time>2022-03-18T11:17:34.602Z</time>
      </trkpt>
      <trkpt lat="44.82004" lon="1.29177">
        <ele>88.947046</ele>
        <time>2022-03-18T11:17:35.871Z</time>
      </trkpt>
      <trkpt lat="44.82002" lon="1.29177">
        <ele>88.923791</ele>
        <time>2022-03-18T11:17:36.127Z</time>
      </trkpt>
      <trkpt lat="44.81987" lon="1.29176">
        <ele>88.707992</ele>
        <time>2022-03-18T11:17:39.146Z</time>
      </trkpt>
      <trkpt lat="44.81969" lon="1.29184">
        <ele>88.43405</ele>
        <time>2022-03-18T11:17:45.931Z</time>
      </trkpt>
      <trkpt lat="44.81941" lon="1.29195">
        <ele>88.017145</ele>
        <time>2022-03-18T11:17:52.156Z</time>
      </trkpt>
      <trkpt lat="44.81932" lon="1.29189">
        <ele>87.876871</ele>
        <time>2022-03-18T11:17:54.396Z</time>
      </trkpt>
      <trkpt lat="44.81928" lon="1.29185">
        <ele>87.801241</ele>
        <time>2022-03-18T11:17:55.335Z</time>
      </trkpt>
      <trkpt lat="44.81929" lon="1.29184">
        <ele>87.794516</ele>
        <time>2022-03-18T11:17:55.415Z</time>
      </trkpt>
      <trkpt lat="44.81937" lon="1.29174">
        <ele>87.631148</ele>
        <time>2022-03-18T11:17:58.690Z</time>
      </trkpt>
      <trkpt lat="44.81939" lon="1.29172">
        <ele>87.604524</ele>
        <time>2022-03-18T11:17:59.164Z</time>
      </trkpt>
      <trkpt lat="44.81919" lon="1.29163">
        <ele>87.501601</ele>
        <time>2022-03-18T11:18:03.816Z</time>
      </trkpt>
      <trkpt lat="44.81893" lon="1.29157">
        <ele>87.552297</ele>
        <time>2022-03-18T11:18:11.095Z</time>
      </trkpt>
      <trkpt lat="44.81873" lon="1.29163">
        <ele>87.593516</ele>
        <time>2022-03-18T11:18:15.449Z</time>
      </trkpt>
      <trkpt lat="44.81815" lon="1.29207">
        <ele>87.723533</ele>
        <time>2022-03-18T11:18:34.559Z</time>
      </trkpt>
      <trkpt lat="44.81811" lon="1.29207">
        <ele>87.732252</ele>
        <time>2022-03-18T11:18:36.266Z</time>
      </trkpt>
      <trkpt lat="44.81806" lon="1.29183">
        <ele>87.767109</ele>
        <time>2022-03-18T11:18:42.706Z</time>
      </trkpt>
      <trkpt lat="44.81796" lon="1.29142">
        <ele>87.827932</ele>
        <time>2022-03-18T11:18:53.934Z</time>
      </trkpt>
      <trkpt lat="44.81779" lon="1.2911">
        <ele>88.405518</ele>
        <time>2022-03-18T11:19:04.401Z</time>
      </trkpt>
      <trkpt lat="44.81759" lon="1.29077">
        <ele>89.107263</ele>
        <time>2022-03-18T11:19:16.598Z</time>
      </trkpt>
      <trkpt lat="44.81767" lon="1.29066">
        <ele>89.357549</ele>
        <time>2022-03-18T11:19:20.805Z</time>
      </trkpt>
      <trkpt lat="44.81803" lon="1.29057">
        <ele>90.164618</ele>
        <time>2022-03-18T11:19:35.216Z</time>
      </trkpt>
      <trkpt lat="44.81814" lon="1.29049">
        <ele>90.447162</ele>
        <time>2022-03-18T11:19:40.580Z</time>
      </trkpt>
      <trkpt lat="44.81825" lon="1.29041">
        <ele>90.732419</ele>
        <time>2022-03-18T11:19:45.637Z</time>
      </trkpt>
      <trkpt lat="44.81878" lon="1.28946">
        <ele>92.810694</ele>
        <time>2022-03-18T11:20:18.113Z</time>
      </trkpt>
      <trkpt lat="44.81971" lon="1.28856">
        <ele>95.878986</ele>
        <time>2022-03-18T11:21:02.605Z</time>
      </trkpt>
      <trkpt lat="44.82027" lon="1.28764">
        <ele>97.946137</ele>
        <time>2022-03-18T11:21:43.772Z</time>
      </trkpt>
      <trkpt lat="44.82045" lon="1.28695">
        <ele>99.081543</ele>
        <time>2022-03-18T11:22:05.354Z</time>
      </trkpt>
      <trkpt lat="44.8206" lon="1.28622">
        <ele>100.254963</ele>
        <time>2022-03-18T11:22:22.759Z</time>
      </trkpt>
      <trkpt lat="44.82058" lon="1.28604">
        <ele>100.545033</ele>
        <time>2022-03-18T11:22:27.396Z</time>
      </trkpt>
      <trkpt lat="44.82059" lon="1.28587">
        <ele>100.545325</ele>
        <time>2022-03-18T11:22:30.707Z</time>
      </trkpt>
      <trkpt lat="44.82063" lon="1.28566">
        <ele>100.11637</ele>
        <time>2022-03-18T11:22:35.724Z</time>
      </trkpt>
      <trkpt lat="44.82072" lon="1.2855">
        <ele>99.728782</ele>
        <time>2022-03-18T11:22:39.400Z</time>
      </trkpt>
      <trkpt lat="44.82077" lon="1.28541">
        <ele>99.507918</ele>
        <time>2022-03-18T11:22:41.317Z</time>
      </trkpt>
      <trkpt lat="44.82094" lon="1.2852">
        <ele>98.878235</ele>
        <time>2022-03-18T11:22:47.336Z</time>
      </trkpt>
      <trkpt lat="44.82125" lon="1.28489">
        <ele>97.856988</ele>
        <time>2022-03-18T11:22:56.014Z</time>
      </trkpt>
      <trkpt lat="44.82133" lon="1.28481">
        <ele>97.574801</ele>
        <time>2022-03-18T11:22:58.221Z</time>
      </trkpt>
      <trkpt lat="44.82164" lon="1.28454">
        <ele>96.58128</ele>
        <time>2022-03-18T11:23:05.902Z</time>
      </trkpt>
      <trkpt lat="44.82205" lon="1.28417">
        <ele>94.685464</ele>
        <time>2022-03-18T11:23:15.610Z</time>
      </trkpt>
      <trkpt lat="44.82269" lon="1.28385">
        <ele>90.873303</ele>
        <time>2022-03-18T11:23:29.205Z</time>
      </trkpt>
      <trkpt lat="44.82309" lon="1.28365">
        <ele>88.502166</ele>
        <time>2022-03-18T11:23:37.647Z</time>
      </trkpt>
      <trkpt lat="44.82328" lon="1.28355">
        <ele>87.387861</ele>
        <time>2022-03-18T11:23:41.572Z</time>
      </trkpt>
      <trkpt lat="44.82335" lon="1.28353">
        <ele>86.948986</ele>
        <time>2022-03-18T11:23:42.937Z</time>
      </trkpt>
      <trkpt lat="44.82343" lon="1.2835">
        <ele>86.514596</ele>
        <time>2022-03-18T11:23:44.316Z</time>
      </trkpt>
      <trkpt lat="44.82392" lon="1.28335">
        <ele>84.592934</ele>
        <time>2022-03-18T11:23:53.487Z</time>
      </trkpt>
      <trkpt lat="44.82421" lon="1.28326">
        <ele>83.685587</ele>
        <time>2022-03-18T11:23:59.034Z</time>
      </trkpt>
      <trkpt lat="44.8248" lon="1.28306">
        <ele>81.844899</ele>
        <time>2022-03-18T11:24:10.897Z</time>
      </trkpt>
      <trkpt lat="44.82483" lon="1.28305">
        <ele>81.748045</ele>
        <time>2022-03-18T11:24:11.581Z</time>
      </trkpt>
      <trkpt lat="44.82512" lon="1.28296">
        <ele>80.858065</ele>
        <time>2022-03-18T11:24:17.932Z</time>
      </trkpt>
      <trkpt lat="44.82531" lon="1.28288">
        <ele>80.238932</ele>
        <time>2022-03-18T11:24:22.627Z</time>
      </trkpt>
      <trkpt lat="44.82563" lon="1.28274">
        <ele>80.675481</ele>
        <time>2022-03-18T11:24:30.812Z</time>
      </trkpt>
      <trkpt lat="44.82649" lon="1.28217">
        <ele>82.114668</ele>
        <time>2022-03-18T11:25:02.478Z</time>
      </trkpt>
      <trkpt lat="44.82712" lon="1.28139">
        <ele>84.371932</ele>
        <time>2022-03-18T11:25:38.974Z</time>
      </trkpt>
      <trkpt lat="44.82739" lon="1.28096">
        <ele>86.266862</ele>
        <time>2022-03-18T11:25:57.992Z</time>
      </trkpt>
      <trkpt lat="44.82742" lon="1.28088">
        <ele>86.587991</ele>
        <time>2022-03-18T11:26:01.705Z</time>
      </trkpt>
      <trkpt lat="44.82763" lon="1.28047">
        <ele>88.269912</ele>
        <time>2022-03-18T11:26:19.351Z</time>
      </trkpt>
      <trkpt lat="44.82776" lon="1.28019">
        <ele>89.364194</ele>
        <time>2022-03-18T11:26:31.973Z</time>
      </trkpt>
      <trkpt lat="44.82808" lon="1.27953">
        <ele>91.920086</ele>
        <time>2022-03-18T11:27:02.934Z</time>
      </trkpt>
      <trkpt lat="44.82844" lon="1.27872">
        <ele>94.535001</ele>
        <time>2022-03-18T11:27:37.807Z</time>
      </trkpt>
      <trkpt lat="44.82861" lon="1.27837">
        <ele>95.688708</ele>
        <time>2022-03-18T11:27:52.323Z</time>
      </trkpt>
      <trkpt lat="44.82876" lon="1.27805">
        <ele>96.717644</ele>
        <time>2022-03-18T11:28:03.607Z</time>
      </trkpt>
      <trkpt lat="44.82879" lon="1.27798">
        <ele>96.959767</ele>
        <time>2022-03-18T11:28:06.212Z</time>
      </trkpt>
      <trkpt lat="44.82987" lon="1.27563">
        <ele>99.740998</ele>
        <time>2022-03-18T11:29:09.039Z</time>
      </trkpt>
      <trkpt lat="44.83044" lon="1.27448">
        <ele>99.594769</ele>
        <time>2022-03-18T11:29:33.576Z</time>
      </trkpt>
      <trkpt lat="44.83077" lon="1.27403">
        <ele>99.437242</ele>
        <time>2022-03-18T11:29:44.745Z</time>
      </trkpt>
      <trkpt lat="44.83123" lon="1.27363">
        <ele>99.28898</ele>
        <time>2022-03-18T11:29:57.822Z</time>
      </trkpt>
      <trkpt lat="44.83168" lon="1.27337">
        <ele>99.63254</ele>
        <time>2022-03-18T11:30:10.743Z</time>
      </trkpt>
      <trkpt lat="44.83214" lon="1.27324">
        <ele>99.970167</ele>
        <time>2022-03-18T11:30:24.900Z</time>
      </trkpt>
      <trkpt lat="44.83269" lon="1.27322">
        <ele>100.357239</ele>
        <time>2022-03-18T11:30:41.745Z</time>
      </trkpt>
      <trkpt lat="44.83276" lon="1.27323">
        <ele>100.40551</ele>
        <time>2022-03-18T11:30:43.949Z</time>
      </trkpt>
      <trkpt lat="44.83287" lon="1.27325">
        <ele>100.48684</ele>
        <time>2022-03-18T11:30:48.061Z</time>
      </trkpt>
      <trkpt lat="44.83464" lon="1.27393">
        <ele>104.009611</ele>
        <time>2022-03-18T11:31:56.504Z</time>
      </trkpt>
      <trkpt lat="44.83654" lon="1.27474">
        <ele>105.913235</ele>
        <time>2022-03-18T11:33:02.222Z</time>
      </trkpt>
      <trkpt lat="44.8373" lon="1.27504">
        <ele>104.332432</ele>
        <time>2022-03-18T11:33:19.058Z</time>
      </trkpt>
      <trkpt lat="44.83916" lon="1.27579">
        <ele>100.271796</ele>
        <time>2022-03-18T11:33:56.677Z</time>
      </trkpt>
      <trkpt lat="44.83936" lon="1.27587">
        <ele>99.815413</ele>
        <time>2022-03-18T11:34:00.982Z</time>
      </trkpt>
      <trkpt lat="44.83948" lon="1.2759">
        <ele>99.547568</ele>
        <time>2022-03-18T11:34:04.651Z</time>
      </trkpt>
      <trkpt lat="44.83971" lon="1.27597">
        <ele>99.053151</ele>
        <time>2022-03-18T11:34:09.658Z</time>
      </trkpt>
      <trkpt lat="44.83981" lon="1.27599">
        <ele>98.833683</ele>
        <time>2022-03-18T11:34:12.768Z</time>
      </trkpt>
      <trkpt lat="44.84014" lon="1.27601">
        <ele>99.200243</ele>
        <time>2022-03-18T11:34:22.017Z</time>
      </trkpt>
      <trkpt lat="44.84024" lon="1.27601">
        <ele>99.396894</ele>
        <time>2022-03-18T11:34:25.898Z</time>
      </trkpt>
      <trkpt lat="44.84086" lon="1.27593">
        <ele>100.569391</ele>
        <time>2022-03-18T11:34:46.928Z</time>
      </trkpt>
      <trkpt lat="44.84096" lon="1.27591">
        <ele>100.759176</ele>
        <time>2022-03-18T11:34:51.475Z</time>
      </trkpt>
      <trkpt lat="44.84102" lon="1.27589">
        <ele>100.881976</ele>
        <time>2022-03-18T11:34:53.895Z</time>
      </trkpt>
      <trkpt lat="44.84129" lon="1.27578">
        <ele>101.415845</ele>
        <time>2022-03-18T11:35:06.722Z</time>
      </trkpt>
      <trkpt lat="44.84141" lon="1.27573">
        <ele>101.650823</ele>
        <time>2022-03-18T11:35:11.356Z</time>
      </trkpt>
      <trkpt lat="44.84155" lon="1.27569">
        <ele>101.914745</ele>
        <time>2022-03-18T11:35:17.405Z</time>
      </trkpt>
      <trkpt lat="44.84188" lon="1.27554">
        <ele>102.674402</ele>
        <time>2022-03-18T11:35:31.362Z</time>
      </trkpt>
      <trkpt lat="44.84244" lon="1.27539">
        <ele>104.005295</ele>
        <time>2022-03-18T11:35:53.965Z</time>
      </trkpt>
      <trkpt lat="44.84261" lon="1.27535">
        <ele>104.407592</ele>
        <time>2022-03-18T11:36:01.431Z</time>
      </trkpt>
      <trkpt lat="44.84446" lon="1.27539">
        <ele>106.352161</ele>
        <time>2022-03-18T11:37:04.555Z</time>
      </trkpt>
      <trkpt lat="44.84512" lon="1.27527">
        <ele>106.417547</ele>
        <time>2022-03-18T11:37:19.636Z</time>
      </trkpt>
      <trkpt lat="44.84578" lon="1.27502">
        <ele>104.356639</ele>
        <time>2022-03-18T11:37:33.055Z</time>
      </trkpt>
      <trkpt lat="44.84615" lon="1.2748">
        <ele>102.95759</ele>
        <time>2022-03-18T11:37:40.792Z</time>
      </trkpt>
      <trkpt lat="44.84651" lon="1.27453">
        <ele>101.554319</ele>
        <time>2022-03-18T11:37:48.513Z</time>
      </trkpt>
      <trkpt lat="44.84698" lon="1.27416">
        <ele>99.66904</ele>
        <time>2022-03-18T11:37:58.531Z</time>
      </trkpt>
      <trkpt lat="44.84778" lon="1.27355">
        <ele>96.386387</ele>
        <time>2022-03-18T11:38:15.177Z</time>
      </trkpt>
      <trkpt lat="44.84792" lon="1.27349">
        <ele>95.877842</ele>
        <time>2022-03-18T11:38:17.823Z</time>
      </trkpt>
      <trkpt lat="44.84812" lon="1.27341">
        <ele>95.116056</ele>
        <time>2022-03-18T11:38:22.165Z</time>
      </trkpt>
      <trkpt lat="44.84822" lon="1.27337">
        <ele>94.734296</ele>
        <time>2022-03-18T11:38:24.223Z</time>
      </trkpt>
      <trkpt lat="44.84875" lon="1.27312">
        <ele>93.973248</ele>
        <time>2022-03-18T11:38:36.285Z</time>
      </trkpt>
      <trkpt lat="44.84897" lon="1.27303">
        <ele>94.183176</ele>
        <time>2022-03-18T11:38:41.186Z</time>
      </trkpt>
      <trkpt lat="44.85095" lon="1.27214">
        <ele>98.707801</ele>
        <time>2022-03-18T11:39:58.637Z</time>
      </trkpt>
      <trkpt lat="44.85145" lon="1.2718">
        <ele>101.069222</ele>
        <time>2022-03-18T11:40:27.949Z</time>
      </trkpt>
      <trkpt lat="44.85193" lon="1.27135">
        <ele>103.633503</ele>
        <time>2022-03-18T11:40:59.447Z</time>
      </trkpt>
      <trkpt lat="44.85242" lon="1.27066">
        <ele>107.435616</ele>
        <time>2022-03-18T11:41:41.066Z</time>
      </trkpt>
      <trkpt lat="44.85281" lon="1.26985">
        <ele>111.219483</ele>
        <time>2022-03-18T11:42:17.561Z</time>
      </trkpt>
      <trkpt lat="44.85298" lon="1.26888">
        <ele>113.812121</ele>
        <time>2022-03-18T11:42:48.384Z</time>
      </trkpt>
      <trkpt lat="44.85306" lon="1.26841">
        <ele>114.609537</ele>
        <time>2022-03-18T11:43:01.562Z</time>
      </trkpt>
      <trkpt lat="44.8531" lon="1.26756">
        <ele>116.03606</ele>
        <time>2022-03-18T11:43:23.613Z</time>
      </trkpt>
      <trkpt lat="44.8531" lon="1.26742">
        <ele>116.2682</ele>
        <time>2022-03-18T11:43:27.068Z</time>
      </trkpt>
      <trkpt lat="44.8531" lon="1.26669">
        <ele>117.342858</ele>
        <time>2022-03-18T11:43:42.909Z</time>
      </trkpt>
      <trkpt lat="44.85288" lon="1.26455">
        <ele>119.709851</ele>
        <time>2022-03-18T11:44:35.552Z</time>
      </trkpt>
      <trkpt lat="44.85285" lon="1.26366">
        <ele>120.324754</ele>
        <time>2022-03-18T11:44:58.519Z</time>
      </trkpt>
      <trkpt lat="44.85295" lon="1.26279">
        <ele>120.874683</ele>
        <time>2022-03-18T11:45:18.811Z</time>
      </trkpt>
      <trkpt lat="44.85319" lon="1.26178">
        <ele>121.212538</ele>
        <time>2022-03-18T11:45:39.020Z</time>
      </trkpt>
      <trkpt lat="44.85347" lon="1.26088">
        <ele>119.945485</ele>
        <time>2022-03-18T11:45:54.626Z</time>
      </trkpt>
      <trkpt lat="44.85381" lon="1.26009">
        <ele>118.756305</ele>
        <time>2022-03-18T11:46:08.185Z</time>
      </trkpt>
      <trkpt lat="44.85488" lon="1.25845">
        <ele>115.482239</ele>
        <time>2022-03-18T11:46:39.209Z</time>
      </trkpt>
      <trkpt lat="44.85542" lon="1.25766">
        <ele>114.707001</ele>
        <time>2022-03-18T11:46:57.368Z</time>
      </trkpt>
      <trkpt lat="44.85549" lon="1.25756">
        <ele>114.887632</ele>
        <time>2022-03-18T11:47:00.088Z</time>
      </trkpt>
      <trkpt lat="44.85561" lon="1.25739">
        <ele>115.173745</ele>
        <time>2022-03-18T11:47:05.469Z</time>
      </trkpt>
      <trkpt lat="44.85767" lon="1.25426">
        <ele>121.905224</ele>
        <time>2022-03-18T11:49:05.669Z</time>
      </trkpt>
      <trkpt lat="44.85794" lon="1.25387">
        <ele>122.525937</ele>
        <time>2022-03-18T11:49:19.867Z</time>
      </trkpt>
      <trkpt lat="44.858" lon="1.25378">
        <ele>122.646617</ele>
        <time>2022-03-18T11:49:23.237Z</time>
      </trkpt>
      <trkpt lat="44.85852" lon="1.253">
        <ele>123.709694</ele>
        <time>2022-03-18T11:49:48.733Z</time>
      </trkpt>
      <trkpt lat="44.85889" lon="1.25249">
        <ele>124.423471</ele>
        <time>2022-03-18T11:50:04.160Z</time>
      </trkpt>
      <trkpt lat="44.85959" lon="1.25177">
        <ele>125.224702</ele>
        <time>2022-03-18T11:50:29.275Z</time>
      </trkpt>
      <trkpt lat="44.86012" lon="1.25144">
        <ele>125.711877</ele>
        <time>2022-03-18T11:50:47.294Z</time>
      </trkpt>
      <trkpt lat="44.86031" lon="1.25133">
        <ele>125.883344</ele>
        <time>2022-03-18T11:50:53.587Z</time>
      </trkpt>
      <trkpt lat="44.86184" lon="1.25059">
        <ele>127.602403</ele>
        <time>2022-03-18T11:51:47.387Z</time>
      </trkpt>
      <trkpt lat="44.86189" lon="1.25057">
        <ele>127.664305</ele>
        <time>2022-03-18T11:51:49.429Z</time>
      </trkpt>
      <trkpt lat="44.86344" lon="1.24979">
        <ele>128.913033</ele>
        <time>2022-03-18T11:52:36.786Z</time>
      </trkpt>
      <trkpt lat="44.86418" lon="1.24941">
        <ele>129.737127</ele>
        <time>2022-03-18T11:53:00.943Z</time>
      </trkpt>
      <trkpt lat="44.86464" lon="1.24912">
        <ele>130.711413</ele>
        <time>2022-03-18T11:53:17.861Z</time>
      </trkpt>
      <trkpt lat="44.86477" lon="1.24903">
        <ele>131.001728</ele>
        <time>2022-03-18T11:53:23.524Z</time>
      </trkpt>
      <trkpt lat="44.86483" lon="1.24898">
        <ele>131.135711</ele>
        <time>2022-03-18T11:53:25.701Z</time>
      </trkpt>
      <trkpt lat="44.86494" lon="1.24888">
        <ele>131.387647</ele>
        <time>2022-03-18T11:53:30.234Z</time>
      </trkpt>
      <trkpt lat="44.86501" lon="1.24882">
        <ele>131.538649</ele>
        <time>2022-03-18T11:53:33.768Z</time>
      </trkpt>
      <trkpt lat="44.86534" lon="1.24852">
        <ele>132.302224</ele>
        <time>2022-03-18T11:53:48.791Z</time>
      </trkpt>
      <trkpt lat="44.86625" lon="1.24743">
        <ele>134.918807</ele>
        <time>2022-03-18T11:54:37.145Z</time>
      </trkpt>
      <trkpt lat="44.87025" lon="1.24183">
        <ele>144.47536</ele>
        <time>2022-03-18T11:57:50.440Z</time>
      </trkpt>
      <trkpt lat="44.87047" lon="1.24146">
        <ele>145.035866</ele>
        <time>2022-03-18T11:58:02.257Z</time>
      </trkpt>
      <trkpt lat="44.87055" lon="1.2413">
        <ele>145.257954</ele>
        <time>2022-03-18T11:58:07.108Z</time>
      </trkpt>
      <trkpt lat="44.87063" lon="1.24113">
        <ele>145.511802</ele>
        <time>2022-03-18T11:58:12.134Z</time>
      </trkpt>
      <trkpt lat="44.87072" lon="1.24092">
        <ele>145.866649</ele>
        <time>2022-03-18T11:58:18.617Z</time>
      </trkpt>
      <trkpt lat="44.87351" lon="1.2344">
        <ele>156.060171</ele>
        <time>2022-03-18T12:01:34.461Z</time>
      </trkpt>
      <trkpt lat="44.87385" lon="1.23356">
        <ele>156.324155</ele>
        <time>2022-03-18T12:01:54.231Z</time>
      </trkpt>
      <trkpt lat="44.87414" lon="1.23287">
        <ele>156.541511</ele>
        <time>2022-03-18T12:02:08.999Z</time>
      </trkpt>
      <trkpt lat="44.87448" lon="1.23183">
        <ele>156.642982</ele>
        <time>2022-03-18T12:02:29.625Z</time>
      </trkpt>
      <trkpt lat="44.8745" lon="1.23175">
        <ele>156.638788</ele>
        <time>2022-03-18T12:02:31.144Z</time>
      </trkpt>
      <trkpt lat="44.87453" lon="1.23161">
        <ele>156.632131</ele>
        <time>2022-03-18T12:02:33.508Z</time>
      </trkpt>
      <trkpt lat="44.87473" lon="1.23169">
        <ele>156.618804</ele>
        <time>2022-03-18T12:02:40.362Z</time>
      </trkpt>
      <trkpt lat="44.87477" lon="1.23148">
        <ele>156.608511</ele>
        <time>2022-03-18T12:02:44.086Z</time>
      </trkpt>
      <trkpt lat="44.87479" lon="1.23114">
        <ele>156.593165</ele>
        <time>2022-03-18T12:02:50.621Z</time>
      </trkpt>
      <trkpt lat="44.87481" lon="1.23084">
        <ele>156.579174</ele>
        <time>2022-03-18T12:02:56.546Z</time>
      </trkpt>
      <trkpt lat="44.87484" lon="1.23077">
        <ele>156.575608</ele>
        <time>2022-03-18T12:02:58.245Z</time>
      </trkpt>
      <trkpt lat="44.87486" lon="1.2307">
        <ele>156.571819</ele>
        <time>2022-03-18T12:02:59.813Z</time>
      </trkpt>
      <trkpt lat="44.87489" lon="1.23061">
        <ele>156.567465</ele>
        <time>2022-03-18T12:03:01.558Z</time>
      </trkpt>
      <trkpt lat="44.87492" lon="1.23059">
        <ele>156.565313</ele>
        <time>2022-03-18T12:03:02.457Z</time>
      </trkpt>
      <trkpt lat="44.87495" lon="1.23054">
        <ele>156.562376</ele>
        <time>2022-03-18T12:03:03.653Z</time>
      </trkpt>
      <trkpt lat="44.87497" lon="1.23049">
        <ele>156.559471</ele>
        <time>2022-03-18T12:03:05.058Z</time>
      </trkpt>
      <trkpt lat="44.87498" lon="1.23042">
        <ele>156.568115</ele>
        <time>2022-03-18T12:03:06.614Z</time>
      </trkpt>
      <trkpt lat="44.87498" lon="1.23039">
        <ele>156.608025</ele>
        <time>2022-03-18T12:03:07.522Z</time>
      </trkpt>
      <trkpt lat="44.87497" lon="1.23035">
        <ele>156.648936</ele>
        <time>2022-03-18T12:03:08.405Z</time>
      </trkpt>
      <trkpt lat="44.87495" lon="1.23029">
        <ele>156.726763</ele>
        <time>2022-03-18T12:03:09.955Z</time>
      </trkpt>
      <trkpt lat="44.87491" lon="1.23024">
        <ele>156.805474</ele>
        <time>2022-03-18T12:03:11.349Z</time>
      </trkpt>
      <trkpt lat="44.87486" lon="1.23021">
        <ele>156.882257</ele>
        <time>2022-03-18T12:03:12.809Z</time>
      </trkpt>
      <trkpt lat="44.87482" lon="1.23021">
        <ele>156.953777</ele>
        <time>2022-03-18T12:03:14.139Z</time>
      </trkpt>
      <trkpt lat="44.87477" lon="1.23023">
        <ele>157.023456</ele>
        <time>2022-03-18T12:03:15.574Z</time>
      </trkpt>
      <trkpt lat="44.87472" lon="1.23029">
        <ele>157.123607</ele>
        <time>2022-03-18T12:03:17.954Z</time>
      </trkpt>
      <trkpt lat="44.87469" lon="1.23037">
        <ele>157.222386</ele>
        <time>2022-03-18T12:03:20.243Z</time>
      </trkpt>
      <trkpt lat="44.87469" lon="1.23041">
        <ele>157.27127</ele>
        <time>2022-03-18T12:03:21.270Z</time>
      </trkpt>
      <trkpt lat="44.87464" lon="1.23045">
        <ele>157.358691</ele>
        <time>2022-03-18T12:03:23.133Z</time>
      </trkpt>
      <trkpt lat="44.87453" lon="1.23054">
        <ele>157.546567</ele>
        <time>2022-03-18T12:03:27.171Z</time>
      </trkpt>
      <trkpt lat="44.87452" lon="1.23054">
        <ele>157.567062</ele>
        <time>2022-03-18T12:03:27.617Z</time>
      </trkpt>
      <trkpt lat="44.87442" lon="1.23058">
        <ele>157.72458</ele>
        <time>2022-03-18T12:03:31.440Z</time>
      </trkpt>
      <trkpt lat="44.87405" lon="1.23056">
        <ele>158.280046</ele>
        <time>2022-03-18T12:03:44.138Z</time>
      </trkpt>
      <trkpt lat="44.87369" lon="1.23048">
        <ele>158.837029</ele>
        <time>2022-03-18T12:03:57.642Z</time>
      </trkpt>
      <trkpt lat="44.87268" lon="1.23015">
        <ele>160.529945</ele>
        <time>2022-03-18T12:04:34.832Z</time>
      </trkpt>
      <trkpt lat="44.87264" lon="1.23012">
        <ele>160.603386</ele>
        <time>2022-03-18T12:04:36.213Z</time>
      </trkpt>
      <trkpt lat="44.87261" lon="1.23009">
        <ele>160.675207</ele>
        <time>2022-03-18T12:04:38.458Z</time>
      </trkpt>
      <trkpt lat="44.87262" lon="1.23006">
        <ele>160.712532</ele>
        <time>2022-03-18T12:04:39.328Z</time>
      </trkpt>
      <trkpt lat="44.87261" lon="1.23002">
        <ele>160.764608</ele>
        <time>2022-03-18T12:04:40.342Z</time>
      </trkpt>
      <trkpt lat="44.8726" lon="1.23">
        <ele>160.793068</ele>
        <time>2022-03-18T12:04:41.036Z</time>
      </trkpt>
      <trkpt lat="44.87258" lon="1.22998">
        <ele>160.825738</ele>
        <time>2022-03-18T12:04:41.607Z</time>
      </trkpt>
      <trkpt lat="44.87251" lon="1.23004">
        <ele>160.960898</ele>
        <time>2022-03-18T12:04:44.187Z</time>
      </trkpt>
      <trkpt lat="44.87251" lon="1.23006">
        <ele>160.987457</ele>
        <time>2022-03-18T12:04:44.621Z</time>
      </trkpt>
      <trkpt lat="44.87252" lon="1.2301">
        <ele>161.033776</ele>
        <time>2022-03-18T12:04:45.364Z</time>
      </trkpt>
      <trkpt lat="44.87237" lon="1.23014">
        <ele>161.287929</ele>
        <time>2022-03-18T12:04:51.099Z</time>
      </trkpt>
      <trkpt lat="44.87133" lon="1.23099">
        <ele>162.791099</ele>
        <time>2022-03-18T12:05:30.103Z</time>
      </trkpt>
      <trkpt lat="44.87124" lon="1.23105">
        <ele>162.864387</ele>
        <time>2022-03-18T12:05:32.602Z</time>
      </trkpt>
      <trkpt lat="44.87106" lon="1.23117">
        <ele>163.023189</ele>
        <time>2022-03-18T12:05:38.621Z</time>
      </trkpt>
      <trkpt lat="44.87066" lon="1.23141">
        <ele>163.361611</ele>
        <time>2022-03-18T12:05:51.288Z</time>
      </trkpt>
      <trkpt lat="44.87053" lon="1.23146">
        <ele>163.462794</ele>
        <time>2022-03-18T12:05:55.376Z</time>
      </trkpt>
      <trkpt lat="44.87024" lon="1.23155">
        <ele>163.695078</ele>
        <time>2022-03-18T12:06:03.890Z</time>
      </trkpt>
      <trkpt lat="44.87001" lon="1.23164">
        <ele>163.840393</ele>
        <time>2022-03-18T12:06:11.228Z</time>
      </trkpt>
      <trkpt lat="44.86996" lon="1.23166">
        <ele>163.870481</ele>
        <time>2022-03-18T12:06:12.734Z</time>
      </trkpt>
      <trkpt lat="44.86989" lon="1.23169">
        <ele>163.911144</ele>
        <time>2022-03-18T12:06:14.864Z</time>
      </trkpt>
      <trkpt lat="44.86986" lon="1.23166">
        <ele>163.93063</ele>
        <time>2022-03-18T12:06:16.240Z</time>
      </trkpt>
      <trkpt lat="44.86924" lon="1.23144">
        <ele>164.283099</ele>
        <time>2022-03-18T12:06:34.886Z</time>
      </trkpt>
      <trkpt lat="44.86776" lon="1.23104">
        <ele>165.28495</ele>
        <time>2022-03-18T12:07:19.099Z</time>
      </trkpt>
      <trkpt lat="44.86755" lon="1.23093">
        <ele>165.454873</ele>
        <time>2022-03-18T12:07:25.542Z</time>
      </trkpt>
      <trkpt lat="44.86704" lon="1.2304">
        <ele>165.95564</ele>
        <time>2022-03-18T12:07:45.277Z</time>
      </trkpt>
      <trkpt lat="44.86669" lon="1.23013">
        <ele>166.293358</ele>
        <time>2022-03-18T12:07:58.373Z</time>
      </trkpt>
      <trkpt lat="44.86565" lon="1.22962">
        <ele>167.327332</ele>
        <time>2022-03-18T12:08:32.464Z</time>
      </trkpt>
      <trkpt lat="44.86547" lon="1.22958">
        <ele>167.494727</ele>
        <time>2022-03-18T12:08:38.359Z</time>
      </trkpt>
      <trkpt lat="44.86531" lon="1.22963">
        <ele>167.653019</ele>
        <time>2022-03-18T12:08:43.147Z</time>
      </trkpt>
      <trkpt lat="44.86486" lon="1.22981">
        <ele>168.152638</ele>
        <time>2022-03-18T12:08:57.947Z</time>
      </trkpt>
      <trkpt lat="44.86484" lon="1.22976">
        <ele>168.198988</ele>
        <time>2022-03-18T12:08:59.020Z</time>
      </trkpt>
      <trkpt lat="44.86382" lon="1.22823">
        <ele>169.904327</ele>
        <time>2022-03-18T12:09:47.915Z</time>
      </trkpt>
      <trkpt lat="44.86346" lon="1.22776">
        <ele>170.071777</ele>
        <time>2022-03-18T12:10:07.023Z</time>
      </trkpt>
      <trkpt lat="44.86334" lon="1.22765">
        <ele>170.121137</ele>
        <time>2022-03-18T12:10:11.811Z</time>
      </trkpt>
      <trkpt lat="44.86282" lon="1.22746">
        <ele>170.303462</ele>
        <time>2022-03-18T12:10:28.487Z</time>
      </trkpt>
      <trkpt lat="44.86247" lon="1.22726">
        <ele>170.430857</ele>
        <time>2022-03-18T12:10:38.429Z</time>
      </trkpt>
      <trkpt lat="44.86243" lon="1.2272">
        <ele>170.451079</ele>
        <time>2022-03-18T12:10:41.276Z</time>
      </trkpt>
      <trkpt lat="44.86236" lon="1.22708">
        <ele>170.48773</ele>
        <time>2022-03-18T12:10:43.466Z</time>
      </trkpt>
      <trkpt lat="44.86222" lon="1.22631">
        <ele>168.777078</ele>
        <time>2022-03-18T12:10:56.086Z</time>
      </trkpt>
      <trkpt lat="44.86154" lon="1.22514">
        <ele>164.925653</ele>
        <time>2022-03-18T12:11:16.656Z</time>
      </trkpt>
      <trkpt lat="44.8614" lon="1.22483">
        <ele>164.036428</ele>
        <time>2022-03-18T12:11:21.652Z</time>
      </trkpt>
      <trkpt lat="44.86132" lon="1.22448">
        <ele>163.619566</ele>
        <time>2022-03-18T12:11:26.810Z</time>
      </trkpt>
      <trkpt lat="44.8613" lon="1.22413">
        <ele>163.229572</ele>
        <time>2022-03-18T12:11:31.539Z</time>
      </trkpt>
      <trkpt lat="44.8612" lon="1.2241">
        <ele>163.065227</ele>
        <time>2022-03-18T12:11:34.820Z</time>
      </trkpt>
      <trkpt lat="44.86058" lon="1.22371">
        <ele>161.978047</ele>
        <time>2022-03-18T12:11:49.788Z</time>
      </trkpt>
      <trkpt lat="44.86032" lon="1.22362">
        <ele>161.553846</ele>
        <time>2022-03-18T12:11:56.008Z</time>
      </trkpt>
      <trkpt lat="44.86002" lon="1.22363">
        <ele>161.363627</ele>
        <time>2022-03-18T12:12:05.082Z</time>
      </trkpt>
      <trkpt lat="44.8599" lon="1.22363">
        <ele>161.632218</ele>
        <time>2022-03-18T12:12:09.014Z</time>
      </trkpt>
      <trkpt lat="44.85978" lon="1.22362">
        <ele>161.896366</ele>
        <time>2022-03-18T12:12:14.531Z</time>
      </trkpt>
      <trkpt lat="44.85942" lon="1.22361">
        <ele>162.711311</ele>
        <time>2022-03-18T12:12:28.965Z</time>
      </trkpt>
      <trkpt lat="44.85874" lon="1.22324">
        <ele>164.337424</ele>
        <time>2022-03-18T12:12:58.418Z</time>
      </trkpt>
      <trkpt lat="44.85802" lon="1.22303">
        <ele>165.679757</ele>
        <time>2022-03-18T12:13:26.437Z</time>
      </trkpt>
      <trkpt lat="44.85779" lon="1.22306">
        <ele>166.001964</ele>
        <time>2022-03-18T12:13:35.026Z</time>
      </trkpt>
      <trkpt lat="44.8576" lon="1.22319">
        <ele>166.290587</ele>
        <time>2022-03-18T12:13:41.297Z</time>
      </trkpt>
      <trkpt lat="44.85756" lon="1.2232">
        <ele>166.345149</ele>
        <time>2022-03-18T12:13:42.826Z</time>
      </trkpt>
      <trkpt lat="44.85752" lon="1.22323">
        <ele>166.401652</ele>
        <time>2022-03-18T12:13:44.824Z</time>
      </trkpt>
      <trkpt lat="44.85742" lon="1.22328">
        <ele>166.549988</ele>
        <time>2022-03-18T12:13:47.803Z</time>
      </trkpt>
      <trkpt lat="44.85712" lon="1.2234">
        <ele>166.971228</ele>
        <time>2022-03-18T12:13:57.862Z</time>
      </trkpt>
      <trkpt lat="44.85706" lon="1.22342">
        <ele>167.058384</ele>
        <time>2022-03-18T12:13:59.390Z</time>
      </trkpt>
      <trkpt lat="44.85677" lon="1.22342">
        <ele>167.452092</ele>
        <time>2022-03-18T12:14:08.782Z</time>
      </trkpt>
      <trkpt lat="44.85599" lon="1.22297">
        <ele>167.562902</ele>
        <time>2022-03-18T12:14:32.945Z</time>
      </trkpt>
      <trkpt lat="44.85592" lon="1.22295">
        <ele>167.550337</ele>
        <time>2022-03-18T12:14:34.518Z</time>
      </trkpt>
      <trkpt lat="44.85583" lon="1.22293">
        <ele>167.533961</ele>
        <time>2022-03-18T12:14:37.660Z</time>
      </trkpt>
      <trkpt lat="44.85556" lon="1.22298">
        <ele>167.489041</ele>
        <time>2022-03-18T12:14:43.706Z</time>
      </trkpt>
      <trkpt lat="44.85543" lon="1.22322">
        <ele>167.452354</ele>
        <time>2022-03-18T12:14:49.541Z</time>
      </trkpt>
      <trkpt lat="44.85553" lon="1.22368">
        <ele>167.394766</ele>
        <time>2022-03-18T12:14:57.808Z</time>
      </trkpt>
      <trkpt lat="44.85552" lon="1.22388">
        <ele>167.360933</ele>
        <time>2022-03-18T12:15:00.938Z</time>
      </trkpt>
      <trkpt lat="44.85544" lon="1.22401">
        <ele>167.240906</ele>
        <time>2022-03-18T12:15:04.246Z</time>
      </trkpt>
      <trkpt lat="44.85528" lon="1.22408">
        <ele>167.078579</ele>
        <time>2022-03-18T12:15:08.311Z</time>
      </trkpt>
      <trkpt lat="44.8546" lon="1.22392">
        <ele>166.413303</ele>
        <time>2022-03-18T12:15:24.496Z</time>
      </trkpt>
      <trkpt lat="44.85433" lon="1.22393">
        <ele>166.152911</ele>
        <time>2022-03-18T12:15:30.624Z</time>
      </trkpt>
      <trkpt lat="44.85363" lon="1.22436">
        <ele>165.261879</ele>
        <time>2022-03-18T12:15:47.843Z</time>
      </trkpt>
      <trkpt lat="44.85293" lon="1.22519">
        <ele>163.783602</ele>
        <time>2022-03-18T12:16:07.868Z</time>
      </trkpt>
      <trkpt lat="44.85285" lon="1.22527">
        <ele>163.625046</ele>
        <time>2022-03-18T12:16:09.932Z</time>
      </trkpt>
      <trkpt lat="44.85255" lon="1.2256">
        <ele>163.007323</ele>
        <time>2022-03-18T12:16:18.113Z</time>
      </trkpt>
      <trkpt lat="44.852" lon="1.22612">
        <ele>161.463007</ele>
        <time>2022-03-18T12:16:32.348Z</time>
      </trkpt>
      <trkpt lat="44.85199" lon="1.22613">
        <ele>161.438555</ele>
        <time>2022-03-18T12:16:32.502Z</time>
      </trkpt>
      <trkpt lat="44.85148" lon="1.22643">
        <ele>160.003338</ele>
        <time>2022-03-18T12:16:43.586Z</time>
      </trkpt>
      <trkpt lat="44.85099" lon="1.22683">
        <ele>158.513444</ele>
        <time>2022-03-18T12:16:54.943Z</time>
      </trkpt>
      <trkpt lat="44.85071" lon="1.22694">
        <ele>157.697171</ele>
        <time>2022-03-18T12:17:00.808Z</time>
      </trkpt>
      <trkpt lat="44.85061" lon="1.22692">
        <ele>157.378015</ele>
        <time>2022-03-18T12:17:02.646Z</time>
      </trkpt>
      <trkpt lat="44.85054" lon="1.2269">
        <ele>157.162137</ele>
        <time>2022-03-18T12:17:03.984Z</time>
      </trkpt>
      <trkpt lat="44.85037" lon="1.22682">
        <ele>156.584473</ele>
        <time>2022-03-18T12:17:07.715Z</time>
      </trkpt>
      <trkpt lat="44.85001" lon="1.22652">
        <ele>155.261441</ele>
        <time>2022-03-18T12:17:15.807Z</time>
      </trkpt>
      <trkpt lat="44.84968" lon="1.22627">
        <ele>154.079323</ele>
        <time>2022-03-18T12:17:23.086Z</time>
      </trkpt>
      <trkpt lat="44.84921" lon="1.22603">
        <ele>152.496323</ele>
        <time>2022-03-18T12:17:32.782Z</time>
      </trkpt>
      <trkpt lat="44.84904" lon="1.22599">
        <ele>151.966988</ele>
        <time>2022-03-18T12:17:36.300Z</time>
      </trkpt>
      <trkpt lat="44.84883" lon="1.22605">
        <ele>151.348774</ele>
        <time>2022-03-18T12:17:40.480Z</time>
      </trkpt>
      <trkpt lat="44.84833" lon="1.22644">
        <ele>149.65792</ele>
        <time>2022-03-18T12:17:51.810Z</time>
      </trkpt>
      <trkpt lat="44.84793" lon="1.22693">
        <ele>148.073958</ele>
        <time>2022-03-18T12:18:02.365Z</time>
      </trkpt>
      <trkpt lat="44.84758" lon="1.22696">
        <ele>147.040004</ele>
        <time>2022-03-18T12:18:09.268Z</time>
      </trkpt>
      <trkpt lat="44.84734" lon="1.22709">
        <ele>146.186647</ele>
        <time>2022-03-18T12:18:14.541Z</time>
      </trkpt>
      <trkpt lat="44.84721" lon="1.22721">
        <ele>145.691399</ele>
        <time>2022-03-18T12:18:17.577Z</time>
      </trkpt>
      <trkpt lat="44.84717" lon="1.22724">
        <ele>145.561966</ele>
        <time>2022-03-18T12:18:18.315Z</time>
      </trkpt>
      <trkpt lat="44.84702" lon="1.22742">
        <ele>144.932754</ele>
        <time>2022-03-18T12:18:22.285Z</time>
      </trkpt>
      <trkpt lat="44.84619" lon="1.22893">
        <ele>140.398238</ele>
        <time>2022-03-18T12:18:48.734Z</time>
      </trkpt>
      <trkpt lat="44.84607" lon="1.22908">
        <ele>139.788846</ele>
        <time>2022-03-18T12:18:51.643Z</time>
      </trkpt>
      <trkpt lat="44.84582" lon="1.22924">
        <ele>138.704741</ele>
        <time>2022-03-18T12:18:56.895Z</time>
      </trkpt>
      <trkpt lat="44.8457" lon="1.22926">
        <ele>138.20565</ele>
        <time>2022-03-18T12:18:59.224Z</time>
      </trkpt>
      <trkpt lat="44.8455" lon="1.22919">
        <ele>137.393172</ele>
        <time>2022-03-18T12:19:03.105Z</time>
      </trkpt>
      <trkpt lat="44.84539" lon="1.22913">
        <ele>136.925266</ele>
        <time>2022-03-18T12:19:05.271Z</time>
      </trkpt>
      <trkpt lat="44.84488" lon="1.22885">
        <ele>134.781446</ele>
        <time>2022-03-18T12:19:15.424Z</time>
      </trkpt>
      <trkpt lat="44.84433" lon="1.22844">
        <ele>132.884233</ele>
        <time>2022-03-18T12:19:27.225Z</time>
      </trkpt>
      <trkpt lat="44.84421" lon="1.22835">
        <ele>132.521622</ele>
        <time>2022-03-18T12:19:29.810Z</time>
      </trkpt>
      <trkpt lat="44.84368" lon="1.22806">
        <ele>130.986698</ele>
        <time>2022-03-18T12:19:40.999Z</time>
      </trkpt>
      <trkpt lat="44.84356" lon="1.228">
        <ele>130.634265</ele>
        <time>2022-03-18T12:19:43.660Z</time>
      </trkpt>
      <trkpt lat="44.84316" lon="1.22782">
        <ele>129.494244</ele>
        <time>2022-03-18T12:19:52.743Z</time>
      </trkpt>
      <trkpt lat="44.84236" lon="1.22784">
        <ele>128.758597</ele>
        <time>2022-03-18T12:20:11.792Z</time>
      </trkpt>
      <trkpt lat="44.84228" lon="1.22783">
        <ele>128.703523</ele>
        <time>2022-03-18T12:20:13.930Z</time>
      </trkpt>
      <trkpt lat="44.8421" lon="1.22779">
        <ele>128.578914</ele>
        <time>2022-03-18T12:20:18.563Z</time>
      </trkpt>
      <trkpt lat="44.84088" lon="1.22753">
        <ele>127.44416</ele>
        <time>2022-03-18T12:20:49.266Z</time>
      </trkpt>
      <trkpt lat="44.84068" lon="1.22756">
        <ele>127.163126</ele>
        <time>2022-03-18T12:20:54.058Z</time>
      </trkpt>
      <trkpt lat="44.84012" lon="1.2278">
        <ele>126.348758</ele>
        <time>2022-03-18T12:21:06.936Z</time>
      </trkpt>
      <trkpt lat="44.83966" lon="1.22776">
        <ele>125.716398</ele>
        <time>2022-03-18T12:21:16.507Z</time>
      </trkpt>
      <trkpt lat="44.83962" lon="1.22779">
        <ele>125.653863</ele>
        <time>2022-03-18T12:21:17.393Z</time>
      </trkpt>
      <trkpt lat="44.83956" lon="1.22769">
        <ele>125.524376</ele>
        <time>2022-03-18T12:21:19.458Z</time>
      </trkpt>
      <trkpt lat="44.83922" lon="1.22756">
        <ele>124.733542</ele>
        <time>2022-03-18T12:21:26.830Z</time>
      </trkpt>
      <trkpt lat="44.83912" lon="1.22749">
        <ele>124.481548</ele>
        <time>2022-03-18T12:21:29.232Z</time>
      </trkpt>
      <trkpt lat="44.83897" lon="1.2275">
        <ele>124.156553</ele>
        <time>2022-03-18T12:21:32.068Z</time>
      </trkpt>
      <trkpt lat="44.83772" lon="1.22711">
        <ele>121.379442</ele>
        <time>2022-03-18T12:21:58.387Z</time>
      </trkpt>
      <trkpt lat="44.83683" lon="1.22665">
        <ele>120.464862</ele>
        <time>2022-03-18T12:22:19.080Z</time>
      </trkpt>
      <trkpt lat="44.83615" lon="1.22639">
        <ele>119.789138</ele>
        <time>2022-03-18T12:22:36.606Z</time>
      </trkpt>
      <trkpt lat="44.83413" lon="1.22546">
        <ele>121.970949</ele>
        <time>2022-03-18T12:23:46.744Z</time>
      </trkpt>
      <trkpt lat="44.83305" lon="1.22513">
        <ele>122.915669</ele>
        <time>2022-03-18T12:24:22.967Z</time>
      </trkpt>
      <trkpt lat="44.8328" lon="1.22511">
        <ele>123.125064</ele>
        <time>2022-03-18T12:24:29.131Z</time>
      </trkpt>
      <trkpt lat="44.83274" lon="1.22512">
        <ele>123.17668</ele>
        <time>2022-03-18T12:24:31.836Z</time>
      </trkpt>
      <trkpt lat="44.83251" lon="1.22516">
        <ele>122.930595</ele>
        <time>2022-03-18T12:24:37.277Z</time>
      </trkpt>
      <trkpt lat="44.83195" lon="1.22531">
        <ele>121.158496</ele>
        <time>2022-03-18T12:24:51.615Z</time>
      </trkpt>
      <trkpt lat="44.83169" lon="1.22543">
        <ele>120.334176</ele>
        <time>2022-03-18T12:24:56.949Z</time>
      </trkpt>
      <trkpt lat="44.83168" lon="1.22544">
        <ele>120.293296</ele>
        <time>2022-03-18T12:24:57.277Z</time>
      </trkpt>
      <trkpt lat="44.83104" lon="1.22587">
        <ele>118.093203</ele>
        <time>2022-03-18T12:25:10.140Z</time>
      </trkpt>
      <trkpt lat="44.83067" lon="1.22609">
        <ele>116.027167</ele>
        <time>2022-03-18T12:25:17.160Z</time>
      </trkpt>
      <trkpt lat="44.83065" lon="1.2261">
        <ele>115.902331</ele>
        <time>2022-03-18T12:25:17.525Z</time>
      </trkpt>
      <trkpt lat="44.83057" lon="1.22608">
        <ele>115.394175</ele>
        <time>2022-03-18T12:25:18.876Z</time>
      </trkpt>
      <trkpt lat="44.83026" lon="1.22612">
        <ele>113.479747</ele>
        <time>2022-03-18T12:25:24.439Z</time>
      </trkpt>
      <trkpt lat="44.83018" lon="1.22603">
        <ele>112.86129</ele>
        <time>2022-03-18T12:25:26.142Z</time>
      </trkpt>
      <trkpt lat="44.83005" lon="1.22601">
        <ele>112.079454</ele>
        <time>2022-03-18T12:25:28.465Z</time>
      </trkpt>
      <trkpt lat="44.82975" lon="1.22614">
        <ele>110.191006</ele>
        <time>2022-03-18T12:25:33.790Z</time>
      </trkpt>
      <trkpt lat="44.82836" lon="1.22588">
        <ele>102.473962</ele>
        <time>2022-03-18T12:25:58.850Z</time>
      </trkpt>
      <trkpt lat="44.82832" lon="1.2258">
        <ele>102.079941</ele>
        <time>2022-03-18T12:26:00.200Z</time>
      </trkpt>
      <trkpt lat="44.82833" lon="1.22563">
        <ele>101.481468</ele>
        <time>2022-03-18T12:26:02.225Z</time>
      </trkpt>
      <trkpt lat="44.82857" lon="1.22523">
        <ele>99.564372</ele>
        <time>2022-03-18T12:26:09.052Z</time>
      </trkpt>
      <trkpt lat="44.82867" lon="1.22507">
        <ele>98.750739</ele>
        <time>2022-03-18T12:26:12.209Z</time>
      </trkpt>
      <trkpt lat="44.82898" lon="1.22459">
        <ele>96.120186</ele>
        <time>2022-03-18T12:26:20.545Z</time>
      </trkpt>
      <trkpt lat="44.82908" lon="1.22443">
        <ele>95.156178</ele>
        <time>2022-03-18T12:26:23.247Z</time>
      </trkpt>
      <trkpt lat="44.82879" lon="1.22442">
        <ele>93.312695</ele>
        <time>2022-03-18T12:26:30.003Z</time>
      </trkpt>
      <trkpt lat="44.82853" lon="1.22434">
        <ele>91.591574</ele>
        <time>2022-03-18T12:26:36.899Z</time>
      </trkpt>
      <trkpt lat="44.82813" lon="1.22405">
        <ele>88.709612</ele>
        <time>2022-03-18T12:26:47.155Z</time>
      </trkpt>
      <trkpt lat="44.82802" lon="1.22348">
        <ele>86.002827</ele>
        <time>2022-03-18T12:26:56.922Z</time>
      </trkpt>
      <trkpt lat="44.82785" lon="1.22326">
        <ele>84.952976</ele>
        <time>2022-03-18T12:27:02.566Z</time>
      </trkpt>
      <trkpt lat="44.82784" lon="1.22318">
        <ele>84.683646</ele>
        <time>2022-03-18T12:27:03.802Z</time>
      </trkpt>
      <trkpt lat="44.8278" lon="1.22319">
        <ele>84.511218</ele>
        <time>2022-03-18T12:27:04.420Z</time>
      </trkpt>
      <trkpt lat="44.82762" lon="1.22314">
        <ele>83.628756</ele>
        <time>2022-03-18T12:27:08.169Z</time>
      </trkpt>
      <trkpt lat="44.82744" lon="1.22305">
        <ele>82.779073</ele>
        <time>2022-03-18T12:27:11.274Z</time>
      </trkpt>
      <trkpt lat="44.82737" lon="1.22296">
        <ele>82.347435</ele>
        <time>2022-03-18T12:27:13.185Z</time>
      </trkpt>
      <trkpt lat="44.82722" lon="1.22272">
        <ele>81.272562</ele>
        <time>2022-03-18T12:27:17.285Z</time>
      </trkpt>
      <trkpt lat="44.82717" lon="1.22258">
        <ele>80.752701</ele>
        <time>2022-03-18T12:27:19.496Z</time>
      </trkpt>
      <trkpt lat="44.82711" lon="1.22245">
        <ele>80.278822</ele>
        <time>2022-03-18T12:27:21.650Z</time>
      </trkpt>
      <trkpt lat="44.82707" lon="1.22235">
        <ele>79.87413</ele>
        <time>2022-03-18T12:27:23.234Z</time>
      </trkpt>
      <trkpt lat="44.82707" lon="1.22232">
        <ele>79.781365</ele>
        <time>2022-03-18T12:27:23.546Z</time>
      </trkpt>
      <trkpt lat="44.82706" lon="1.22228">
        <ele>79.634498</ele>
        <time>2022-03-18T12:27:24.068Z</time>
      </trkpt>
      <trkpt lat="44.82704" lon="1.22225">
        <ele>79.520072</ele>
        <time>2022-03-18T12:27:24.486Z</time>
      </trkpt>
      <trkpt lat="44.82702" lon="1.22208">
        <ele>78.939395</ele>
        <time>2022-03-18T12:27:27.312Z</time>
      </trkpt>
      <trkpt lat="44.827" lon="1.22199">
        <ele>78.64814</ele>
        <time>2022-03-18T12:27:28.649Z</time>
      </trkpt>
      <trkpt lat="44.82644" lon="1.22042">
        <ele>78.679981</ele>
        <time>2022-03-18T12:27:58.740Z</time>
      </trkpt>
      <trkpt lat="44.82634" lon="1.21999">
        <ele>78.991841</ele>
        <time>2022-03-18T12:28:11.123Z</time>
      </trkpt>
      <trkpt lat="44.82632" lon="1.21989">
        <ele>79.066207</ele>
        <time>2022-03-18T12:28:14.948Z</time>
      </trkpt>
      <trkpt lat="44.82607" lon="1.21954">
        <ele>79.409682</ele>
        <time>2022-03-18T12:28:31.604Z</time>
      </trkpt>
      <trkpt lat="44.8258" lon="1.21888">
        <ele>81.619772</ele>
        <time>2022-03-18T12:28:57.991Z</time>
      </trkpt>
      <trkpt lat="44.82576" lon="1.21854">
        <ele>82.648236</ele>
        <time>2022-03-18T12:29:10.044Z</time>
      </trkpt>
      <trkpt lat="44.82579" lon="1.21823">
        <ele>83.571885</ele>
        <time>2022-03-18T12:29:20.916Z</time>
      </trkpt>
      <trkpt lat="44.8258" lon="1.21815">
        <ele>83.797993</ele>
        <time>2022-03-18T12:29:24.336Z</time>
      </trkpt>
      <trkpt lat="44.826" lon="1.21736">
        <ele>86.277007</ele>
        <time>2022-03-18T12:29:52.601Z</time>
      </trkpt>
      <trkpt lat="44.82592" lon="1.21711">
        <ele>87.01004</ele>
        <time>2022-03-18T12:30:01.259Z</time>
      </trkpt>
      <trkpt lat="44.82581" lon="1.21685">
        <ele>87.527975</ele>
        <time>2022-03-18T12:30:10.494Z</time>
      </trkpt>
      <trkpt lat="44.82542" lon="1.21624">
        <ele>88.948725</ele>
        <time>2022-03-18T12:30:36.121Z</time>
      </trkpt>
      <trkpt lat="44.82496" lon="1.21551">
        <ele>90.61935</ele>
        <time>2022-03-18T12:30:58.888Z</time>
      </trkpt>
      <trkpt lat="44.82489" lon="1.21538">
        <ele>90.906665</ele>
        <time>2022-03-18T12:31:02.642Z</time>
      </trkpt>
      <trkpt lat="44.82492" lon="1.21536">
        <ele>90.979249</ele>
        <time>2022-03-18T12:31:03.649Z</time>
      </trkpt>
      <trkpt lat="44.82499" lon="1.2153">
        <ele>91.173367</ele>
        <time>2022-03-18T12:31:06.191Z</time>
      </trkpt>
      <trkpt lat="44.82516" lon="1.21515">
        <ele>91.261796</ele>
        <time>2022-03-18T12:31:12.841Z</time>
      </trkpt>
      <trkpt lat="44.82547" lon="1.21488">
        <ele>91.261796</ele>
        <time>2022-03-18T12:31:25.468Z</time>
      </trkpt>
      <trkpt lat="44.82609" lon="1.21435">
        <ele>91.261796</ele>
        <time>2022-03-18T12:31:50.782Z</time>
      </trkpt>
      <trkpt lat="44.82624" lon="1.21418">
        <ele>91.261796</ele>
        <time>2022-03-18T12:31:58.101Z</time>
      </trkpt>
      <trkpt lat="44.82634" lon="1.21396">
        <ele>91.261796</ele>
        <time>2022-03-18T12:32:03.857Z</time>
      </trkpt>
      <trkpt lat="44.82635" lon="1.21391">
        <ele>91.261796</ele>
        <time>2022-03-18T12:32:05.803Z</time>
      </trkpt>
      <trkpt lat="44.82639" lon="1.21373">
        <ele>91.261796</ele>
        <time>2022-03-18T12:32:10.255Z</time>
      </trkpt>
      <trkpt lat="44.82636" lon="1.21371">
        <ele>91.261796</ele>
        <time>2022-03-18T12:32:11.209Z</time>
      </trkpt>
      <trkpt lat="44.82627" lon="1.21344">
        <ele>91.261796</ele>
        <time>2022-03-18T12:32:18.441Z</time>
      </trkpt>
      <trkpt lat="44.82626" lon="1.21301">
        <ele>91.261796</ele>
        <time>2022-03-18T12:32:28.157Z</time>
      </trkpt>
      <trkpt lat="44.82627" lon="1.21292">
        <ele>91.261796</ele>
        <time>2022-03-18T12:32:30.600Z</time>
      </trkpt>
      <trkpt lat="44.82626" lon="1.2129">
        <ele>91.261796</ele>
        <time>2022-03-18T12:32:31.223Z</time>
        <extensions>
          <visugpx:TrkExtension xmlns:visugpx="https://www.visugpx.com/editgpx/">
            <visugpx:node>1</visugpx:node>
            </visugpx:TrkExtension>
        </extensions>
      </trkpt>
    </trkseg>
  </trk>
</gpx>